Provisional Data: Marsh Creek near Blanchard, PA


Please select a monitoring station.
Please select start date.
Please select start date.

Toggle Unit: C/F Toggle Unit: C/F
Sample Time Temperature (C) Temperature (F) Specific Conductivity (mS/cm) pH   Turbidity (NTU+) DO (mg/L)
2/4/2021 12:00:00 AM -0.11 31.802 0.102 6.23 2.42 14.18
2/4/2021 12:15:00 AM -0.11 31.802 0.102 6.23 2.43 14.18
2/4/2021 12:30:00 AM -0.11 31.802 0.102 6.21 2.45 14.18
2/4/2021 12:45:00 AM -0.11 31.802 0.102 6.21 2.44 14.18
2/4/2021 1:00:00 AM -0.12 31.784 0.102 6.2 2.44 14.18
2/4/2021 1:15:00 AM -0.11 31.802 0.102 6.2 2.48 14.18
2/4/2021 1:30:00 AM -0.11 31.802 0.103 6.17 2.41 14.18
2/4/2021 1:45:00 AM -0.11 31.802 0.103 6.19 2.45 14.18
2/4/2021 2:00:00 AM -0.11 31.802 0.103 6.19 2.45 14.19
2/4/2021 2:15:00 AM -0.11 31.802 0.104 6.19 2.43 14.19
2/4/2021 2:30:00 AM -0.12 31.784 0.103 6.2 2.39 14.18
2/4/2021 2:45:00 AM -0.11 31.802 0.104 6.2 2.44 14.18
2/4/2021 3:00:00 AM -0.11 31.802 0.104 6.2 2.43 14.18
2/4/2021 3:15:00 AM -0.11 31.802 0.104 6.2 2.38 14.18
2/4/2021 3:30:00 AM -0.11 31.802 0.104 6.19 2.39 14.19
2/4/2021 3:45:00 AM -0.11 31.802 0.105 6.19 2.4 14.18
2/4/2021 4:00:00 AM -0.11 31.802 0.105 6.19 2.43 14.19
2/4/2021 4:15:00 AM -0.11 31.802 0.105 6.2 2.39 14.18
2/4/2021 4:30:00 AM -0.11 31.802 0.105 6.2 2.39 14.18
2/4/2021 4:45:00 AM -0.11 31.802 0.106 6.21 2.37 14.18
2/4/2021 5:00:00 AM -0.12 31.784 0.106 6.21 2.38 14.19
2/4/2021 5:15:00 AM -0.11 31.802 0.106 6.21 2.39 14.19
2/4/2021 5:30:00 AM -0.11 31.802 0.106 6.2 2.37 14.19
2/4/2021 5:45:00 AM -0.11 31.802 0.106 6.2 2.38 14.19
2/4/2021 6:00:00 AM -0.11 31.802 0.107 6.22 2.4 14.18
2/4/2021 6:15:00 AM -0.11 31.802 0.107 6.22 2.35 14.18
2/4/2021 6:30:00 AM -0.12 31.784 0.107 6.22 2.39 14.18
2/4/2021 6:45:00 AM -0.12 31.784 0.108 6.23 2.37 14.19
2/4/2021 7:00:00 AM -0.12 31.784 0.108 6.23 2.37 14.18
2/4/2021 7:15:00 AM -0.12 31.784 0.108 6.25 2.35 14.19
2/4/2021 7:30:00 AM -0.12 31.784 0.108 6.25 2.37 14.19
2/4/2021 7:45:00 AM -0.12 31.784 0.108 6.24 2.38 14.23
2/4/2021 8:00:00 AM -0.12 31.784 0.108 6.25 2.36 14.28
2/4/2021 8:15:00 AM -0.1 31.82 0.109 6.26 2.41 14.32
2/4/2021 8:30:00 AM -0.09 31.838 0.109 6.25 2.34 14.37
2/4/2021 8:45:00 AM -0.07 31.874 0.109 6.27 2.32 14.42
2/4/2021 9:00:00 AM -0.04 31.928 0.109 6.27 2.33 14.45
2/4/2021 9:15:00 AM -0.02 31.964 0.109 6.29 2.34 14.49
2/4/2021 9:30:00 AM 0 32 0.11 6.28 2.36 14.52
2/4/2021 9:45:00 AM 0.02 32.036 0.109 6.29 2.32 14.55
2/4/2021 10:00:00 AM 0.04 32.072 0.11 6.28 2.37 14.58
2/4/2021 10:15:00 AM 0.07 32.126 0.11 6.29 2.38 14.61
2/4/2021 10:30:00 AM 0.1 32.18 0.11 6.29 2.38 14.64
2/4/2021 10:45:00 AM 0.14 32.252 0.11 6.29 2.37 14.66
2/4/2021 11:00:00 AM 0.13 32.234 0.11 6.29 2.41 14.71
2/4/2021 11:15:00 AM 0.18 32.324 0.11 6.32 2.38 14.72
2/4/2021 11:30:00 AM 0.2 32.36 0.109 6.34 2.41 14.74
2/4/2021 11:45:00 AM 0.24 32.432 0.109 6.36 2.44 14.77
2/4/2021 12:00:00 PM 0.29 32.522 0.108 6.39 2.43 14.78
2/4/2021 12:15:00 PM 0.31 32.558 0.107 6.4 2.36 14.81
2/4/2021 12:30:00 PM 0.43 32.774 0.107 6.41 2.4 14.8
2/4/2021 12:45:00 PM 0.49 32.882 0.107 6.43 2.41 14.8
2/4/2021 1:00:00 PM 0.51 32.918 0.106 6.43 2.35 14.8
2/4/2021 1:15:00 PM 0.56 33.008 0.106 6.44 2.4 14.8
2/4/2021 1:30:00 PM 0.56 33.008 0.105 6.44 2.38 14.79
2/4/2021 1:45:00 PM 0.56 33.008 0.105 6.43 2.39 14.79
2/4/2021 2:00:00 PM 0.55 32.99 0.105 6.44 2.38 14.78
2/4/2021 2:15:00 PM 0.54 32.972 0.104 6.44 2.42 14.78
2/4/2021 2:30:00 PM 0.49 32.882 0.104 6.44 2.41 14.78
2/4/2021 2:45:00 PM 0.47 32.846 0.104 6.45 2.43 14.78
2/4/2021 3:00:00 PM 0.44 32.792 0.104 6.45 2.49 14.77
2/4/2021 3:15:00 PM 0.37 32.666 0.103 6.45 2.44 14.78
2/4/2021 3:30:00 PM 0.33 32.594 0.103 6.45 2.4 14.79
2/4/2021 3:45:00 PM 0.27 32.486 0.103 6.46 2.56 14.79
2/4/2021 4:00:00 PM 0.24 32.432 0.103 6.44 2.48 14.79
2/4/2021 4:15:00 PM 0.16 32.288 0.102 6.46 2.53 14.8
2/4/2021 4:30:00 PM 0.11 32.198 0.102 6.45 2.49 14.8
2/4/2021 4:45:00 PM 0.06 32.108 0.102 6.46 2.69 14.79
2/4/2021 5:00:00 PM 0 32 0.102 6.45 2.55 14.78
2/4/2021 5:15:00 PM -0.03 31.946 0.102 6.45 2.52 14.75
2/4/2021 5:30:00 PM -0.05 31.91 0.102 6.45 2.52 14.72
2/4/2021 5:45:00 PM -0.07 31.874 0.101 6.43 2.58 14.69
2/4/2021 6:00:00 PM -0.08 31.856 0.102 6.42 2.54 14.65
2/4/2021 6:15:00 PM -0.09 31.838 0.102 6.41 2.63 14.62
2/4/2021 6:30:00 PM -0.1 31.82 0.101 6.4 2.71 14.58
2/4/2021 6:45:00 PM -0.1 31.82 0.102 6.39 2.57 14.54
2/4/2021 7:00:00 PM -0.1 31.82 0.102 6.38 2.56 14.49
2/4/2021 7:15:00 PM -0.11 31.802 0.102 6.36 2.55 14.46
2/4/2021 7:30:00 PM -0.11 31.802 0.102 6.36 2.52 14.42
2/4/2021 7:45:00 PM -0.11 31.802 0.102 6.35 2.56 14.38
2/4/2021 8:00:00 PM -0.11 31.802 0.103 6.35 2.57 14.36
2/4/2021 8:15:00 PM -0.1 31.82 0.103 6.33 2.58 14.33
2/4/2021 8:30:00 PM -0.1 31.82 0.103 6.34 2.64 14.31
2/4/2021 8:45:00 PM -0.1 31.82 0.103 6.33 2.67 14.28
2/4/2021 9:00:00 PM -0.1 31.82 0.103 6.33 2.63 14.27
2/4/2021 9:15:00 PM -0.09 31.838 0.103 6.32 2.58 14.24
2/4/2021 9:30:00 PM -0.09 31.838 0.104 6.32 2.64 14.23
2/4/2021 9:45:00 PM -0.09 31.838 0.103 6.32 2.59 14.22
2/4/2021 10:00:00 PM -0.08 31.856 0.104 6.32 2.62 14.21
2/4/2021 10:15:00 PM -0.08 31.856 0.104 6.31 2.54 14.19
2/4/2021 10:30:00 PM -0.08 31.856 0.104 6.31 2.59 14.18
2/4/2021 10:45:00 PM -0.08 31.856 0.104 6.31 2.57 14.17
2/4/2021 11:00:00 PM -0.07 31.874 0.105 6.31 2.5 14.16
2/4/2021 11:15:00 PM -0.07 31.874 0.105 6.3 2.56 14.15
2/4/2021 11:30:00 PM -0.07 31.874 0.105 6.3 2.64 14.13
2/4/2021 11:45:00 PM -0.07 31.874 0.105 6.31 2.5 14.12
2/5/2021 12:00:00 AM -0.06 31.892 0.106 6.3 2.59 14.11
2/5/2021 12:15:00 AM -0.06 31.892 0.106 6.3 2.57 14.11
2/5/2021 12:30:00 AM -0.06 31.892 0.106 6.31 2.54 14.1
2/5/2021 12:45:00 AM -0.06 31.892 0.107 6.3 2.56 14.08
2/5/2021 1:00:00 AM -0.05 31.91 0.107 6.28 2.54 14.08
2/5/2021 1:15:00 AM -0.06 31.892 0.107 6.3 2.49 14.08
2/5/2021 1:30:00 AM -0.06 31.892 0.108 6.3 2.52 14.06
2/5/2021 1:45:00 AM -0.05 31.91 0.108 6.3 2.55 14.06
2/5/2021 2:00:00 AM -0.04 31.928 0.108 6.29 2.46 14.06
2/5/2021 2:15:00 AM -0.04 31.928 0.108 6.3 2.48 14.05
2/5/2021 2:30:00 AM -0.04 31.928 0.108 6.31 2.5 14.04
2/5/2021 2:45:00 AM -0.03 31.946 0.108 6.3 2.55 14.03
2/5/2021 3:00:00 AM -0.04 31.928 0.108 6.3 2.51 14.03
2/5/2021 3:15:00 AM -0.05 31.91 0.108 6.3 2.54 14.02
2/5/2021 3:30:00 AM -0.04 31.928 0.108 6.29 2.51 14.01
2/5/2021 3:45:00 AM -0.04 31.928 0.108 6.27 2.53 14.02
2/5/2021 4:00:00 AM -0.04 31.928 0.108 6.29 2.5 14
2/5/2021 4:15:00 AM -0.03 31.946 0.108 6.3 2.5 13.99
2/5/2021 4:30:00 AM -0.03 31.946 0.108 6.3 2.52 13.99
2/5/2021 4:45:00 AM -0.02 31.964 0.108 6.29 2.5 13.98
2/5/2021 5:00:00 AM -0.02 31.964 0.108 6.3 2.45 13.98
2/5/2021 5:15:00 AM -0.01 31.982 0.108 6.3 2.47 13.97
2/5/2021 5:30:00 AM -0.01 31.982 0.109 6.3 2.48 13.96
2/5/2021 5:45:00 AM -0.01 31.982 0.109 6.3 2.47 13.96
2/5/2021 6:00:00 AM -0.01 31.982 0.109 6.29 2.44 13.96
2/5/2021 6:15:00 AM -0.01 31.982 0.109 6.29 2.38 13.96
2/5/2021 6:30:00 AM -0.01 31.982 0.11 6.3 2.46 13.96
2/5/2021 6:45:00 AM -0.02 31.964 0.11 6.29 2.44 13.97
2/5/2021 7:00:00 AM -0.02 31.964 0.11 6.3 2.43 13.96
2/5/2021 7:15:00 AM -0.02 31.964 0.11 6.3 2.39 13.96
2/5/2021 7:30:00 AM -0.02 31.964 0.111 6.3 2.46 13.96
2/5/2021 7:45:00 AM -0.02 31.964 0.111 6.3 2.5 13.99
2/5/2021 8:00:00 AM 0 32 0.112 6.3 2.38 14
2/5/2021 8:15:00 AM 0.01 32.018 0.112 6.31 2.44 14.04
2/5/2021 8:30:00 AM 0.03 32.054 0.112 6.31 2.45 14.1
2/5/2021 8:45:00 AM 0.05 32.09 0.112 6.31 2.51 14.16
2/5/2021 9:00:00 AM 0.08 32.144 0.112 6.32 2.44 14.21
2/5/2021 9:15:00 AM 0.11 32.198 0.113 6.33 2.41 14.26
2/5/2021 9:30:00 AM 0.15 32.27 0.113 6.34 2.5 14.31
2/5/2021 9:45:00 AM 0.23 32.414 0.113 6.35 2.42 14.35
2/5/2021 10:00:00 AM 0.3 32.54 0.112 6.36 2.42 14.39
2/5/2021 10:15:00 AM 0.46 32.828 0.112 6.37 2.6 14.43
2/5/2021 10:30:00 AM 0.59 33.062 0.112 6.39 2.46 14.46
2/5/2021 10:45:00 AM 0.62 33.116 0.111 6.39 2.41 14.47
2/5/2021 11:00:00 AM 0.63 33.134 0.112 6.38 2.45 14.49
2/5/2021 11:15:00 AM 0.54 32.972 0.111 6.39 2.36 14.53
2/5/2021 11:30:00 AM 0.49 32.882 0.111 6.39 2.41 14.56
2/5/2021 11:45:00 AM 0.51 32.918 0.111 6.4 2.46 14.57
2/5/2021 12:00:00 PM 0.69 33.242 0.11 6.41 2.44 14.57
2/5/2021 12:15:00 PM 0.71 33.278 0.109 6.41 2.4 14.58
2/5/2021 12:30:00 PM 0.66 33.188 0.109 6.42 2.43 14.59
2/5/2021 12:45:00 PM 0.69 33.242 0.109 6.43 2.39 14.59
2/5/2021 1:00:00 PM 0.7 33.26 0.109 6.42 2.43 14.58
2/5/2021 1:15:00 PM 0.59 33.062 0.108 6.43 2.39 14.6
2/5/2021 1:30:00 PM 0.52 32.936 0.108 6.43 2.4 14.61
2/5/2021 1:45:00 PM 0.5 32.9 0.108 6.43 2.48 14.62
2/5/2021 2:00:00 PM 0.55 32.99 0.108 6.43 2.43 14.61
2/5/2021 2:15:00 PM 0.58 33.044 0.108 6.44 2.51 14.61
2/5/2021 2:30:00 PM 0.6 33.08 0.107 6.43 2.43 14.59
2/5/2021 2:45:00 PM 0.6 33.08 0.107 6.43 2.45 14.59
2/5/2021 3:00:00 PM 0.56 33.008 0.107 6.43 2.52 14.6
2/5/2021 3:15:00 PM 0.49 32.882 0.107 6.42 2.48 14.61
2/5/2021 3:30:00 PM 0.48 32.864 0.108 6.42 2.52 14.62
2/5/2021 3:45:00 PM 0.45 32.81 0.107 6.42 2.55 14.64
2/5/2021 4:00:00 PM 0.4 32.72 0.108 6.42 2.53 14.64
2/5/2021 4:15:00 PM 0.37 32.666 0.108 6.42 2.54 14.64
2/5/2021 4:30:00 PM 0.31 32.558 0.108 6.41 2.56 14.65
2/5/2021 4:45:00 PM 0.28 32.504 0.109 6.4 2.56 14.64
2/5/2021 5:00:00 PM 0.24 32.432 0.109 6.39 2.6 14.63
2/5/2021 5:15:00 PM 0.21 32.378 0.109 6.39 2.68 14.6
2/5/2021 5:30:00 PM 0.17 32.306 0.108 6.38 2.59 14.57
2/5/2021 5:45:00 PM 0.14 32.252 0.109 6.37 2.65 14.52
2/5/2021 6:00:00 PM 0.11 32.198 0.11 6.36 2.61 14.49
2/5/2021 6:15:00 PM 0.08 32.144 0.109 6.36 2.62 14.45
2/5/2021 6:30:00 PM 0.05 32.09 0.11 6.36 2.67 14.43
2/5/2021 6:45:00 PM 0.01 32.018 0.11 6.35 2.63 14.4
2/5/2021 7:00:00 PM 0 32 0.11 6.34 2.69 14.37
2/5/2021 7:15:00 PM -0.03 31.946 0.111 6.33 2.68 14.34
2/5/2021 7:30:00 PM -0.06 31.892 0.111 6.33 2.75 14.32
2/5/2021 7:45:00 PM -0.08 31.856 0.111 6.32 2.69 14.29
2/5/2021 8:00:00 PM -0.1 31.82 0.112 6.33 2.65 14.27
2/5/2021 8:15:00 PM -0.1 31.82 0.112 6.32 2.64 14.26
2/5/2021 8:30:00 PM -0.1 31.82 0.113 6.32 2.62 14.23
2/5/2021 8:45:00 PM -0.12 31.784 0.114 6.31 2.63 14.22
2/5/2021 9:00:00 PM -0.13 31.766 0.114 6.31 2.63 14.21
2/5/2021 9:15:00 PM -0.13 31.766 0.114 6.31 2.69 14.2
2/5/2021 9:30:00 PM -0.11 31.802 0.114 6.32 2.7 14.18
2/5/2021 9:45:00 PM -0.1 31.82 0.116 6.33 2.62 14.15
2/5/2021 10:00:00 PM -0.08 31.856 0.117 6.33 2.65 14.11
2/5/2021 10:15:00 PM -0.09 31.838 0.118 6.33 2.77 14.14
2/5/2021 10:30:00 PM -0.09 31.838 0.118 6.34 2.65 14.13
2/5/2021 10:45:00 PM -0.08 31.856 0.118 6.33 2.72 14.14
2/5/2021 11:00:00 PM -0.09 31.838 0.119 6.33 2.72 14.14
2/5/2021 11:15:00 PM -0.09 31.838 0.119 6.32 2.72 14.14
2/5/2021 11:30:00 PM -0.11 31.802 0.119 6.32 2.7 14.14
2/5/2021 11:45:00 PM -0.11 31.802 0.119 6.33 2.71 14.15
2/6/2021 12:00:00 AM -0.12 31.784 0.119 6.32 2.7 14.15
2/6/2021 12:15:00 AM -0.12 31.784 0.119 6.32 2.72 14.15
2/6/2021 12:30:00 AM -0.12 31.784 0.118 6.32 2.72 14.16
2/6/2021 12:45:00 AM -0.12 31.784 0.119 6.32 2.72 14.16
2/6/2021 1:00:00 AM -0.11 31.802 0.119 6.32 2.7 14.16
2/6/2021 1:15:00 AM -0.1 31.82 0.119 6.33 2.67 14.16
2/6/2021 1:30:00 AM -0.1 31.82 0.119 6.32 2.69 14.15
2/6/2021 1:45:00 AM -0.09 31.838 0.12 6.32 2.76 14.15
2/6/2021 2:00:00 AM -0.1 31.82 0.12 6.32 2.68 14.14
2/6/2021 2:15:00 AM -0.1 31.82 0.119 6.32 2.67 14.15
2/6/2021 2:30:00 AM -0.1 31.82 0.12 6.32 2.67 14.14
2/6/2021 2:45:00 AM -0.1 31.82 0.12 6.32 2.69 14.14
2/6/2021 3:00:00 AM -0.1 31.82 0.121 6.32 2.66 14.14
2/6/2021 3:15:00 AM -0.1 31.82 0.122 6.32 2.67 14.13
2/6/2021 3:30:00 AM -0.11 31.802 0.122 6.32 2.7 14.14
2/6/2021 3:45:00 AM -0.11 31.802 0.122 6.31 2.74 14.14
2/6/2021 4:00:00 AM -0.12 31.784 0.123 6.31 2.67 14.14
2/6/2021 4:15:00 AM -0.12 31.784 0.123 6.31 2.65 14.14
2/6/2021 4:30:00 AM -0.12 31.784 0.123 6.32 2.63 14.15
2/6/2021 4:45:00 AM -0.12 31.784 0.123 6.31 2.66 14.15
2/6/2021 5:00:00 AM -0.12 31.784 0.123 6.32 2.65 14.15
2/6/2021 5:15:00 AM -0.11 31.802 0.124 6.32 2.67 14.15
2/6/2021 5:30:00 AM -0.12 31.784 0.124 6.32 2.67 14.16
2/6/2021 5:45:00 AM -0.12 31.784 0.124 6.32 2.68 14.16
2/6/2021 6:00:00 AM -0.11 31.802 0.124 6.32 2.62 14.17
2/6/2021 6:15:00 AM -0.11 31.802 0.123 6.32 2.68 14.17
2/6/2021 6:30:00 AM -0.12 31.784 0.123 6.32 2.69 14.18
2/6/2021 6:45:00 AM -0.11 31.802 0.123 6.32 2.66 14.17
2/6/2021 7:00:00 AM -0.11 31.802 0.124 6.31 2.64 14.18
2/6/2021 7:15:00 AM -0.12 31.784 0.124 6.31 2.68 14.19
2/6/2021 7:30:00 AM -0.11 31.802 0.124 6.31 2.68 14.2
2/6/2021 7:45:00 AM -0.1 31.82 0.124 6.32 2.63 14.24
2/6/2021 8:00:00 AM -0.1 31.82 0.125 6.31 2.61 14.29
2/6/2021 8:15:00 AM -0.1 31.82 0.125 6.32 2.64 14.34
2/6/2021 8:30:00 AM -0.09 31.838 0.125 6.33 2.7 14.39
2/6/2021 8:45:00 AM -0.07 31.874 0.124 6.33 2.62 14.43
2/6/2021 9:00:00 AM -0.07 31.874 0.124 6.33 2.61 14.48
2/6/2021 9:15:00 AM -0.05 31.91 0.124 6.33 2.64 14.52
2/6/2021 9:30:00 AM -0.03 31.946 0.125 6.35 2.63 14.57
2/6/2021 9:45:00 AM 0 32 0.125 6.35 2.68 14.61
2/6/2021 10:00:00 AM 0.04 32.072 0.125 6.36 2.65 14.65
2/6/2021 10:15:00 AM 0.08 32.144 0.125 6.37 2.58 14.69
2/6/2021 10:30:00 AM 0.12 32.216 0.125 6.39 2.64 14.72
2/6/2021 10:45:00 AM 0.14 32.252 0.123 6.4 2.62 14.77
2/6/2021 11:00:00 AM 0.25 32.45 0.122 6.39 2.65 14.8
2/6/2021 11:15:00 AM 0.35 32.63 0.122 6.36 2.59 14.82
2/6/2021 11:30:00 AM 0.45 32.81 0.122 6.37 2.6 14.82
2/6/2021 11:45:00 AM 0.52 32.936 0.122 6.38 2.65 14.83
2/6/2021 12:00:00 PM 0.57 33.026 0.121 6.39 2.59 14.84
2/6/2021 12:15:00 PM 0.61 33.098 0.121 6.38 2.66 14.85
2/6/2021 12:30:00 PM 0.67 33.206 0.12 6.39 2.6 14.86
2/6/2021 12:45:00 PM 0.71 33.278 0.12 6.39 2.59 14.86
2/6/2021 1:00:00 PM 0.75 33.35 0.119 6.4 2.93 14.84
2/6/2021 1:15:00 PM 0.81 33.458 0.119 6.4 2.66 14.84
2/6/2021 1:30:00 PM 0.84 33.512 0.119 6.4 2.63 14.83
2/6/2021 1:45:00 PM 0.91 33.638 0.119 6.39 2.64 14.81
2/6/2021 2:00:00 PM 0.91 33.638 0.118 6.39 2.61 14.8
2/6/2021 2:15:00 PM 0.95 33.71 0.118 6.41 2.58 14.79
2/6/2021 2:30:00 PM 0.93 33.674 0.118 6.42 2.64 14.77
2/6/2021 2:45:00 PM 0.92 33.656 0.118 6.42 2.62 14.75
2/6/2021 3:00:00 PM 0.89 33.602 0.118 6.41 2.62 14.75
2/6/2021 3:15:00 PM 0.87 33.566 0.117 6.42 2.62 14.73
2/6/2021 3:30:00 PM 0.82 33.476 0.117 6.41 2.6 14.73
2/6/2021 3:45:00 PM 0.76 33.368 0.117 6.41 2.61 14.73
2/6/2021 4:00:00 PM 0.7 33.26 0.117 6.42 2.65 14.73
2/6/2021 4:15:00 PM 0.63 33.134 0.117 6.42 2.65 14.74
2/6/2021 4:30:00 PM 0.56 33.008 0.117 6.4 2.68 14.72
2/6/2021 4:45:00 PM 0.47 32.846 0.117 6.41 2.65 14.74
2/6/2021 5:00:00 PM 0.39 32.702 0.118 6.42 2.64 14.72
2/6/2021 5:15:00 PM 0.32 32.576 0.119 6.4 2.66 14.7
2/6/2021 5:30:00 PM 0.26 32.468 0.119 6.41 2.65 14.68
2/6/2021 5:45:00 PM 0.19 32.342 0.119 6.4 2.64 14.66
2/6/2021 6:00:00 PM 0.13 32.234 0.119 6.4 2.67 14.62
2/6/2021 6:15:00 PM 0.08 32.144 0.119 6.39 2.64 14.6
2/6/2021 6:30:00 PM 0.03 32.054 0.12 6.38 2.62 14.56
2/6/2021 6:45:00 PM -0.03 31.946 0.12 6.38 2.74 14.55
2/6/2021 7:00:00 PM -0.08 31.856 0.12 6.37 2.62 14.54
2/6/2021 7:15:00 PM -0.14 31.748 0.12 6.37 2.73 14.53
2/6/2021 7:30:00 PM -0.13 31.766 0.122 6.35 2.74 14.48
2/6/2021 7:45:00 PM -0.13 31.766 0.123 6.35 2.77 14.47
2/6/2021 8:00:00 PM -0.12 31.784 0.123 6.35 2.63 14.45
2/6/2021 8:15:00 PM -0.11 31.802 0.124 6.34 2.73 14.41
2/6/2021 8:30:00 PM -0.1 31.82 0.124 6.34 2.65 14.39
2/6/2021 8:45:00 PM -0.07 31.874 0.125 6.31 2.79 14.34
2/6/2021 9:00:00 PM -0.05 31.91 0.127 6.33 2.8 14.27
2/6/2021 9:15:00 PM -0.05 31.91 0.128 6.32 2.7 14.25
2/6/2021 9:30:00 PM -0.05 31.91 0.13 6.31 2.68 14.25
2/6/2021 9:45:00 PM -0.06 31.892 0.129 6.32 2.63 14.26
2/6/2021 10:00:00 PM -0.06 31.892 0.129 6.32 2.75 14.26
2/6/2021 10:15:00 PM -0.07 31.874 0.129 6.32 2.66 14.28
2/6/2021 10:30:00 PM -0.08 31.856 0.129 6.33 2.67 14.3
2/6/2021 10:45:00 PM -0.08 31.856 0.128 6.33 2.81 14.3
2/6/2021 11:00:00 PM -0.08 31.856 0.128 6.34 2.67 14.3
2/6/2021 11:15:00 PM -0.09 31.838 0.128 6.33 2.76 14.32
2/6/2021 11:30:00 PM -0.09 31.838 0.128 6.33 2.84 14.32
2/6/2021 11:45:00 PM -0.1 31.82 0.128 6.34 2.87 14.33
2/7/2021 12:00:00 AM -0.1 31.82 0.128 6.34 2.72 14.34
2/7/2021 12:15:00 AM -0.11 31.802 0.128 6.33 2.81 14.34
2/7/2021 12:30:00 AM -0.11 31.802 0.129 6.33 2.89 14.33
2/7/2021 12:45:00 AM -0.11 31.802 0.129 6.33 2.84 14.34
2/7/2021 1:00:00 AM -0.1 31.82 0.129 6.33 2.92 14.32
2/7/2021 1:15:00 AM -0.1 31.82 0.13 6.33 3.07 14.33
2/7/2021 1:30:00 AM -0.1 31.82 0.13 6.33 2.98 14.32
2/7/2021 1:45:00 AM -0.1 31.82 0.13 6.33 2.89 14.31
2/7/2021 2:00:00 AM -0.1 31.82 0.13 6.32 3.18 14.3
2/7/2021 2:15:00 AM -0.1 31.82 0.13 6.33 2.83 14.3
2/7/2021 2:30:00 AM -0.1 31.82 0.13 6.33 2.98 14.29
2/7/2021 2:45:00 AM -0.1 31.82 0.131 6.32 3.02 14.29
2/7/2021 3:00:00 AM -0.09 31.838 0.131 6.32 2.97 14.29
2/7/2021 3:15:00 AM -0.09 31.838 0.131 6.3 2.82 14.28
2/7/2021 3:30:00 AM -0.09 31.838 0.131 6.32 3.05 14.27
2/7/2021 3:45:00 AM -0.09 31.838 0.132 6.31 2.85 14.27
2/7/2021 4:00:00 AM -0.09 31.838 0.132 6.31 2.91 14.26
2/7/2021 4:15:00 AM -0.09 31.838 0.133 6.31 2.9 14.25
2/7/2021 4:30:00 AM -0.09 31.838 0.134 6.31 2.89 14.24
2/7/2021 4:45:00 AM -0.09 31.838 0.134 6.31 2.88 14.24
2/7/2021 5:00:00 AM -0.09 31.838 0.135 6.3 3.18 14.23
2/7/2021 5:15:00 AM -0.09 31.838 0.136 6.31 3 14.22
2/7/2021 5:30:00 AM -0.08 31.856 0.137 6.31 2.82 14.21
2/7/2021 5:45:00 AM -0.09 31.838 0.137 6.31 3.05 14.2
2/7/2021 6:00:00 AM -0.09 31.838 0.138 6.3 2.91 14.19
2/7/2021 6:15:00 AM -0.09 31.838 0.138 6.31 2.92 14.17
2/7/2021 6:30:00 AM -0.08 31.856 0.139 6.31 3.05 14.17
2/7/2021 6:45:00 AM -0.08 31.856 0.14 6.31 3.35 14.15
2/7/2021 7:00:00 AM -0.08 31.856 0.14 6.31 3 14.14
2/7/2021 7:15:00 AM -0.08 31.856 0.141 6.31 2.91 14.14
2/7/2021 7:30:00 AM -0.09 31.838 0.141 6.31 2.91 14.13
2/7/2021 7:45:00 AM -0.08 31.856 0.142 6.31 2.78 14.13
2/7/2021 8:00:00 AM -0.08 31.856 0.142 6.31 2.84 14.15
2/7/2021 8:15:00 AM -0.08 31.856 0.143 6.31 2.84 14.16
2/7/2021 8:30:00 AM -0.07 31.874 0.143 6.31 2.87 14.19
2/7/2021 8:45:00 AM -0.07 31.874 0.143 6.32 2.83 14.23
2/7/2021 9:00:00 AM -0.08 31.856 0.144 6.32 2.88 14.26
2/7/2021 9:15:00 AM -0.07 31.874 0.144 6.32 2.92 14.3
2/7/2021 9:30:00 AM -0.06 31.892 0.145 6.32 3.06 14.32
2/7/2021 9:45:00 AM -0.06 31.892 0.145 6.32 2.91 14.34
2/7/2021 10:00:00 AM -0.05 31.91 0.145 6.33 2.88 14.38
2/7/2021 10:15:00 AM -0.05 31.91 0.145 6.34 2.82 14.4
2/7/2021 10:30:00 AM -0.05 31.91 0.145 6.34 2.83 14.44
2/7/2021 10:45:00 AM -0.05 31.91 0.145 6.34 2.75 14.46
2/7/2021 11:00:00 AM -0.06 31.892 0.145 6.33 2.81 14.51
2/7/2021 11:15:00 AM -0.05 31.91 0.144 6.34 2.77 14.53
2/7/2021 11:30:00 AM -0.05 31.91 0.144 6.35 2.74 14.58
2/7/2021 11:45:00 AM -0.04 31.928 0.144 6.36 2.81 14.61
2/7/2021 12:00:00 PM -0.04 31.928 0.143 6.35 2.72 14.66
2/7/2021 12:15:00 PM -0.04 31.928 0.142 6.35 2.85 14.7
2/7/2021 12:30:00 PM -0.03 31.946 0.142 6.35 2.72 14.74
2/7/2021 12:45:00 PM -0.02 31.964 0.141 6.36 2.75 14.78
2/7/2021 1:00:00 PM -0.01 31.982 0.141 6.36 2.86 14.81
2/7/2021 1:15:00 PM -0.01 31.982 0.139 6.36 2.82 14.84
2/7/2021 1:30:00 PM -0.01 31.982 0.138 6.34 2.91 14.88
2/7/2021 1:45:00 PM -0.01 31.982 0.137 6.38 2.79 14.89
2/7/2021 2:00:00 PM 0.04 32.072 0.136 6.41 2.82 14.93
2/7/2021 2:15:00 PM 0 32 0.135 6.43 3.03 14.94
2/7/2021 2:30:00 PM 0.02 32.036 0.134 6.43 3.35 14.94
2/7/2021 2:45:00 PM 0.04 32.072 0.133 6.37 2.98 14.97
2/7/2021 3:00:00 PM 0.05 32.09 0.131 6.4 2.88 15
2/7/2021 3:15:00 PM 0.04 32.072 0.13 6.42 2.83 15.04
2/7/2021 3:30:00 PM 0.02 32.036 0.128 6.4 2.93 15.08
2/7/2021 3:45:00 PM 0 32 0.127 6.41 3.05 15.1
2/7/2021 4:00:00 PM -0.02 31.964 0.125 6.42 2.93 15.11
2/7/2021 4:15:00 PM -0.04 31.928 0.125 6.42 2.95 15.12
2/7/2021 4:30:00 PM -0.06 31.892 0.124 6.43 2.93 15.11
2/7/2021 4:45:00 PM -0.08 31.856 0.124 6.44 3.09 15.09
2/7/2021 5:00:00 PM -0.1 31.82 0.123 6.43 3.01 15.06
2/7/2021 5:15:00 PM -0.11 31.802 0.124 6.43 3.03 15.04
2/7/2021 5:30:00 PM -0.12 31.784 0.123 6.41 2.98 15
2/7/2021 5:45:00 PM -0.13 31.766 0.123 6.41 2.99 14.95
2/7/2021 6:00:00 PM -0.13 31.766 0.123 6.39 2.99 14.9
2/7/2021 6:15:00 PM -0.13 31.766 0.123 6.37 3.12 14.85
2/7/2021 6:30:00 PM -0.13 31.766 0.122 6.36 2.96 14.81
2/7/2021 6:45:00 PM -0.13 31.766 0.122 6.34 2.94 14.76
2/7/2021 7:00:00 PM -0.13 31.766 0.122 6.34 3 14.72
2/7/2021 7:15:00 PM -0.13 31.766 0.123 6.33 2.89 14.68
2/7/2021 7:30:00 PM -0.13 31.766 0.123 6.32 2.92 14.64
2/7/2021 7:45:00 PM -0.13 31.766 0.123 6.31 2.93 14.61
2/7/2021 8:00:00 PM -0.13 31.766 0.123 6.32 2.97 14.58
2/7/2021 8:15:00 PM -0.13 31.766 0.123 6.31 2.93 14.56
2/7/2021 8:30:00 PM -0.13 31.766 0.124 6.29 3.07 14.54
2/7/2021 8:45:00 PM -0.13 31.766 0.124 6.3 3.04 14.51
2/7/2021 9:00:00 PM -0.13 31.766 0.124 6.31 2.89 14.49
2/7/2021 9:15:00 PM -0.13 31.766 0.125 6.3 2.9 14.48
2/7/2021 9:30:00 PM -0.13 31.766 0.125 6.28 2.98 14.47
2/7/2021 9:45:00 PM -0.13 31.766 0.125 6.31 2.88 14.46
2/7/2021 10:00:00 PM -0.13 31.766 0.126 6.31 2.96 14.45
2/7/2021 10:15:00 PM -0.13 31.766 0.126 6.31 3 14.43
2/7/2021 10:30:00 PM -0.13 31.766 0.126 6.31 2.85 14.42
2/7/2021 10:45:00 PM -0.13 31.766 0.126 6.33 2.87 14.41
2/7/2021 11:00:00 PM -0.13 31.766 0.126 6.32 2.78 14.4
2/7/2021 11:15:00 PM -0.13 31.766 0.126 6.33 2.85 14.39
2/7/2021 11:30:00 PM -0.13 31.766 0.126 6.33 2.82 14.39
2/7/2021 11:45:00 PM -0.13 31.766 0.126 6.33 2.84 14.38
2/8/2021 12:00:00 AM -0.11 31.802 0.126 6.32 2.84 14.32
2/8/2021 12:15:00 AM -0.13 31.766 0.127 6.32 2.79 14.33
2/8/2021 12:30:00 AM -0.12 31.784 0.127 6.31 2.86 14.3
2/8/2021 12:45:00 AM -0.12 31.784 0.127 6.31 2.86 14.28
2/8/2021 1:00:00 AM -0.12 31.784 0.127 6.31 2.77 14.29
2/8/2021 1:15:00 AM -0.12 31.784 0.127 6.31 2.72 14.31
2/8/2021 1:30:00 AM -0.12 31.784 0.127 6.31 2.76 14.32
2/8/2021 1:45:00 AM -0.12 31.784 0.128 6.29 2.73 14.32
2/8/2021 2:00:00 AM -0.13 31.766 0.128 6.31 2.73 14.32
2/8/2021 2:15:00 AM -0.12 31.784 0.129 6.31 2.72 14.32
2/8/2021 2:30:00 AM -0.12 31.784 0.129 6.31 2.7 14.32
2/8/2021 2:45:00 AM -0.13 31.766 0.13 6.3 2.72 14.32
2/8/2021 3:00:00 AM -0.12 31.784 0.131 6.3 2.69 14.31
2/8/2021 3:15:00 AM -0.12 31.784 0.132 6.29 2.68 14.31
2/8/2021 3:30:00 AM -0.12 31.784 0.132 6.3 2.73 14.3
2/8/2021 3:45:00 AM -0.12 31.784 0.133 6.29 2.71 14.29
2/8/2021 4:00:00 AM -0.12 31.784 0.134 6.29 2.72 14.28
2/8/2021 4:15:00 AM -0.11 31.802 0.135 6.29 2.68 14.25
2/8/2021 4:30:00 AM -0.11 31.802 0.136 6.29 2.67 14.25
2/8/2021 4:45:00 AM -0.11 31.802 0.137 6.28 2.73 14.23
2/8/2021 5:00:00 AM -0.11 31.802 0.137 6.27 2.68 14.2
2/8/2021 5:15:00 AM -0.1 31.82 0.138 6.27 2.69 14.2
2/8/2021 5:30:00 AM -0.1 31.82 0.139 6.27 2.69 14.18
2/8/2021 5:45:00 AM -0.09 31.838 0.14 6.26 2.66 14.18
2/8/2021 6:00:00 AM -0.09 31.838 0.141 6.27 2.72 14.16
2/8/2021 6:15:00 AM -0.08 31.856 0.141 6.27 2.66 14.16
2/8/2021 6:30:00 AM -0.08 31.856 0.141 6.27 2.65 14.15
2/8/2021 6:45:00 AM -0.08 31.856 0.142 6.27 2.67 14.13
2/8/2021 7:00:00 AM -0.08 31.856 0.142 6.26 2.68 14.14
2/8/2021 7:15:00 AM -0.09 31.838 0.143 6.26 2.65 14.14
2/8/2021 7:30:00 AM -0.08 31.856 0.143 6.26 2.62 14.15
2/8/2021 7:45:00 AM -0.08 31.856 0.144 6.26 2.65 14.19
2/8/2021 8:00:00 AM -0.07 31.874 0.144 6.27 2.67 14.24
2/8/2021 8:15:00 AM -0.05 31.91 0.145 6.27 2.65 14.3
2/8/2021 8:30:00 AM -0.02 31.964 0.145 6.28 2.68 14.38
2/8/2021 8:45:00 AM 0 32 0.146 6.28 2.67 14.43
2/8/2021 9:00:00 AM 0.01 32.018 0.146 6.28 2.63 14.51
2/8/2021 9:15:00 AM 0.03 32.054 0.147 6.29 2.66 14.56
2/8/2021 9:30:00 AM 0.05 32.09 0.147 6.3 2.64 14.61
2/8/2021 9:45:00 AM 0.08 32.144 0.148 6.31 2.68 14.64
2/8/2021 10:00:00 AM 0.11 32.198 0.148 6.31 2.74 14.67
2/8/2021 10:15:00 AM 0.16 32.288 0.149 6.31 2.7 14.72
2/8/2021 10:30:00 AM 0.21 32.378 0.15 6.32 2.65 14.77
2/8/2021 10:45:00 AM 0.24 32.432 0.15 6.33 2.64 14.81
2/8/2021 11:00:00 AM 0.29 32.522 0.151 6.33 2.68 14.79
2/8/2021 11:15:00 AM 0.36 32.648 0.152 6.34 2.73 14.82
2/8/2021 11:30:00 AM 0.33 32.594 0.152 6.34 2.71 14.85
2/8/2021 11:45:00 AM 0.23 32.414 0.152 6.35 2.74 14.87
2/8/2021 12:00:00 PM 0.21 32.378 0.152 6.35 2.7 14.85
2/8/2021 12:15:00 PM 0.27 32.486 0.153 6.35 2.7 14.84
2/8/2021 12:30:00 PM 0.26 32.468 0.151 6.36 2.77 14.91
2/8/2021 12:45:00 PM 0.09 32.162 0.148 6.34 2.75 15.01
2/8/2021 1:00:00 PM 0.07 32.126 0.147 6.34 2.79 15.06
2/8/2021 1:15:00 PM 0.04 32.072 0.146 6.35 2.74 15.1
2/8/2021 1:30:00 PM 0.02 32.036 0.145 6.35 2.73 15.14
2/8/2021 1:45:00 PM 0.04 32.072 0.144 6.38 2.72 15.18
2/8/2021 2:00:00 PM 0.07 32.126 0.143 6.41 2.71 15.22
2/8/2021 2:15:00 PM 0.1 32.18 0.142 6.42 2.75 15.25
2/8/2021 2:30:00 PM 0.09 32.162 0.141 6.42 2.73 15.27
2/8/2021 2:45:00 PM 0.07 32.126 0.14 6.42 2.68 15.31
2/8/2021 3:00:00 PM 0.1 32.18 0.14 6.42 2.76 15.31
2/8/2021 3:15:00 PM 0.09 32.162 0.139 6.41 2.69 15.36
2/8/2021 3:30:00 PM 0.06 32.108 0.138 6.4 2.72 15.38
2/8/2021 3:45:00 PM 0.06 32.108 0.138 6.43 2.71 15.39
2/8/2021 4:00:00 PM 0.04 32.072 0.137 6.43 2.71 15.4
2/8/2021 4:15:00 PM 0.02 32.036 0.136 6.43 2.7 15.4
2/8/2021 4:30:00 PM -0.01 31.982 0.135 6.44 2.67 15.41
2/8/2021 4:45:00 PM -0.02 31.964 0.135 6.45 2.76 15.41
2/8/2021 5:00:00 PM -0.05 31.91 0.134 6.47 2.84 15.42
2/8/2021 5:15:00 PM -0.07 31.874 0.133 6.5 2.89 15.41
2/8/2021 5:30:00 PM -0.08 31.856 0.133 6.51 2.76 15.37
2/8/2021 5:45:00 PM -0.1 31.82 0.133 6.5 2.72 15.33
2/8/2021 6:00:00 PM -0.11 31.802 0.132 6.5 2.84 15.29
2/8/2021 6:15:00 PM -0.12 31.784 0.132 6.48 2.74 15.27
2/8/2021 6:30:00 PM -0.12 31.784 0.131 6.47 2.78 15.23
2/8/2021 6:45:00 PM -0.12 31.784 0.131 6.45 2.8 15.18
2/8/2021 7:00:00 PM -0.13 31.766 0.132 6.44 2.78 15.14
2/8/2021 7:15:00 PM -0.13 31.766 0.132 6.43 2.8 15.09
2/8/2021 7:30:00 PM -0.13 31.766 0.132 6.43 2.79 15.03
2/8/2021 7:45:00 PM -0.11 31.802 0.133 6.44 2.84 14.95
2/8/2021 8:00:00 PM -0.13 31.766 0.133 6.44 2.73 14.91
2/8/2021 8:15:00 PM -0.12 31.784 0.133 6.42 2.76 14.87
2/8/2021 8:30:00 PM -0.12 31.784 0.133 6.42 2.8 14.82
2/8/2021 8:45:00 PM -0.12 31.784 0.133 6.4 2.75 14.78
2/8/2021 9:00:00 PM -0.12 31.784 0.133 6.39 2.79 14.74
2/8/2021 9:15:00 PM -0.12 31.784 0.133 6.4 2.86 14.7
2/8/2021 9:30:00 PM -0.12 31.784 0.134 6.39 2.74 14.67
2/8/2021 9:45:00 PM -0.12 31.784 0.134 6.39 2.78 14.64
2/8/2021 10:00:00 PM -0.12 31.784 0.134 6.39 2.76 14.61
2/8/2021 10:15:00 PM -0.11 31.802 0.135 6.38 2.79 14.58
2/8/2021 10:30:00 PM -0.11 31.802 0.135 6.38 2.79 14.56
2/8/2021 10:45:00 PM -0.1 31.82 0.135 6.38 2.69 14.51
2/8/2021 11:00:00 PM -0.09 31.838 0.135 6.38 2.75 14.49
2/8/2021 11:15:00 PM -0.1 31.82 0.135 6.37 2.73 14.47
2/8/2021 11:30:00 PM -0.1 31.82 0.135 6.37 2.73 14.45
2/8/2021 11:45:00 PM -0.09 31.838 0.135 6.37 2.72 14.42
2/9/2021 12:00:00 AM -0.08 31.856 0.135 6.36 2.77 14.39
2/9/2021 12:15:00 AM -0.09 31.838 0.135 6.36 2.78 14.39
2/9/2021 12:30:00 AM -0.11 31.802 0.135 6.37 2.71 14.43
2/9/2021 12:45:00 AM -0.1 31.82 0.135 6.37 2.73 14.41
2/9/2021 1:00:00 AM -0.11 31.802 0.134 6.37 2.76 14.4
2/9/2021 1:15:00 AM -0.11 31.802 0.134 6.36 2.73 14.39
2/9/2021 1:30:00 AM -0.11 31.802 0.134 6.36 2.66 14.38
2/9/2021 1:45:00 AM -0.11 31.802 0.133 6.36 2.72 14.36
2/9/2021 2:00:00 AM -0.11 31.802 0.133 6.35 2.68 14.35
2/9/2021 2:15:00 AM -0.1 31.82 0.132 6.34 2.76 14.32
2/9/2021 2:30:00 AM -0.1 31.82 0.132 6.33 2.7 14.29
2/9/2021 2:45:00 AM -0.1 31.82 0.132 6.33 2.65 14.29
2/9/2021 3:00:00 AM -0.1 31.82 0.131 6.34 2.74 14.28
2/9/2021 3:15:00 AM -0.1 31.82 0.131 6.32 2.62 14.28
2/9/2021 3:30:00 AM -0.1 31.82 0.13 6.33 2.7 14.28
2/9/2021 3:45:00 AM -0.1 31.82 0.13 6.33 2.65 14.27
2/9/2021 4:00:00 AM -0.1 31.82 0.13 6.31 2.68 14.26
2/9/2021 4:15:00 AM -0.1 31.82 0.13 6.32 2.64 14.26
2/9/2021 4:30:00 AM -0.1 31.82 0.13 6.31 2.73 14.26
2/9/2021 4:45:00 AM -0.1 31.82 0.13 6.31 2.65 14.24
2/9/2021 5:00:00 AM -0.1 31.82 0.131 6.31 2.63 14.23
2/9/2021 5:15:00 AM -0.1 31.82 0.131 6.31 2.63 14.23
2/9/2021 5:30:00 AM -0.1 31.82 0.132 6.31 2.65 14.22
2/9/2021 5:45:00 AM -0.1 31.82 0.132 6.31 2.6 14.22
2/9/2021 6:00:00 AM -0.1 31.82 0.133 6.31 2.58 14.21
2/9/2021 6:15:00 AM -0.1 31.82 0.134 6.3 2.64 14.21
2/9/2021 6:30:00 AM -0.1 31.82 0.134 6.3 2.65 14.2
2/9/2021 6:45:00 AM -0.1 31.82 0.135 6.3 2.67 14.2
2/9/2021 7:00:00 AM -0.1 31.82 0.135 6.3 2.69 14.19
2/9/2021 7:15:00 AM -0.1 31.82 0.136 6.3 2.64 14.18
2/9/2021 7:30:00 AM -0.1 31.82 0.136 6.3 2.62 14.18
2/9/2021 7:45:00 AM -0.09 31.838 0.136 6.3 2.69 14.19
2/9/2021 8:00:00 AM -0.09 31.838 0.136 6.3 2.68 14.19
2/9/2021 8:15:00 AM -0.09 31.838 0.136 6.29 2.59 14.21
2/9/2021 8:30:00 AM -0.09 31.838 0.137 6.3 2.63 14.22
2/9/2021 8:45:00 AM -0.08 31.856 0.137 6.31 2.65 14.26
2/9/2021 9:00:00 AM -0.08 31.856 0.137 6.31 2.67 14.29
2/9/2021 9:15:00 AM -0.07 31.874 0.137 6.31 2.6 14.31
2/9/2021 9:30:00 AM -0.08 31.856 0.136 6.32 2.55 14.36
2/9/2021 9:45:00 AM -0.07 31.874 0.136 6.32 2.61 14.39
2/9/2021 10:00:00 AM -0.07 31.874 0.136 6.32 2.59 14.4
2/9/2021 10:15:00 AM -0.06 31.892 0.136 6.33 2.65 14.44
2/9/2021 10:30:00 AM -0.06 31.892 0.136 6.33 2.64 14.49
2/9/2021 10:45:00 AM -0.06 31.892 0.136 6.34 2.63 14.52
2/9/2021 11:00:00 AM -0.04 31.928 0.136 6.34 2.59 14.56
2/9/2021 11:15:00 AM -0.03 31.946 0.136 6.35 2.63 14.61
2/9/2021 11:30:00 AM -0.02 31.964 0.135 6.36 2.61 14.66
2/9/2021 11:45:00 AM 0 32 0.135 6.37 2.65 14.71
2/9/2021 12:00:00 PM 0 32 0.135 6.36 2.61 14.76
2/9/2021 12:15:00 PM 0.03 32.054 0.135 6.38 2.58 14.79
2/9/2021 12:30:00 PM 0.06 32.108 0.135 6.39 2.57 14.84
2/9/2021 12:45:00 PM 0.08 32.144 0.135 6.4 2.55 14.87
2/9/2021 1:00:00 PM 0.11 32.198 0.134 6.41 2.58 14.91
2/9/2021 1:15:00 PM 0.13 32.234 0.134 6.42 2.64 14.97
2/9/2021 1:30:00 PM 0.11 32.198 0.133 6.43 2.64 14.99
2/9/2021 1:45:00 PM 0.15 32.27 0.133 6.42 2.57 15.03
2/9/2021 2:00:00 PM 0.19 32.342 0.132 6.43 2.59 15.05
2/9/2021 2:15:00 PM 0.13 32.234 0.132 6.42 2.67 15.06
2/9/2021 2:30:00 PM 0.09 32.162 0.132 6.42 2.62 15.09
2/9/2021 2:45:00 PM 0.08 32.144 0.132 6.43 2.59 15.1
2/9/2021 3:00:00 PM 0.05 32.09 0.132 6.44 2.65 15.12
2/9/2021 3:15:00 PM 0.05 32.09 0.132 6.44 2.66 15.12
2/9/2021 3:30:00 PM 0.04 32.072 0.131 6.43 2.68 15.13
2/9/2021 3:45:00 PM 0.03 32.054 0.131 6.44 2.65 15.15
2/9/2021 4:00:00 PM 0.02 32.036 0.131 6.45 2.62 15.15
2/9/2021 4:15:00 PM 0.01 32.018 0.13 6.45 2.64 15.16
2/9/2021 4:30:00 PM -0.01 31.982 0.129 6.44 2.63 15.15
2/9/2021 4:45:00 PM -0.03 31.946 0.129 6.44 2.63 15.15
2/9/2021 5:00:00 PM -0.05 31.91 0.129 6.44 2.58 15.13
2/9/2021 5:15:00 PM -0.06 31.892 0.128 6.44 2.63 15.11
2/9/2021 5:30:00 PM -0.07 31.874 0.128 6.42 2.67 15.06
2/9/2021 5:45:00 PM -0.07 31.874 0.128 6.43 2.6 15
2/9/2021 6:00:00 PM -0.07 31.874 0.128 6.42 2.66 14.96
2/9/2021 6:15:00 PM -0.08 31.856 0.127 6.41 2.58 14.9
2/9/2021 6:30:00 PM -0.08 31.856 0.127 6.4 2.6 14.86
2/9/2021 6:45:00 PM -0.09 31.838 0.127 6.4 2.64 14.82
2/9/2021 7:00:00 PM -0.1 31.82 0.127 6.39 2.64 14.78
2/9/2021 7:15:00 PM -0.1 31.82 0.127 6.38 2.63 14.74
2/9/2021 7:30:00 PM -0.1 31.82 0.126 6.38 2.59 14.71
2/9/2021 7:45:00 PM -0.1 31.82 0.126 6.37 2.66 14.66
2/9/2021 8:00:00 PM -0.11 31.802 0.126 6.36 2.74 14.63
2/9/2021 8:15:00 PM -0.11 31.802 0.126 6.36 2.65 14.59
2/9/2021 8:30:00 PM -0.11 31.802 0.126 6.34 2.6 14.56
2/9/2021 8:45:00 PM -0.12 31.784 0.126 6.35 2.6 14.52
2/9/2021 9:00:00 PM -0.12 31.784 0.125 6.35 2.6 14.49
2/9/2021 9:15:00 PM -0.11 31.802 0.125 6.34 2.61 14.47
2/9/2021 9:30:00 PM -0.11 31.802 0.125 6.33 2.66 14.45
2/9/2021 9:45:00 PM -0.11 31.802 0.125 6.33 2.64 14.43
2/9/2021 10:00:00 PM -0.11 31.802 0.125 6.31 2.68 14.42
2/9/2021 10:15:00 PM -0.1 31.82 0.125 6.32 2.62 14.4
2/9/2021 10:30:00 PM -0.1 31.82 0.125 6.32 2.62 14.39
2/9/2021 10:45:00 PM -0.1 31.82 0.124 6.32 2.64 14.37
2/9/2021 11:00:00 PM -0.1 31.82 0.124 6.31 2.66 14.36
2/9/2021 11:15:00 PM -0.1 31.82 0.124 6.32 2.59 14.35
2/9/2021 11:30:00 PM -0.09 31.838 0.124 6.32 2.66 14.33
2/9/2021 11:45:00 PM -0.09 31.838 0.124 6.31 2.58 14.32
2/10/2021 12:00:00 AM -0.09 31.838 0.124 6.31 2.58 14.31
2/10/2021 12:15:00 AM -0.09 31.838 0.124 6.3 2.67 14.3
2/10/2021 12:30:00 AM -0.09 31.838 0.124 6.31 2.61 14.3
2/10/2021 12:45:00 AM -0.09 31.838 0.124 6.3 2.61 14.28
2/10/2021 1:00:00 AM -0.09 31.838 0.124 6.29 2.64 14.29
2/10/2021 1:15:00 AM -0.09 31.838 0.124 6.3 2.66 14.27
2/10/2021 1:30:00 AM -0.09 31.838 0.124 6.3 2.59 14.27
2/10/2021 1:45:00 AM -0.09 31.838 0.124 6.28 2.64 14.26
2/10/2021 2:00:00 AM -0.09 31.838 0.124 6.29 2.56 14.26
2/10/2021 2:15:00 AM -0.09 31.838 0.124 6.28 2.58 14.25
2/10/2021 2:30:00 AM -0.09 31.838 0.124 6.29 2.58 14.25
2/10/2021 2:45:00 AM -0.09 31.838 0.124 6.3 2.5 14.24
2/10/2021 3:00:00 AM -0.09 31.838 0.124 6.29 2.61 14.24
2/10/2021 3:15:00 AM -0.09 31.838 0.124 6.3 2.58 14.24
2/10/2021 3:30:00 AM -0.09 31.838 0.124 6.29 2.59 14.23
2/10/2021 3:45:00 AM -0.09 31.838 0.125 6.28 2.59 14.23
2/10/2021 4:00:00 AM -0.09 31.838 0.125 6.29 2.55 14.23
2/10/2021 4:15:00 AM -0.09 31.838 0.125 6.3 2.58 14.23
2/10/2021 4:30:00 AM -0.09 31.838 0.125 6.29 2.53 14.22
2/10/2021 4:45:00 AM -0.09 31.838 0.125 6.29 2.54 14.22
2/10/2021 5:00:00 AM -0.09 31.838 0.125 6.3 2.65 14.22
2/10/2021 5:15:00 AM -0.09 31.838 0.125 6.3 2.54 14.22
2/10/2021 5:30:00 AM -0.09 31.838 0.125 6.3 2.56 14.23
2/10/2021 5:45:00 AM -0.09 31.838 0.125 6.3 2.55 14.22
2/10/2021 6:00:00 AM -0.09 31.838 0.126 6.29 2.6 14.23
2/10/2021 6:15:00 AM -0.1 31.82 0.126 6.3 2.61 14.23
2/10/2021 6:30:00 AM -0.1 31.82 0.126 6.3 2.59 14.23
2/10/2021 6:45:00 AM -0.1 31.82 0.126 6.29 2.57 14.23
2/10/2021 7:00:00 AM -0.11 31.802 0.126 6.29 2.56 14.24
2/10/2021 7:15:00 AM -0.11 31.802 0.127 6.28 2.57 14.25
2/10/2021 7:30:00 AM -0.11 31.802 0.126 6.3 2.56 14.27
2/10/2021 7:45:00 AM -0.11 31.802 0.127 6.3 2.55 14.3
2/10/2021 8:00:00 AM -0.1 31.82 0.126 6.31 2.52 14.35
2/10/2021 8:15:00 AM -0.09 31.838 0.127 6.31 2.56 14.42
2/10/2021 8:30:00 AM -0.07 31.874 0.127 6.31 2.52 14.48
2/10/2021 8:45:00 AM -0.05 31.91 0.127 6.33 2.49 14.53
2/10/2021 9:00:00 AM -0.04 31.928 0.127 6.33 2.54 14.59
2/10/2021 9:15:00 AM -0.02 31.964 0.126 6.34 2.51 14.65
2/10/2021 9:30:00 AM 0.02 32.036 0.126 6.35 2.56 14.69
2/10/2021 9:45:00 AM 0.04 32.072 0.126 6.35 2.52 14.76
2/10/2021 10:00:00 AM 0.05 32.09 0.126 6.36 2.5 14.81
2/10/2021 10:15:00 AM 0.08 32.144 0.126 6.37 2.58 14.87
2/10/2021 10:30:00 AM 0.12 32.216 0.125 6.38 2.48 14.91
2/10/2021 10:45:00 AM 0.13 32.234 0.125 6.38 2.48 14.96
2/10/2021 11:00:00 AM 0.13 32.234 0.125 6.39 2.49 15.01
2/10/2021 11:15:00 AM 0.18 32.324 0.125 6.4 2.55 15.05
2/10/2021 11:30:00 AM 0.21 32.378 0.124 6.41 2.47 15.09
2/10/2021 11:45:00 AM 0.25 32.45 0.124 6.42 2.49 15.13
2/10/2021 12:00:00 PM 0.29 32.522 0.123 6.43 2.5 15.15
2/10/2021 12:15:00 PM 0.31 32.558 0.123 6.44 2.46 15.19
2/10/2021 12:30:00 PM 0.33 32.594 0.123 6.42 2.54 15.2
2/10/2021 12:45:00 PM 0.29 32.522 0.122 6.44 2.49 15.22
2/10/2021 1:00:00 PM 0.22 32.396 0.122 6.44 2.48 15.23
2/10/2021 1:15:00 PM 0.2 32.36 0.122 6.45 2.54 15.25
2/10/2021 1:30:00 PM 0.19 32.342 0.121 6.45 2.52 15.27
2/10/2021 1:45:00 PM 0.19 32.342 0.121 6.46 2.48 15.29
2/10/2021 2:00:00 PM 0.16 32.288 0.12 6.47 2.47 15.29
2/10/2021 2:15:00 PM 0.16 32.288 0.12 6.47 2.51 15.3
2/10/2021 2:30:00 PM 0.12 32.216 0.12 6.47 2.48 15.31
2/10/2021 2:45:00 PM 0.09 32.162 0.119 6.48 2.45 15.31
2/10/2021 3:00:00 PM 0.08 32.144 0.119 6.46 2.51 15.3
2/10/2021 3:15:00 PM 0.05 32.09 0.119 6.46 2.48 15.26
2/10/2021 3:30:00 PM 0.04 32.072 0.118 6.49 2.53 15.29
2/10/2021 3:45:00 PM 0.04 32.072 0.118 6.48 2.48 15.28
2/10/2021 4:00:00 PM 0.04 32.072 0.118 6.48 2.49 15.29
2/10/2021 4:15:00 PM 0.03 32.054 0.118 6.48 2.5 15.27
2/10/2021 4:30:00 PM 0.01 32.018 0.118 6.47 2.46 15.26
2/10/2021 4:45:00 PM 0 32 0.118 6.47 2.47 15.24
2/10/2021 5:00:00 PM -0.01 31.982 0.117 6.47 2.52 15.2
2/10/2021 5:15:00 PM -0.01 31.982 0.118 6.46 2.56 15.16
2/10/2021 5:30:00 PM -0.04 31.928 0.117 6.44 2.51 15.13
2/10/2021 5:45:00 PM -0.05 31.91 0.117 6.43 2.53 15.07
2/10/2021 6:00:00 PM -0.05 31.91 0.118 6.43 2.52 15
2/10/2021 6:15:00 PM -0.06 31.892 0.117 6.4 2.53 14.96
2/10/2021 6:30:00 PM -0.06 31.892 0.117 6.4 2.58 14.91
2/10/2021 6:45:00 PM -0.07 31.874 0.117 6.4 2.5 14.87
2/10/2021 7:00:00 PM -0.07 31.874 0.117 6.4 2.6 14.82
2/10/2021 7:15:00 PM -0.07 31.874 0.117 6.39 2.51 14.77
2/10/2021 7:30:00 PM -0.07 31.874 0.118 6.38 2.61 14.73
2/10/2021 7:45:00 PM -0.08 31.856 0.117 6.37 2.52 14.69
2/10/2021 8:00:00 PM -0.08 31.856 0.117 6.36 2.48 14.63
2/10/2021 8:15:00 PM -0.08 31.856 0.118 6.37 2.55 14.61
2/10/2021 8:30:00 PM -0.09 31.838 0.118 6.36 2.5 14.57
2/10/2021 8:45:00 PM -0.08 31.856 0.118 6.34 2.54 14.51
2/10/2021 9:00:00 PM -0.09 31.838 0.118 6.35 2.6 14.51
2/10/2021 9:15:00 PM -0.1 31.82 0.118 6.35 2.54 14.48
2/10/2021 9:30:00 PM -0.1 31.82 0.118 6.34 2.6 14.45
2/10/2021 9:45:00 PM -0.1 31.82 0.118 6.34 2.56 14.43
2/10/2021 10:00:00 PM -0.1 31.82 0.118 6.34 2.54 14.41
2/10/2021 10:15:00 PM -0.1 31.82 0.118 6.33 2.55 14.4
2/10/2021 10:30:00 PM -0.1 31.82 0.118 6.34 2.53 14.39
2/10/2021 10:45:00 PM -0.1 31.82 0.118 6.33 2.54 14.38
2/10/2021 11:00:00 PM -0.1 31.82 0.118 6.33 2.52 14.36
2/10/2021 11:15:00 PM -0.11 31.802 0.118 6.33 2.53 14.35
2/10/2021 11:30:00 PM -0.1 31.82 0.119 6.32 2.53 14.34
2/10/2021 11:45:00 PM -0.1 31.82 0.119 6.32 2.57 14.32
2/11/2021 12:00:00 AM -0.1 31.82 0.119 6.32 2.53 14.31
2/11/2021 12:15:00 AM -0.1 31.82 0.119 6.31 2.53 14.3
2/11/2021 12:30:00 AM -0.1 31.82 0.119 6.32 2.48 14.29
2/11/2021 12:45:00 AM -0.1 31.82 0.119 6.31 2.5 14.28
2/11/2021 1:00:00 AM -0.1 31.82 0.119 6.31 2.52 14.27
2/11/2021 1:15:00 AM -0.1 31.82 0.119 6.31 2.53 14.26
2/11/2021 1:30:00 AM -0.1 31.82 0.119 6.3 2.49 14.26
2/11/2021 1:45:00 AM -0.09 31.838 0.119 6.3 2.5 14.25
2/11/2021 2:00:00 AM -0.1 31.82 0.119 6.3 2.54 14.24
2/11/2021 2:15:00 AM -0.1 31.82 0.119 6.3 2.56 14.24
2/11/2021 2:30:00 AM -0.1 31.82 0.119 6.3 2.52 14.23
2/11/2021 2:45:00 AM -0.09 31.838 0.12 6.3 2.47 14.23
2/11/2021 3:00:00 AM -0.09 31.838 0.12 6.3 2.48 14.22
2/11/2021 3:15:00 AM -0.09 31.838 0.12 6.28 2.57 14.21
2/11/2021 3:30:00 AM -0.09 31.838 0.12 6.3 2.48 14.21
2/11/2021 3:45:00 AM -0.09 31.838 0.12 6.29 2.49 14.21
2/11/2021 4:00:00 AM -0.09 31.838 0.12 6.29 2.49 14.2
2/11/2021 4:15:00 AM -0.09 31.838 0.12 6.29 2.56 14.2
2/11/2021 4:30:00 AM -0.09 31.838 0.12 6.3 2.54 14.19
2/11/2021 4:45:00 AM -0.08 31.856 0.12 6.3 2.48 14.18
2/11/2021 5:00:00 AM -0.09 31.838 0.12 6.29 2.5 14.2
2/11/2021 5:15:00 AM -0.09 31.838 0.121 6.3 2.5 14.19
2/11/2021 5:30:00 AM -0.09 31.838 0.121 6.29 2.46 14.18
2/11/2021 5:45:00 AM -0.09 31.838 0.121 6.3 2.52 14.18
2/11/2021 6:00:00 AM -0.09 31.838 0.121 6.3 2.54 14.19
2/11/2021 6:15:00 AM -0.09 31.838 0.121 6.29 2.51 14.19
2/11/2021 6:30:00 AM -0.09 31.838 0.121 6.29 2.47 14.18
2/11/2021 6:45:00 AM -0.08 31.856 0.121 6.29 2.52 14.17
2/11/2021 7:00:00 AM -0.09 31.838 0.121 6.3 2.47 14.18
2/11/2021 7:15:00 AM -0.09 31.838 0.121 6.29 2.55 14.18
2/11/2021 7:30:00 AM -0.09 31.838 0.121 6.28 2.5 14.19
2/11/2021 7:45:00 AM -0.08 31.856 0.121 6.3 2.49 14.22
2/11/2021 8:00:00 AM -0.08 31.856 0.121 6.29 2.51 14.23
2/11/2021 8:15:00 AM -0.07 31.874 0.121 6.29 2.52 14.26
2/11/2021 8:30:00 AM -0.07 31.874 0.121 6.31 2.49 14.31
2/11/2021 8:45:00 AM -0.06 31.892 0.121 6.31 2.48 14.35
2/11/2021 9:00:00 AM -0.05 31.91 0.121 6.32 2.5 14.39
2/11/2021 9:15:00 AM -0.04 31.928 0.121 6.32 2.51 14.43
2/11/2021 9:30:00 AM -0.02 31.964 0.12 6.32 2.5 14.47
2/11/2021 9:45:00 AM 0 32 0.12 6.33 2.5 14.53
2/11/2021 10:00:00 AM 0 32 0.12 6.33 2.53 14.57
2/11/2021 10:15:00 AM 0.01 32.018 0.12 6.34 2.44 14.6
2/11/2021 10:30:00 AM 0 32 0.12 6.34 2.5 14.64
2/11/2021 10:45:00 AM 0.01 32.018 0.119 6.36 2.47 14.68
2/11/2021 11:00:00 AM 0.01 32.018 0.119 6.35 2.46 14.72
2/11/2021 11:15:00 AM 0.01 32.018 0.119 6.36 2.51 14.76
2/11/2021 11:30:00 AM 0 32 0.119 6.37 2.49 14.79
2/11/2021 11:45:00 AM 0 32 0.119 6.37 2.47 14.81
2/11/2021 12:00:00 PM 0.01 32.018 0.118 6.38 2.48 14.85
2/11/2021 12:15:00 PM 0.02 32.036 0.118 6.38 2.53 14.89
2/11/2021 12:30:00 PM 0.05 32.09 0.118 6.39 2.46 14.92
2/11/2021 12:45:00 PM 0.08 32.144 0.117 6.39 2.45 14.93
2/11/2021 1:00:00 PM 0.13 32.234 0.117 6.4 2.47 14.97
2/11/2021 1:15:00 PM 0.17 32.306 0.117 6.41 2.47 14.98
2/11/2021 1:30:00 PM 0.18 32.324 0.117 6.4 2.41 14.97
2/11/2021 1:45:00 PM 0.17 32.306 0.117 6.42 2.47 15
2/11/2021 2:00:00 PM 0.15 32.27 0.117 6.42 2.46 15.02
2/11/2021 2:15:00 PM 0.13 32.234 0.116 6.42 2.44 15.02
2/11/2021 2:30:00 PM 0.12 32.216 0.117 6.43 2.51 15.03
2/11/2021 2:45:00 PM 0.1 32.18 0.116 6.43 2.55 15.04
2/11/2021 3:00:00 PM 0.09 32.162 0.116 6.39 2.5 15.05
2/11/2021 3:15:00 PM 0.07 32.126 0.116 6.42 2.46 15.06
2/11/2021 3:30:00 PM 0.06 32.108 0.116 6.43 2.43 15.07
2/11/2021 3:45:00 PM 0.05 32.09 0.116 6.43 2.49 15.07
2/11/2021 4:00:00 PM 0.03 32.054 0.115 6.43 2.46 15.07
2/11/2021 4:15:00 PM 0.02 32.036 0.115 6.44 2.44 15.06
2/11/2021 4:30:00 PM 0.01 32.018 0.115 6.43 2.48 15.06
2/11/2021 4:45:00 PM -0.01 31.982 0.115 6.43 2.44 15.03
2/11/2021 5:00:00 PM -0.02 31.964 0.115 6.43 2.47 15.02
2/11/2021 5:15:00 PM -0.04 31.928 0.115 6.43 2.46 14.99
2/11/2021 5:30:00 PM -0.04 31.928 0.115 6.42 2.49 14.92
2/11/2021 5:45:00 PM -0.07 31.874 0.115 6.42 2.48 14.9
2/11/2021 6:00:00 PM -0.07 31.874 0.115 6.4 2.46 14.84
2/11/2021 6:15:00 PM -0.08 31.856 0.115 6.39 2.5 14.79
2/11/2021 6:30:00 PM -0.09 31.838 0.115 6.4 2.48 14.76
2/11/2021 6:45:00 PM -0.1 31.82 0.115 6.39 2.45 14.74
2/11/2021 7:00:00 PM -0.1 31.82 0.115 6.39 2.45 14.7
2/11/2021 7:15:00 PM -0.09 31.838 0.115 6.38 2.46 14.65
2/11/2021 7:30:00 PM -0.1 31.82 0.116 6.38 2.52 14.63
2/11/2021 7:45:00 PM -0.11 31.802 0.115 6.38 2.49 14.6
2/11/2021 8:00:00 PM -0.11 31.802 0.116 6.37 2.51 14.57
2/11/2021 8:15:00 PM -0.12 31.784 0.116 6.36 2.51 14.56
2/11/2021 8:30:00 PM -0.11 31.802 0.116 6.36 2.51 14.52
2/11/2021 8:45:00 PM -0.11 31.802 0.116 6.35 2.48 14.51
2/11/2021 9:00:00 PM -0.11 31.802 0.116 6.35 2.44 14.48
2/11/2021 9:15:00 PM -0.1 31.82 0.116 6.33 2.49 14.45
2/11/2021 9:30:00 PM -0.11 31.802 0.116 6.33 2.49 14.44
2/11/2021 9:45:00 PM -0.11 31.802 0.116 6.33 2.51 14.43
2/11/2021 10:00:00 PM -0.11 31.802 0.117 6.32 2.51 14.42
2/11/2021 10:15:00 PM -0.11 31.802 0.116 6.32 2.47 14.4
2/11/2021 10:30:00 PM -0.11 31.802 0.117 6.32 2.55 14.39
2/11/2021 10:45:00 PM -0.11 31.802 0.117 6.31 2.5 14.38
2/11/2021 11:00:00 PM -0.11 31.802 0.117 6.31 2.54 14.37
2/11/2021 11:15:00 PM -0.11 31.802 0.117 6.32 2.46 14.36
2/11/2021 11:30:00 PM -0.11 31.802 0.117 6.31 2.48 14.36
2/11/2021 11:45:00 PM -0.11 31.802 0.118 6.31 2.46 14.35
2/12/2021 12:00:00 AM -0.11 31.802 0.118 6.31 2.53 14.35
2/12/2021 12:15:00 AM -0.12 31.784 0.118 6.3 2.51 14.34
2/12/2021 12:30:00 AM -0.12 31.784 0.118 6.31 2.48 14.34
2/12/2021 12:45:00 AM -0.12 31.784 0.119 6.31 2.52 14.33
2/12/2021 1:00:00 AM -0.12 31.784 0.119 6.31 2.49 14.34
2/12/2021 1:15:00 AM -0.12 31.784 0.119 6.3 2.51 14.33
2/12/2021 1:30:00 AM -0.12 31.784 0.119 6.31 2.5 14.33
2/12/2021 1:45:00 AM -0.11 31.802 0.119 6.3 2.48 14.33
2/12/2021 2:00:00 AM -0.11 31.802 0.119 6.31 2.43 14.32
2/12/2021 2:15:00 AM -0.12 31.784 0.12 6.31 2.53 14.32
2/12/2021 2:30:00 AM -0.11 31.802 0.12 6.3 2.45 14.31
2/12/2021 2:45:00 AM -0.11 31.802 0.12 6.3 2.45 14.31
2/12/2021 3:00:00 AM -0.12 31.784 0.121 6.3 2.51 14.31
2/12/2021 3:15:00 AM -0.12 31.784 0.121 6.3 2.46 14.31
2/12/2021 3:30:00 AM -0.12 31.784 0.121 6.3 2.42 14.3
2/12/2021 3:45:00 AM -0.11 31.802 0.121 6.3 2.52 14.3
2/12/2021 4:00:00 AM -0.12 31.784 0.122 6.3 2.45 14.3
2/12/2021 4:15:00 AM -0.12 31.784 0.122 6.3 2.45 14.3
2/12/2021 4:30:00 AM -0.11 31.802 0.122 6.3 2.47 14.28
2/12/2021 4:45:00 AM -0.12 31.784 0.123 6.3 2.43 14.29
2/12/2021 5:00:00 AM -0.11 31.802 0.123 6.29 2.43 14.27
2/12/2021 5:15:00 AM -0.11 31.802 0.123 6.3 2.45 14.26
2/12/2021 5:30:00 AM -0.11 31.802 0.124 6.3 2.45 14.27
2/12/2021 5:45:00 AM -0.11 31.802 0.124 6.29 2.42 14.25
2/12/2021 6:00:00 AM -0.1 31.82 0.125 6.29 2.44 14.24
2/12/2021 6:15:00 AM -0.09 31.838 0.125 6.29 2.44 14.23
2/12/2021 6:30:00 AM -0.09 31.838 0.125 6.29 2.47 14.23
2/12/2021 6:45:00 AM -0.08 31.856 0.126 6.29 2.45 14.23
2/12/2021 7:00:00 AM -0.08 31.856 0.126 6.3 2.49 14.22
2/12/2021 7:15:00 AM -0.09 31.838 0.126 6.3 2.41 14.24
2/12/2021 7:30:00 AM -0.08 31.856 0.127 6.3 2.49 14.23
2/12/2021 7:45:00 AM -0.07 31.874 0.127 6.3 2.44 14.26
2/12/2021 8:00:00 AM -0.07 31.874 0.127 6.3 2.46 14.32
2/12/2021 8:15:00 AM -0.06 31.892 0.126 6.31 2.39 14.39
2/12/2021 8:30:00 AM -0.05 31.91 0.127 6.31 2.46 14.43
2/12/2021 8:45:00 AM -0.03 31.946 0.127 6.32 2.39 14.47
2/12/2021 9:00:00 AM -0.02 31.964 0.127 6.32 2.44 14.52
2/12/2021 9:15:00 AM -0.01 31.982 0.127 6.33 2.43 14.57
2/12/2021 9:30:00 AM 0 32 0.127 6.33 2.47 14.63
2/12/2021 9:45:00 AM 0 32 0.127 6.34 2.47 14.65
2/12/2021 10:00:00 AM -0.02 31.964 0.127 6.34 2.48 14.71
2/12/2021 10:15:00 AM -0.03 31.946 0.126 6.36 2.47 14.76
2/12/2021 10:30:00 AM -0.03 31.946 0.126 6.36 2.48 14.81
2/12/2021 10:45:00 AM -0.03 31.946 0.126 6.37 2.42 14.86
2/12/2021 11:00:00 AM -0.04 31.928 0.126 6.36 2.51 14.89
2/12/2021 11:15:00 AM -0.04 31.928 0.127 6.36 2.47 14.93
2/12/2021 11:30:00 AM -0.04 31.928 0.126 6.37 2.52 14.96
2/12/2021 11:45:00 AM -0.03 31.946 0.126 6.37 2.46 15
2/12/2021 12:00:00 PM -0.03 31.946 0.126 6.37 2.48 15.03
2/12/2021 12:15:00 PM -0.03 31.946 0.126 6.36 2.51 15.06
2/12/2021 12:30:00 PM -0.01 31.982 0.126 6.39 2.54 15.09
2/12/2021 12:45:00 PM 0 32 0.126 6.4 2.53 15.12
2/12/2021 1:00:00 PM 0.02 32.036 0.126 6.41 2.49 15.14
2/12/2021 1:15:00 PM 0.02 32.036 0.126 6.41 2.49 15.17
2/12/2021 1:30:00 PM 0.03 32.054 0.126 6.41 2.53 15.18
2/12/2021 1:45:00 PM 0.02 32.036 0.126 6.43 2.46 15.21
2/12/2021 2:00:00 PM -0.01 31.982 0.126 6.43 2.52 15.22
2/12/2021 2:15:00 PM -0.01 31.982 0.126 6.44 2.49 15.24
2/12/2021 2:30:00 PM -0.01 31.982 0.125 6.44 2.48 15.24
2/12/2021 2:45:00 PM -0.01 31.982 0.125 6.45 2.52 15.26
2/12/2021 3:00:00 PM -0.01 31.982 0.125 6.46 2.47 15.26
2/12/2021 3:15:00 PM 0 32 0.125 6.46 2.56 15.26
2/12/2021 3:30:00 PM -0.02 31.964 0.124 6.46 2.49 15.26
2/12/2021 3:45:00 PM -0.03 31.946 0.124 6.46 2.45 15.26
2/12/2021 4:00:00 PM -0.04 31.928 0.124 6.46 2.5 15.25
2/12/2021 4:15:00 PM -0.04 31.928 0.124 6.47 2.48 15.24
2/12/2021 4:30:00 PM -0.05 31.91 0.124 6.46 2.48 15.22
2/12/2021 4:45:00 PM -0.06 31.892 0.123 6.46 2.46 15.2
2/12/2021 5:00:00 PM -0.07 31.874 0.123 6.47 2.48 15.16
2/12/2021 5:15:00 PM -0.08 31.856 0.123 6.46 2.47 15.12
2/12/2021 5:30:00 PM -0.08 31.856 0.123 6.45 2.52 15.07
2/12/2021 5:45:00 PM -0.09 31.838 0.123 6.43 2.52 15.01
2/12/2021 6:00:00 PM -0.09 31.838 0.123 6.44 2.46 14.96
2/12/2021 6:15:00 PM -0.09 31.838 0.122 6.43 2.43 14.91
2/12/2021 6:30:00 PM -0.09 31.838 0.123 6.43 2.47 14.87
2/12/2021 6:45:00 PM -0.09 31.838 0.122 6.42 2.45 14.83
2/12/2021 7:00:00 PM -0.09 31.838 0.122 6.42 2.48 14.79
2/12/2021 7:15:00 PM -0.09 31.838 0.123 6.41 2.53 14.75
2/12/2021 7:30:00 PM -0.09 31.838 0.123 6.41 2.53 14.71
2/12/2021 7:45:00 PM -0.09 31.838 0.122 6.4 2.41 14.67
2/12/2021 8:00:00 PM -0.1 31.82 0.122 6.39 2.49 14.64
2/12/2021 8:15:00 PM -0.1 31.82 0.122 6.38 2.54 14.6
2/12/2021 8:30:00 PM -0.09 31.838 0.123 6.38 2.48 14.56
2/12/2021 8:45:00 PM -0.09 31.838 0.123 6.37 2.47 14.53
2/12/2021 9:00:00 PM -0.09 31.838 0.123 6.37 2.49 14.5
2/12/2021 9:15:00 PM -0.09 31.838 0.123 6.37 2.52 14.47
2/12/2021 9:30:00 PM -0.09 31.838 0.123 6.36 2.45 14.45
2/12/2021 9:45:00 PM -0.09 31.838 0.123 6.36 2.47 14.43
2/12/2021 10:00:00 PM -0.09 31.838 0.123 6.35 2.52 14.41
2/12/2021 10:15:00 PM -0.1 31.82 0.123 6.35 2.5 14.4
2/12/2021 10:30:00 PM -0.1 31.82 0.123 6.35 2.42 14.38
2/12/2021 10:45:00 PM -0.1 31.82 0.122 6.34 2.5 14.37
2/12/2021 11:00:00 PM -0.1 31.82 0.122 6.34 2.51 14.36
2/12/2021 11:15:00 PM -0.1 31.82 0.122 6.33 2.48 14.35
2/12/2021 11:30:00 PM -0.09 31.838 0.122 6.34 2.5 14.33
2/12/2021 11:45:00 PM -0.1 31.82 0.122 6.33 2.45 14.33
2/13/2021 12:00:00 AM -0.1 31.82 0.122 6.33 2.48 14.33
2/13/2021 12:15:00 AM -0.1 31.82 0.121 6.34 2.53 14.31
2/13/2021 12:30:00 AM -0.1 31.82 0.121 6.34 2.47 14.31
2/13/2021 12:45:00 AM -0.1 31.82 0.121 6.33 2.44 14.3
2/13/2021 1:00:00 AM -0.1 31.82 0.121 6.32 2.45 14.31
2/13/2021 1:15:00 AM -0.1 31.82 0.121 6.32 2.48 14.3
2/13/2021 1:30:00 AM -0.1 31.82 0.12 6.32 2.51 14.29
2/13/2021 1:45:00 AM -0.1 31.82 0.12 6.32 2.44 14.29
2/13/2021 2:00:00 AM -0.11 31.802 0.12 6.31 2.41 14.28
2/13/2021 2:15:00 AM -0.11 31.802 0.12 6.32 2.47 14.28
2/13/2021 2:30:00 AM -0.11 31.802 0.12 6.32 2.44 14.28
2/13/2021 2:45:00 AM -0.11 31.802 0.12 6.32 2.48 14.28
2/13/2021 3:00:00 AM -0.11 31.802 0.12 6.32 2.46 14.27
2/13/2021 3:15:00 AM -0.1 31.82 0.12 6.31 2.42 14.26
2/13/2021 3:30:00 AM -0.11 31.802 0.12 6.32 2.42 14.26
2/13/2021 3:45:00 AM -0.11 31.802 0.119 6.31 2.45 14.26
2/13/2021 4:00:00 AM -0.11 31.802 0.12 6.31 2.48 14.26
2/13/2021 4:15:00 AM -0.11 31.802 0.12 6.31 2.45 14.25
2/13/2021 4:30:00 AM -0.11 31.802 0.12 6.31 2.47 14.25
2/13/2021 4:45:00 AM -0.11 31.802 0.12 6.31 2.5 14.25
2/13/2021 5:00:00 AM -0.11 31.802 0.12 6.31 2.49 14.25
2/13/2021 5:15:00 AM -0.11 31.802 0.12 6.31 2.46 14.24
2/13/2021 5:30:00 AM -0.11 31.802 0.12 6.3 2.43 14.25
2/13/2021 5:45:00 AM -0.11 31.802 0.12 6.3 2.47 14.24
2/13/2021 6:00:00 AM -0.11 31.802 0.12 6.31 2.46 14.24
2/13/2021 6:15:00 AM -0.11 31.802 0.12 6.3 2.48 14.24
2/13/2021 6:30:00 AM -0.12 31.784 0.121 6.31 2.42 14.24
2/13/2021 6:45:00 AM -0.11 31.802 0.121 6.31 2.41 14.23
2/13/2021 7:00:00 AM -0.12 31.784 0.121 6.31 2.45 14.23
2/13/2021 7:15:00 AM -0.12 31.784 0.121 6.31 2.43 14.25
2/13/2021 7:30:00 AM -0.11 31.802 0.121 6.31 2.44 14.26
2/13/2021 7:45:00 AM -0.11 31.802 0.121 6.32 2.45 14.31
2/13/2021 8:00:00 AM -0.1 31.82 0.121 6.31 2.46 14.34
2/13/2021 8:15:00 AM -0.1 31.82 0.122 6.32 2.43 14.41
2/13/2021 8:30:00 AM -0.09 31.838 0.122 6.32 2.47 14.46
2/13/2021 8:45:00 AM -0.08 31.856 0.122 6.33 2.41 14.51
2/13/2021 9:00:00 AM -0.07 31.874 0.122 6.33 2.44 14.56
2/13/2021 9:15:00 AM -0.06 31.892 0.122 6.34 2.42 14.6
2/13/2021 9:30:00 AM -0.07 31.874 0.122 6.35 2.39 14.66
2/13/2021 9:45:00 AM -0.06 31.892 0.122 6.36 2.4 14.71
2/13/2021 10:00:00 AM -0.06 31.892 0.122 6.36 2.38 14.75
2/13/2021 10:15:00 AM -0.06 31.892 0.122 6.37 2.44 14.81
2/13/2021 10:30:00 AM -0.05 31.91 0.122 6.37 2.41 14.85
2/13/2021 10:45:00 AM -0.04 31.928 0.121 6.38 2.42 14.89
2/13/2021 11:00:00 AM -0.04 31.928 0.121 6.4 2.44 14.96
2/13/2021 11:15:00 AM -0.03 31.946 0.121 6.4 2.38 14.98
2/13/2021 11:30:00 AM -0.02 31.964 0.121 6.41 2.4 15.04
2/13/2021 11:45:00 AM -0.02 31.964 0.121 6.41 2.41 15.07
2/13/2021 12:00:00 PM -0.03 31.946 0.12 6.42 2.42 15.11
2/13/2021 12:15:00 PM -0.03 31.946 0.12 6.43 2.39 15.14
2/13/2021 12:30:00 PM -0.03 31.946 0.12 6.43 2.41 15.18
2/13/2021 12:45:00 PM -0.02 31.964 0.12 6.45 2.4 15.21
2/13/2021 1:00:00 PM -0.02 31.964 0.12 6.45 2.38 15.24
2/13/2021 1:15:00 PM -0.01 31.982 0.119 6.46 2.41 15.26
2/13/2021 1:30:00 PM 0 32 0.12 6.47 2.43 15.27
2/13/2021 1:45:00 PM 0.01 32.018 0.119 6.46 2.39 15.29
2/13/2021 2:00:00 PM 0 32 0.119 6.47 2.38 15.3
2/13/2021 2:15:00 PM -0.01 31.982 0.119 6.47 2.41 15.3
2/13/2021 2:30:00 PM 0 32 0.119 6.48 2.43 15.32
2/13/2021 2:45:00 PM -0.01 31.982 0.119 6.47 2.37 15.33
2/13/2021 3:00:00 PM -0.01 31.982 0.119 6.49 2.44 15.33
2/13/2021 3:15:00 PM -0.02 31.964 0.119 6.5 2.38 15.35
2/13/2021 3:30:00 PM -0.03 31.946 0.119 6.49 2.44 15.34
2/13/2021 3:45:00 PM -0.04 31.928 0.119 6.49 2.41 15.33
2/13/2021 4:00:00 PM -0.03 31.946 0.12 6.49 2.42 15.33
2/13/2021 4:15:00 PM -0.04 31.928 0.12 6.48 2.41 15.31
2/13/2021 4:30:00 PM -0.04 31.928 0.12 6.48 2.44 15.28
2/13/2021 4:45:00 PM -0.06 31.892 0.12 6.48 2.45 15.24
2/13/2021 5:00:00 PM -0.06 31.892 0.12 6.48 2.44 15.21
2/13/2021 5:15:00 PM -0.07 31.874 0.12 6.48 2.43 15.19
2/13/2021 5:30:00 PM -0.08 31.856 0.12 6.48 2.4 15.13
2/13/2021 5:45:00 PM -0.08 31.856 0.12 6.47 2.44 15.07
2/13/2021 6:00:00 PM -0.09 31.838 0.12 6.45 2.42 15
2/13/2021 6:15:00 PM -0.09 31.838 0.12 6.44 2.47 14.95
2/13/2021 6:30:00 PM -0.09 31.838 0.12 6.43 2.43 14.9
2/13/2021 6:45:00 PM -0.09 31.838 0.12 6.43 2.47 14.85
2/13/2021 7:00:00 PM -0.09 31.838 0.12 6.42 2.44 14.79
2/13/2021 7:15:00 PM -0.09 31.838 0.121 6.41 2.46 14.74
2/13/2021 7:30:00 PM -0.09 31.838 0.121 6.4 2.42 14.71
2/13/2021 7:45:00 PM -0.09 31.838 0.12 6.4 2.41 14.65
2/13/2021 8:00:00 PM -0.09 31.838 0.121 6.39 2.46 14.62
2/13/2021 8:15:00 PM -0.09 31.838 0.121 6.39 2.43 14.57
2/13/2021 8:30:00 PM -0.09 31.838 0.121 6.39 2.41 14.54
2/13/2021 8:45:00 PM -0.09 31.838 0.121 6.38 2.42 14.51
2/13/2021 9:00:00 PM -0.09 31.838 0.121 6.38 2.4 14.48
2/13/2021 9:15:00 PM -0.09 31.838 0.121 6.38 2.37 14.44
2/13/2021 9:30:00 PM -0.09 31.838 0.121 6.37 2.43 14.42
2/13/2021 9:45:00 PM -0.09 31.838 0.121 6.37 2.44 14.39
2/13/2021 10:00:00 PM -0.09 31.838 0.121 6.37 2.4 14.37
2/13/2021 10:15:00 PM -0.09 31.838 0.121 6.35 2.4 14.35
2/13/2021 10:30:00 PM -0.09 31.838 0.121 6.35 2.4 14.33
2/13/2021 10:45:00 PM -0.09 31.838 0.121 6.35 2.45 14.32
2/13/2021 11:00:00 PM -0.09 31.838 0.121 6.35 2.41 14.3
2/13/2021 11:15:00 PM -0.09 31.838 0.12 6.35 2.44 14.29
2/13/2021 11:30:00 PM -0.09 31.838 0.12 6.35 2.43 14.28
2/13/2021 11:45:00 PM -0.09 31.838 0.12 6.34 2.46 14.27
2/14/2021 12:00:00 AM -0.09 31.838 0.12 6.34 2.42 14.25
2/14/2021 12:15:00 AM -0.09 31.838 0.12 6.34 2.45 14.24
2/14/2021 12:30:00 AM -0.09 31.838 0.12 6.33 2.44 14.23
2/14/2021 12:45:00 AM -0.09 31.838 0.12 6.33 2.4 14.23
2/14/2021 1:00:00 AM -0.09 31.838 0.12 6.33 2.37 14.23
2/14/2021 1:15:00 AM -0.09 31.838 0.12 6.32 2.46 14.21
2/14/2021 1:30:00 AM -0.09 31.838 0.12 6.33 2.39 14.22
2/14/2021 1:45:00 AM -0.09 31.838 0.12 6.32 2.41 14.21
2/14/2021 2:00:00 AM -0.09 31.838 0.12 6.32 2.43 14.2
2/14/2021 2:15:00 AM -0.09 31.838 0.12 6.33 2.39 14.19
2/14/2021 2:30:00 AM -0.09 31.838 0.12 6.32 2.44 14.19
2/14/2021 2:45:00 AM -0.09 31.838 0.12 6.32 2.47 14.19
2/14/2021 3:00:00 AM -0.09 31.838 0.12 6.32 2.38 14.18
2/14/2021 3:15:00 AM -0.09 31.838 0.12 6.32 2.42 14.18
2/14/2021 3:30:00 AM -0.09 31.838 0.12 6.32 2.4 14.17
2/14/2021 3:45:00 AM -0.09 31.838 0.12 6.32 2.42 14.17
2/14/2021 4:00:00 AM -0.09 31.838 0.12 6.31 2.4 14.17
2/14/2021 4:15:00 AM -0.09 31.838 0.12 6.32 2.39 14.18
2/14/2021 4:30:00 AM -0.09 31.838 0.12 6.32 2.38 14.16
2/14/2021 4:45:00 AM -0.09 31.838 0.12 6.32 2.41 14.16
2/14/2021 5:00:00 AM -0.09 31.838 0.12 6.32 2.45 14.15
2/14/2021 5:15:00 AM -0.09 31.838 0.121 6.31 2.41 14.16
2/14/2021 5:30:00 AM -0.09 31.838 0.121 6.32 2.39 14.15
2/14/2021 5:45:00 AM -0.09 31.838 0.121 6.31 2.42 14.16
2/14/2021 6:00:00 AM -0.09 31.838 0.121 6.32 2.4 14.16
2/14/2021 6:15:00 AM -0.09 31.838 0.121 6.32 2.39 14.15
2/14/2021 6:30:00 AM -0.09 31.838 0.121 6.32 2.42 14.16
2/14/2021 6:45:00 AM -0.09 31.838 0.121 6.31 2.42 14.15
2/14/2021 7:00:00 AM -0.09 31.838 0.121 6.31 2.39 14.15
2/14/2021 7:15:00 AM -0.08 31.856 0.121 6.31 2.42 14.14
2/14/2021 7:30:00 AM -0.09 31.838 0.121 6.32 2.45 14.17
2/14/2021 7:45:00 AM -0.08 31.856 0.121 6.31 2.41 14.21
2/14/2021 8:00:00 AM -0.07 31.874 0.121 6.32 2.41 14.24
2/14/2021 8:15:00 AM -0.06 31.892 0.121 6.33 2.41 14.3
2/14/2021 8:30:00 AM -0.05 31.91 0.121 6.33 2.44 14.37
2/14/2021 8:45:00 AM -0.04 31.928 0.121 6.34 2.4 14.44
2/14/2021 9:00:00 AM -0.03 31.946 0.121 6.35 2.41 14.5
2/14/2021 9:15:00 AM 0 32 0.121 6.36 2.38 14.56
2/14/2021 9:30:00 AM 0.01 32.018 0.121 6.35 2.38 14.62
2/14/2021 9:45:00 AM 0.02 32.036 0.121 6.37 2.39 14.67
2/14/2021 10:00:00 AM 0.02 32.036 0.121 6.35 2.4 14.72
2/14/2021 10:15:00 AM 0.04 32.072 0.12 6.38 2.41 14.78
2/14/2021 10:30:00 AM 0.06 32.108 0.12 6.39 2.42 14.84
2/14/2021 10:45:00 AM 0.07 32.126 0.12 6.39 2.4 14.9
2/14/2021 11:00:00 AM 0.08 32.144 0.12 6.4 2.37 14.93
2/14/2021 11:15:00 AM 0.08 32.144 0.12 6.41 2.37 14.98
2/14/2021 11:30:00 AM 0.08 32.144 0.119 6.41 2.44 15.03
2/14/2021 11:45:00 AM 0.08 32.144 0.119 6.43 2.38 15.08
2/14/2021 12:00:00 PM 0.09 32.162 0.119 6.43 2.37 15.11
2/14/2021 12:15:00 PM 0.09 32.162 0.119 6.44 2.37 15.15
2/14/2021 12:30:00 PM 0.09 32.162 0.118 6.45 2.35 15.18
2/14/2021 12:45:00 PM 0.09 32.162 0.118 6.46 2.42 15.2
2/14/2021 1:00:00 PM 0.09 32.162 0.118 6.46 2.34 15.24
2/14/2021 1:15:00 PM 0.1 32.18 0.117 6.47 2.35 15.26
2/14/2021 1:30:00 PM 0.11 32.198 0.117 6.48 2.36 15.27
2/14/2021 1:45:00 PM 0.1 32.18 0.117 6.48 2.42 15.28
2/14/2021 2:00:00 PM 0.11 32.198 0.117 6.48 2.38 15.29
2/14/2021 2:15:00 PM 0.11 32.198 0.117 6.48 2.39 15.28
2/14/2021 2:30:00 PM 0.09 32.162 0.117 6.49 2.42 15.29
2/14/2021 2:45:00 PM 0.08 32.144 0.116 6.49 2.37 15.3
2/14/2021 3:00:00 PM 0.07 32.126 0.116 6.48 2.44 15.29
2/14/2021 3:15:00 PM 0.06 32.108 0.116 6.49 2.44 15.28
2/14/2021 3:30:00 PM 0.05 32.09 0.116 6.5 2.38 15.3
2/14/2021 3:45:00 PM 0.04 32.072 0.116 6.5 2.4 15.29
2/14/2021 4:00:00 PM 0.04 32.072 0.115 6.5 2.4 15.27
2/14/2021 4:15:00 PM 0.03 32.054 0.115 6.5 2.41 15.28
2/14/2021 4:30:00 PM 0.02 32.036 0.115 6.5 2.39 15.26
2/14/2021 4:45:00 PM 0.01 32.018 0.115 6.5 2.42 15.23
2/14/2021 5:00:00 PM 0 32 0.115 6.48 2.45 15.18
2/14/2021 5:15:00 PM -0.02 31.964 0.115 6.48 2.43 15.15
2/14/2021 5:30:00 PM -0.03 31.946 0.115 6.46 2.39 15.09
2/14/2021 5:45:00 PM -0.04 31.928 0.115 6.46 2.49 15.03
2/14/2021 6:00:00 PM -0.05 31.91 0.115 6.45 2.41 14.97
2/14/2021 6:15:00 PM -0.05 31.91 0.115 6.44 2.44 14.92
2/14/2021 6:30:00 PM -0.05 31.91 0.115 6.43 2.42 14.85
2/14/2021 6:45:00 PM -0.06 31.892 0.115 6.43 2.43 14.83
2/14/2021 7:00:00 PM -0.06 31.892 0.115 6.42 2.42 14.78
2/14/2021 7:15:00 PM -0.06 31.892 0.115 6.41 2.44 14.72
2/14/2021 7:30:00 PM -0.06 31.892 0.115 6.41 2.44 14.69
2/14/2021 7:45:00 PM -0.07 31.874 0.115 6.4 2.45 14.64
2/14/2021 8:00:00 PM -0.07 31.874 0.115 6.39 2.46 14.6
2/14/2021 8:15:00 PM -0.07 31.874 0.115 6.39 2.38 14.56
2/14/2021 8:30:00 PM -0.07 31.874 0.115 6.38 2.43 14.53
2/14/2021 8:45:00 PM -0.07 31.874 0.116 6.37 2.46 14.49
2/14/2021 9:00:00 PM -0.07 31.874 0.115 6.37 2.46 14.47
2/14/2021 9:15:00 PM -0.07 31.874 0.116 6.36 2.43 14.43
2/14/2021 9:30:00 PM -0.07 31.874 0.116 6.36 2.44 14.42
2/14/2021 9:45:00 PM -0.07 31.874 0.116 6.36 2.45 14.39
2/14/2021 10:00:00 PM -0.07 31.874 0.116 6.35 2.44 14.37
2/14/2021 10:15:00 PM -0.07 31.874 0.116 6.35 2.4 14.35
2/14/2021 10:30:00 PM -0.07 31.874 0.116 6.34 2.44 14.33
2/14/2021 10:45:00 PM -0.07 31.874 0.116 6.35 2.41 14.32
2/14/2021 11:00:00 PM -0.07 31.874 0.116 6.34 2.45 14.31
2/14/2021 11:15:00 PM -0.06 31.892 0.116 6.34 2.41 14.28
2/14/2021 11:30:00 PM -0.06 31.892 0.116 6.33 2.41 14.28
2/14/2021 11:45:00 PM -0.07 31.874 0.116 6.33 2.43 14.27
2/15/2021 12:00:00 AM -0.06 31.892 0.116 6.33 2.39 14.27
2/15/2021 12:15:00 AM -0.06 31.892 0.116 6.33 2.43 14.26
2/15/2021 12:30:00 AM -0.07 31.874 0.116 6.32 2.4 14.25
2/15/2021 12:45:00 AM -0.07 31.874 0.116 6.33 2.41 14.25
2/15/2021 1:00:00 AM -0.07 31.874 0.116 6.33 2.42 14.23
2/15/2021 1:15:00 AM -0.07 31.874 0.116 6.34 2.41 14.23
2/15/2021 1:30:00 AM -0.07 31.874 0.116 6.32 2.44 14.23
2/15/2021 1:45:00 AM -0.07 31.874 0.116 6.33 2.38 14.23
2/15/2021 2:00:00 AM -0.07 31.874 0.116 6.33 2.43 14.22
2/15/2021 2:15:00 AM -0.08 31.856 0.116 6.33 2.48 14.22
2/15/2021 2:30:00 AM -0.08 31.856 0.116 6.32 2.44 14.22
2/15/2021 2:45:00 AM -0.08 31.856 0.116 6.33 2.39 14.22
2/15/2021 3:00:00 AM -0.08 31.856 0.116 6.33 2.46 14.22
2/15/2021 3:15:00 AM -0.08 31.856 0.116 6.33 2.39 14.22
2/15/2021 3:30:00 AM -0.08 31.856 0.116 6.32 2.41 14.2
2/15/2021 3:45:00 AM -0.08 31.856 0.116 6.32 2.41 14.2
2/15/2021 4:00:00 AM -0.08 31.856 0.117 6.32 2.45 14.2
2/15/2021 4:15:00 AM -0.08 31.856 0.116 6.32 2.44 14.2
2/15/2021 4:30:00 AM -0.08 31.856 0.117 6.32 2.4 14.2
2/15/2021 4:45:00 AM -0.08 31.856 0.117 6.32 2.41 14.2
2/15/2021 5:00:00 AM -0.08 31.856 0.117 6.32 2.4 14.2
2/15/2021 5:15:00 AM -0.08 31.856 0.117 6.31 2.38 14.2
2/15/2021 5:30:00 AM -0.08 31.856 0.117 6.31 2.4 14.18
2/15/2021 5:45:00 AM -0.08 31.856 0.117 6.32 2.35 14.19
2/15/2021 6:00:00 AM -0.08 31.856 0.117 6.32 2.38 14.2
2/15/2021 6:15:00 AM -0.09 31.838 0.117 6.32 2.42 14.2
2/15/2021 6:30:00 AM -0.09 31.838 0.117 6.32 2.42 14.2
2/15/2021 6:45:00 AM -0.08 31.856 0.117 6.32 2.42 14.19
2/15/2021 7:00:00 AM -0.08 31.856 0.117 6.31 2.39 14.18
2/15/2021 7:15:00 AM -0.08 31.856 0.117 6.32 2.4 14.2
2/15/2021 7:30:00 AM -0.08 31.856 0.116 6.32 2.36 14.2
2/15/2021 7:45:00 AM -0.08 31.856 0.116 6.32 2.39 14.23
2/15/2021 8:00:00 AM -0.08 31.856 0.117 6.31 2.38 14.26
2/15/2021 8:15:00 AM -0.07 31.874 0.116 6.32 2.41 14.3
2/15/2021 8:30:00 AM -0.06 31.892 0.116 6.33 2.43 14.36
2/15/2021 8:45:00 AM -0.06 31.892 0.116 6.34 2.39 14.41
2/15/2021 9:00:00 AM -0.05 31.91 0.116 6.35 2.41 14.48
2/15/2021 9:15:00 AM -0.04 31.928 0.116 6.35 2.43 14.53
2/15/2021 9:30:00 AM -0.04 31.928 0.116 6.36 2.37 14.57
2/15/2021 9:45:00 AM -0.04 31.928 0.115 6.36 2.41 14.61
2/15/2021 10:00:00 AM -0.04 31.928 0.115 6.37 2.38 14.67
2/15/2021 10:15:00 AM -0.03 31.946 0.115 6.38 2.41 14.72
2/15/2021 10:30:00 AM -0.03 31.946 0.115 6.38 2.4 14.75
2/15/2021 10:45:00 AM -0.03 31.946 0.116 6.39 2.43 14.8
2/15/2021 11:00:00 AM -0.04 31.928 0.115 6.39 2.38 14.8
2/15/2021 11:15:00 AM -0.04 31.928 0.115 6.39 2.45 14.85
2/15/2021 11:30:00 AM -0.04 31.928 0.115 6.4 2.38 14.88
2/15/2021 11:45:00 AM -0.03 31.946 0.115 6.41 2.42 14.92
2/15/2021 12:00:00 PM -0.01 31.982 0.115 6.42 2.4 14.97
2/15/2021 12:15:00 PM 0.02 32.036 0.115 6.42 2.42 15.02
2/15/2021 12:30:00 PM 0.03 32.054 0.114 6.43 2.44 15.05
2/15/2021 12:45:00 PM 0.03 32.054 0.114 6.44 2.38 15.07
2/15/2021 1:00:00 PM 0.03 32.054 0.114 6.45 2.41 15.09
2/15/2021 1:15:00 PM 0.03 32.054 0.114 6.45 2.39 15.11
2/15/2021 1:30:00 PM 0.04 32.072 0.114 6.45 2.36 15.12
2/15/2021 1:45:00 PM 0.05 32.09 0.114 6.47 2.37 15.15
2/15/2021 2:00:00 PM 0.05 32.09 0.114 6.46 2.46 15.16
2/15/2021 2:15:00 PM 0.04 32.072 0.114 6.47 2.38 15.16
2/15/2021 2:30:00 PM 0.04 32.072 0.114 6.47 2.42 15.16
2/15/2021 2:45:00 PM 0.02 32.036 0.114 6.47 2.4 15.14
2/15/2021 3:00:00 PM 0.01 32.018 0.114 6.48 2.42 15.14
2/15/2021 3:15:00 PM 0 32 0.114 6.47 2.43 15.13
2/15/2021 3:30:00 PM 0 32 0.114 6.47 2.42 15.1
2/15/2021 3:45:00 PM -0.01 31.982 0.114 6.47 2.4 15.09
2/15/2021 4:00:00 PM -0.02 31.964 0.113 6.47 2.41 15.09
2/15/2021 4:15:00 PM -0.02 31.964 0.113 6.47 2.44 15.07
2/15/2021 4:30:00 PM -0.02 31.964 0.113 6.47 2.41 15.05
2/15/2021 4:45:00 PM -0.03 31.946 0.113 6.47 2.39 15.03
2/15/2021 5:00:00 PM -0.04 31.928 0.113 6.46 2.36 14.99
2/15/2021 5:15:00 PM -0.04 31.928 0.113 6.45 2.42 14.94
2/15/2021 5:30:00 PM -0.05 31.91 0.114 6.45 2.41 14.9
2/15/2021 5:45:00 PM -0.06 31.892 0.114 6.44 2.43 14.83
2/15/2021 6:00:00 PM -0.06 31.892 0.114 6.44 2.37 14.78
2/15/2021 6:15:00 PM -0.07 31.874 0.114 6.42 2.44 14.74
2/15/2021 6:30:00 PM -0.07 31.874 0.114 6.42 2.42 14.69
2/15/2021 6:45:00 PM -0.07 31.874 0.114 6.42 2.45 14.65
2/15/2021 7:00:00 PM -0.07 31.874 0.114 6.41 2.4 14.6
2/15/2021 7:15:00 PM -0.07 31.874 0.114 6.4 2.45 14.55
2/15/2021 7:30:00 PM -0.07 31.874 0.114 6.41 2.44 14.52
2/15/2021 7:45:00 PM -0.07 31.874 0.114 6.39 2.42 14.47
2/15/2021 8:00:00 PM -0.07 31.874 0.114 6.38 2.43 14.44
2/15/2021 8:15:00 PM -0.08 31.856 0.114 6.39 2.51 14.4
2/15/2021 8:30:00 PM -0.08 31.856 0.114 6.38 2.42 14.37
2/15/2021 8:45:00 PM -0.09 31.838 0.114 6.37 2.48 14.33
2/15/2021 9:00:00 PM -0.09 31.838 0.114 6.37 2.42 14.3
2/15/2021 9:15:00 PM -0.09 31.838 0.114 6.36 2.44 14.28
2/15/2021 9:30:00 PM -0.08 31.856 0.114 6.36 2.44 14.25
2/15/2021 9:45:00 PM -0.08 31.856 0.114 6.36 2.43 14.22
2/15/2021 10:00:00 PM -0.08 31.856 0.115 6.35 2.46 14.2
2/15/2021 10:15:00 PM -0.08 31.856 0.114 6.35 2.47 14.18
2/15/2021 10:30:00 PM -0.08 31.856 0.114 6.35 2.51 14.17
2/15/2021 10:45:00 PM -0.07 31.874 0.114 6.34 2.5 14.15
2/15/2021 11:00:00 PM -0.07 31.874 0.115 6.33 2.52 14.13
2/15/2021 11:15:00 PM -0.07 31.874 0.115 6.33 2.61 14.12
2/15/2021 11:30:00 PM -0.06 31.892 0.115 6.33 2.72 14.1
2/15/2021 11:45:00 PM -0.05 31.91 0.115 6.34 2.84 14.08
2/16/2021 12:00:00 AM -0.05 31.91 0.115 6.33 2.83 14.07
2/16/2021 12:15:00 AM -0.05 31.91 0.115 6.33 2.82 14.06
2/16/2021 12:30:00 AM -0.05 31.91 0.116 6.33 2.82 14.05
2/16/2021 12:45:00 AM -0.05 31.91 0.116 6.33 2.87 14.04
2/16/2021 1:00:00 AM -0.05 31.91 0.117 6.32 2.89 14.01
2/16/2021 1:15:00 AM -0.05 31.91 0.117 6.33 2.91 14.01
2/16/2021 1:30:00 AM -0.04 31.928 0.119 6.32 3.05 14
2/16/2021 1:45:00 AM -0.04 31.928 0.119 6.32 3.04 13.98
2/16/2021 2:00:00 AM -0.03 31.946 0.12 6.31 3.26 13.97
2/16/2021 2:15:00 AM -0.03 31.946 0.12 6.3 3.28 13.96
2/16/2021 2:30:00 AM -0.03 31.946 0.12 6.29 3.27 13.94
2/16/2021 2:45:00 AM -0.02 31.964 0.121 6.29 3.69 13.93
2/16/2021 3:00:00 AM -0.02 31.964 0.122 6.29 3.8 13.92
2/16/2021 3:15:00 AM -0.03 31.946 0.124 6.3 3.75 13.92
2/16/2021 3:30:00 AM -0.03 31.946 0.127 6.29 3.93 13.9
2/16/2021 3:45:00 AM -0.03 31.946 0.13 6.29 3.95 13.9
2/16/2021 4:00:00 AM -0.04 31.928 0.131 6.29 4.22 13.89
2/16/2021 4:15:00 AM -0.04 31.928 0.134 6.27 4.53 13.88
2/16/2021 4:30:00 AM -0.03 31.946 0.137 6.27 4.66 13.87
2/16/2021 4:45:00 AM -0.05 31.91 0.137 6.27 4.54 13.87
2/16/2021 5:00:00 AM -0.04 31.928 0.141 6.28 4.64 13.87
2/16/2021 5:15:00 AM -0.06 31.892 0.146 6.27 4.42 13.87
2/16/2021 5:30:00 AM -0.06 31.892 0.156 6.26 4.15 13.86
2/16/2021 5:45:00 AM -0.06 31.892 0.169 6.26 4.25 13.87
2/16/2021 6:00:00 AM -0.07 31.874 0.183 6.27 4.53 13.86
2/16/2021 6:15:00 AM -0.06 31.892 0.193 6.26 4.13 13.86
2/16/2021 6:30:00 AM -0.06 31.892 0.196 6.26 4.43 13.85
2/16/2021 6:45:00 AM -0.07 31.874 0.198 6.26 4.39 13.85
2/16/2021 7:00:00 AM -0.07 31.874 0.2 6.27 4.53 13.85
2/16/2021 7:15:00 AM -0.07 31.874 0.203 6.25 4.3 13.86
2/16/2021 7:30:00 AM -0.07 31.874 0.205 6.26 4.43 13.89
2/16/2021 7:45:00 AM -0.07 31.874 0.204 6.27 4.43 13.92
2/16/2021 8:00:00 AM -0.07 31.874 0.201 6.26 4.74 13.97
2/16/2021 8:15:00 AM -0.07 31.874 0.197 6.28 4.8 14.02
2/16/2021 8:30:00 AM -0.06 31.892 0.192 6.29 4.7 14.08
2/16/2021 8:45:00 AM -0.06 31.892 0.188 6.29 4.72 14.15
2/16/2021 9:00:00 AM -0.05 31.91 0.184 6.3 5.03 14.22
2/16/2021 9:15:00 AM -0.06 31.892 0.181 6.29 4.98 14.28
2/16/2021 9:30:00 AM -0.06 31.892 0.178 6.29 4.8 14.34
2/16/2021 9:45:00 AM -0.06 31.892 0.176 6.3 5.25 14.41
2/16/2021 10:00:00 AM -0.04 31.928 0.175 6.31 4.77 14.47
2/16/2021 10:15:00 AM -0.03 31.946 0.174 6.31 4.97 14.54
2/16/2021 10:30:00 AM -0.03 31.946 0.173 6.32 5.06 14.59
2/16/2021 10:45:00 AM -0.03 31.946 0.171 6.32 4.91 14.64
2/16/2021 11:00:00 AM -0.03 31.946 0.17 6.34 4.92 14.69
2/16/2021 11:15:00 AM -0.01 31.982 0.168 6.34 4.95 14.72
2/16/2021 11:30:00 AM 0 32 0.167 6.35 4.97 14.76
2/16/2021 11:45:00 AM 0.01 32.018 0.165 6.36 5.37 14.77
2/16/2021 12:00:00 PM -0.02 31.964 0.164 6.35 5.35 14.8
2/16/2021 12:15:00 PM -0.04 31.928 0.163 6.36 5.45 14.8
2/16/2021 12:30:00 PM -0.03 31.946 0.163 6.36 5.33 14.83
2/16/2021 12:45:00 PM -0.03 31.946 0.164 6.37 5.76 14.84
2/16/2021 1:00:00 PM -0.04 31.928 0.165 6.37 5.95 14.85
2/16/2021 1:15:00 PM -0.03 31.946 0.165 6.38 5.76 14.88
2/16/2021 1:30:00 PM -0.04 31.928 0.166 6.39 5.9 14.88
2/16/2021 1:45:00 PM -0.03 31.946 0.166 6.39 5.7 14.9
2/16/2021 2:00:00 PM -0.04 31.928 0.167 6.41 5.65 14.91
2/16/2021 2:15:00 PM -0.04 31.928 0.168 6.4 6.27 14.91
2/16/2021 2:30:00 PM -0.06 31.892 0.168 6.4 5.73 14.9
2/16/2021 2:45:00 PM -0.04 31.928 0.169 6.41 5.82 14.92
2/16/2021 3:00:00 PM -0.04 31.928 0.168 6.42 6.03 14.95
2/16/2021 3:15:00 PM -0.03 31.946 0.168 6.42 5.76 14.95
2/16/2021 3:30:00 PM -0.02 31.964 0.169 6.41 5.82 14.97
2/16/2021 3:45:00 PM -0.04 31.928 0.169 6.41 6.82 14.97
2/16/2021 4:00:00 PM -0.05 31.91 0.167 6.42 5.92 14.97
2/16/2021 4:15:00 PM -0.07 31.874 0.165 6.42 6.5 14.97
2/16/2021 4:30:00 PM -0.07 31.874 0.165 6.43 6.14 14.97
2/16/2021 4:45:00 PM -0.07 31.874 0.164 6.43 6.01 14.97
2/16/2021 5:00:00 PM -0.08 31.856 0.162 6.42 5.93 14.96
2/16/2021 5:15:00 PM -0.09 31.838 0.162 6.43 5.96 14.92
2/16/2021 5:30:00 PM -0.09 31.838 0.163 6.42 6.56 14.89
2/16/2021 5:45:00 PM -0.1 31.82 0.162 6.41 5.97 14.86
2/16/2021 6:00:00 PM -0.11 31.802 0.162 6.39 5.81 14.81
2/16/2021 6:15:00 PM -0.11 31.802 0.162 6.38 6.07 14.76
2/16/2021 6:30:00 PM -0.11 31.802 0.162 6.37 5.94 14.71
2/16/2021 6:45:00 PM -0.11 31.802 0.164 6.36 6.2 14.66
2/16/2021 7:00:00 PM -0.11 31.802 0.164 6.35 6.42 14.6
2/16/2021 7:15:00 PM -0.11 31.802 0.164 6.35 6.04 14.56
2/16/2021 7:30:00 PM -0.11 31.802 0.164 6.34 5.9 14.51
2/16/2021 7:45:00 PM -0.1 31.82 0.165 6.33 6.15 14.47
2/16/2021 8:00:00 PM -0.11 31.802 0.165 6.33 5.69 14.45
2/16/2021 8:15:00 PM -0.11 31.802 0.165 6.33 6.12 14.41
2/16/2021 8:30:00 PM -0.11 31.802 0.166 6.32 5.96 14.39
2/16/2021 8:45:00 PM -0.11 31.802 0.166 6.3 5.72 14.37
2/16/2021 9:00:00 PM -0.11 31.802 0.166 6.3 5.88 14.35
2/16/2021 9:15:00 PM -0.11 31.802 0.167 6.3 5.89 14.33
2/16/2021 9:30:00 PM -0.11 31.802 0.167 6.29 5.75 14.31
2/16/2021 9:45:00 PM -0.11 31.802 0.167 6.29 5.64 14.3
2/16/2021 10:00:00 PM -0.11 31.802 0.167 6.28 5.82 14.29
2/16/2021 10:15:00 PM -0.11 31.802 0.167 6.29 5.58 14.28
2/16/2021 10:30:00 PM -0.11 31.802 0.167 6.29 5.74 14.27
2/16/2021 10:45:00 PM -0.11 31.802 0.167 6.28 5.4 14.27
2/16/2021 11:00:00 PM -0.11 31.802 0.167 6.27 5.29 14.26
2/16/2021 11:15:00 PM -0.11 31.802 0.167 6.27 5.44 14.25
2/16/2021 11:30:00 PM -0.11 31.802 0.167 6.28 5.38 14.25
2/16/2021 11:45:00 PM -0.11 31.802 0.167 6.27 5.7 14.24
2/17/2021 12:00:00 AM -0.11 31.802 0.167 6.27 5.2 14.24
2/17/2021 12:15:00 AM -0.11 31.802 0.167 6.27 5.39 14.24
2/17/2021 12:30:00 AM -0.11 31.802 0.167 6.27 5.3 14.24
2/17/2021 12:45:00 AM -0.11 31.802 0.167 6.27 5.48 14.24
2/17/2021 1:00:00 AM -0.11 31.802 0.167 6.27 5.27 14.23
2/17/2021 1:15:00 AM -0.11 31.802 0.167 6.26 5.08 14.23
2/17/2021 1:30:00 AM -0.11 31.802 0.167 6.26 5.12 14.23
2/17/2021 1:45:00 AM -0.11 31.802 0.167 6.27 5.3 14.23
2/17/2021 2:00:00 AM -0.12 31.784 0.167 6.27 5.16 14.23
2/17/2021 2:15:00 AM -0.11 31.802 0.167 6.26 5.15 14.23
2/17/2021 2:30:00 AM -0.11 31.802 0.168 6.27 5.2 14.23
2/17/2021 2:45:00 AM -0.12 31.784 0.167 6.26 5.02 14.23
2/17/2021 3:00:00 AM -0.12 31.784 0.167 6.27 5.03 14.23
2/17/2021 3:15:00 AM -0.11 31.802 0.168 6.27 4.92 14.23
2/17/2021 3:30:00 AM -0.12 31.784 0.168 6.27 4.91 14.23
2/17/2021 3:45:00 AM -0.11 31.802 0.168 6.27 4.97 14.23
2/17/2021 4:00:00 AM -0.12 31.784 0.168 6.26 5.04 14.24
2/17/2021 4:15:00 AM -0.12 31.784 0.168 6.25 4.81 14.24
2/17/2021 4:30:00 AM -0.12 31.784 0.168 6.26 4.82 14.24
2/17/2021 4:45:00 AM -0.12 31.784 0.168 6.26 5.03 14.24
2/17/2021 5:00:00 AM -0.12 31.784 0.168 6.26 5.05 14.24
2/17/2021 5:15:00 AM -0.12 31.784 0.168 6.26 4.77 14.25
2/17/2021 5:30:00 AM -0.12 31.784 0.168 6.27 4.86 14.25
2/17/2021 5:45:00 AM -0.12 31.784 0.168 6.26 4.9 14.25
2/17/2021 6:00:00 AM -0.12 31.784 0.169 6.27 4.74 14.26
2/17/2021 6:15:00 AM -0.12 31.784 0.169 6.26 4.76 14.25
2/17/2021 6:30:00 AM -0.12 31.784 0.169 6.27 4.7 14.26
2/17/2021 6:45:00 AM -0.12 31.784 0.169 6.27 4.81 14.26
2/17/2021 7:00:00 AM -0.12 31.784 0.17 6.27 4.75 14.26
2/17/2021 7:15:00 AM -0.11 31.802 0.17 6.28 4.61 14.28
2/17/2021 7:30:00 AM -0.11 31.802 0.17 6.28 4.58 14.3
2/17/2021 7:45:00 AM -0.1 31.82 0.171 6.29 4.61 14.36
2/17/2021 8:00:00 AM -0.1 31.82 0.171 6.29 4.61 14.42
2/17/2021 8:15:00 AM -0.09 31.838 0.171 6.3 4.71 14.47
2/17/2021 8:30:00 AM -0.08 31.856 0.172 6.3 4.77 14.53
2/17/2021 8:45:00 AM -0.08 31.856 0.172 6.31 4.56 14.59
2/17/2021 9:00:00 AM -0.06 31.892 0.173 6.31 4.65 14.64
2/17/2021 9:15:00 AM -0.04 31.928 0.173 6.33 4.91 14.72
2/17/2021 9:30:00 AM -0.03 31.946 0.174 6.33 4.68 14.78
2/17/2021 9:45:00 AM -0.02 31.964 0.174 6.33 4.7 14.85
2/17/2021 10:00:00 AM -0.01 31.982 0.174 6.33 4.49 14.91
2/17/2021 10:15:00 AM -0.01 31.982 0.175 6.33 4.64 14.96
2/17/2021 10:30:00 AM 0 32 0.176 6.33 4.66 15.01
2/17/2021 10:45:00 AM 0.01 32.018 0.177 6.33 4.75 15.06
2/17/2021 11:00:00 AM 0.04 32.072 0.178 6.35 4.64 15.12
2/17/2021 11:15:00 AM 0.03 32.054 0.178 6.35 4.75 15.16
2/17/2021 11:30:00 AM 0.05 32.09 0.178 6.35 4.68 15.2
2/17/2021 11:45:00 AM 0.07 32.126 0.179 6.36 4.58 15.22
2/17/2021 12:00:00 PM 0.09 32.162 0.178 6.37 4.66 15.25
2/17/2021 12:15:00 PM 0.12 32.216 0.177 6.38 4.53 15.29
2/17/2021 12:30:00 PM 0.2 32.36 0.177 6.39 4.7 15.29
2/17/2021 12:45:00 PM 0.22 32.396 0.178 6.39 4.76 15.3
2/17/2021 1:00:00 PM 0.19 32.342 0.178 6.38 4.84 15.29
2/17/2021 1:15:00 PM 0.18 32.324 0.178 6.4 4.83 15.29
2/17/2021 1:30:00 PM 0.18 32.324 0.178 6.41 4.5 15.3
2/17/2021 1:45:00 PM 0.15 32.27 0.177 6.41 4.75 15.31
2/17/2021 2:00:00 PM 0.11 32.198 0.176 6.41 4.48 15.33
2/17/2021 2:15:00 PM 0.1 32.18 0.175 6.42 4.74 15.34
2/17/2021 2:30:00 PM 0.12 32.216 0.174 6.42 4.75 15.35
2/17/2021 2:45:00 PM 0.15 32.27 0.173 6.43 4.75 15.36
2/17/2021 3:00:00 PM 0.12 32.216 0.172 6.44 4.65 15.35
2/17/2021 3:15:00 PM 0.12 32.216 0.172 6.45 4.7 15.38
2/17/2021 3:30:00 PM 0.09 32.162 0.171 6.44 4.6 15.38
2/17/2021 3:45:00 PM 0.06 32.108 0.17 6.45 4.63 15.39
2/17/2021 4:00:00 PM 0.03 32.054 0.17 6.43 4.55 15.38
2/17/2021 4:15:00 PM 0.01 32.018 0.169 6.44 4.51 15.41
2/17/2021 4:30:00 PM -0.04 31.928 0.168 6.44 4.62 15.39
2/17/2021 4:45:00 PM -0.05 31.91 0.168 6.45 4.35 15.37
2/17/2021 5:00:00 PM -0.06 31.892 0.167 6.44 4.59 15.37
2/17/2021 5:15:00 PM -0.07 31.874 0.167 6.44 4.56 15.34
2/17/2021 5:30:00 PM -0.08 31.856 0.167 6.42 4.51 15.28
2/17/2021 5:45:00 PM -0.09 31.838 0.167 6.43 4.66 15.24
2/17/2021 6:00:00 PM -0.1 31.82 0.167 6.42 4.49 15.19
2/17/2021 6:15:00 PM -0.1 31.82 0.168 6.42 4.58 15.13
2/17/2021 6:30:00 PM -0.1 31.82 0.168 6.4 4.49 15.07
2/17/2021 6:45:00 PM -0.1 31.82 0.168 6.39 4.42 15.02
2/17/2021 7:00:00 PM -0.1 31.82 0.168 6.38 4.48 14.94
2/17/2021 7:15:00 PM -0.1 31.82 0.168 6.37 4.5 14.89
2/17/2021 7:30:00 PM -0.1 31.82 0.168 6.37 4.5 14.83
2/17/2021 7:45:00 PM -0.1 31.82 0.168 6.34 4.42 14.78
2/17/2021 8:00:00 PM -0.1 31.82 0.168 6.35 4.37 14.73
2/17/2021 8:15:00 PM -0.1 31.82 0.168 6.34 4.5 14.69
2/17/2021 8:30:00 PM -0.1 31.82 0.168 6.33 4.3 14.65
2/17/2021 8:45:00 PM -0.1 31.82 0.168 6.33 4.24 14.62
2/17/2021 9:00:00 PM -0.1 31.82 0.168 6.32 4.28 14.59
2/17/2021 9:15:00 PM -0.1 31.82 0.168 6.3 4.26 14.56
2/17/2021 9:30:00 PM -0.1 31.82 0.169 6.31 4.36 14.53
2/17/2021 9:45:00 PM -0.1 31.82 0.169 6.3 4.26 14.51
2/17/2021 10:00:00 PM -0.1 31.82 0.17 6.3 4.27 14.49
2/17/2021 10:15:00 PM -0.1 31.82 0.17 6.31 4.22 14.47
2/17/2021 10:30:00 PM -0.1 31.82 0.171 6.31 4.15 14.44
2/17/2021 10:45:00 PM -0.09 31.838 0.171 6.3 4.09 14.42
2/17/2021 11:00:00 PM -0.09 31.838 0.172 6.3 4.22 14.4
2/17/2021 11:15:00 PM -0.1 31.82 0.172 6.28 4.09 14.4
2/17/2021 11:30:00 PM -0.1 31.82 0.172 6.3 4.22 14.38
2/17/2021 11:45:00 PM -0.09 31.838 0.172 6.3 4.04 14.38
2/18/2021 12:00:00 AM -0.09 31.838 0.173 6.29 3.97 14.37
2/18/2021 12:15:00 AM -0.1 31.82 0.172 6.3 4.22 14.36
2/18/2021 12:30:00 AM -0.11 31.802 0.173 6.3 4.3 14.35
2/18/2021 12:45:00 AM -0.1 31.82 0.173 6.29 4.13 14.34
2/18/2021 1:00:00 AM -0.1 31.82 0.173 6.28 4.09 14.34
2/18/2021 1:15:00 AM -0.1 31.82 0.172 6.29 4.11 14.33
2/18/2021 1:30:00 AM -0.1 31.82 0.172 6.29 3.88 14.33
2/18/2021 1:45:00 AM -0.11 31.802 0.171 6.29 3.93 14.32
2/18/2021 2:00:00 AM -0.11 31.802 0.171 6.29 3.97 14.33
2/18/2021 2:15:00 AM -0.11 31.802 0.17 6.29 3.97 14.32
2/18/2021 2:30:00 AM -0.11 31.802 0.17 6.28 3.95 14.33
2/18/2021 2:45:00 AM -0.11 31.802 0.17 6.28 4.42 14.32
2/18/2021 3:00:00 AM -0.11 31.802 0.169 6.28 3.91 14.31
2/18/2021 3:15:00 AM -0.1 31.82 0.169 6.28 3.93 14.31
2/18/2021 3:30:00 AM -0.1 31.82 0.169 6.28 3.81 14.3
2/18/2021 3:45:00 AM -0.1 31.82 0.168 6.28 3.89 14.31
2/18/2021 4:00:00 AM -0.11 31.802 0.168 6.28 3.87 14.31
2/18/2021 4:15:00 AM -0.1 31.82 0.168 6.29 3.81 14.3
2/18/2021 4:30:00 AM -0.11 31.802 0.167 6.28 3.82 14.3
2/18/2021 4:45:00 AM -0.11 31.802 0.167 6.29 3.8 14.3
2/18/2021 5:00:00 AM -0.1 31.82 0.167 6.28 3.7 14.29
2/18/2021 5:15:00 AM -0.11 31.802 0.166 6.28 3.69 14.29
2/18/2021 5:30:00 AM -0.1 31.82 0.166 6.28 3.85 14.29
2/18/2021 5:45:00 AM -0.1 31.82 0.166 6.28 3.71 14.29
2/18/2021 6:00:00 AM -0.1 31.82 0.166 6.28 3.73 14.29
2/18/2021 6:15:00 AM -0.1 31.82 0.166 6.29 3.65 14.28
2/18/2021 6:30:00 AM -0.1 31.82 0.165 6.28 3.69 14.28
2/18/2021 6:45:00 AM -0.1 31.82 0.165 6.28 3.6 14.28
2/18/2021 7:00:00 AM -0.1 31.82 0.165 6.28 3.66 14.28
2/18/2021 7:15:00 AM -0.1 31.82 0.165 6.28 3.77 14.27
2/18/2021 7:30:00 AM -0.1 31.82 0.165 6.27 3.78 14.29
2/18/2021 7:45:00 AM -0.1 31.82 0.165 6.28 3.7 14.3
2/18/2021 8:00:00 AM -0.09 31.838 0.165 6.29 3.58 14.32
2/18/2021 8:15:00 AM -0.09 31.838 0.165 6.28 3.57 14.34
2/18/2021 8:30:00 AM -0.09 31.838 0.164 6.3 3.58 14.38
2/18/2021 8:45:00 AM -0.09 31.838 0.164 6.29 3.64 14.41
2/18/2021 9:00:00 AM -0.09 31.838 0.164 6.3 3.7 14.45
2/18/2021 9:15:00 AM -0.09 31.838 0.164 6.31 3.66 14.5
2/18/2021 9:30:00 AM -0.09 31.838 0.164 6.32 3.65 14.54
2/18/2021 9:45:00 AM -0.08 31.856 0.164 6.33 3.51 14.58
2/18/2021 10:00:00 AM -0.08 31.856 0.163 6.33 3.61 14.63
2/18/2021 10:15:00 AM -0.08 31.856 0.163 6.33 3.45 14.67
2/18/2021 10:30:00 AM -0.08 31.856 0.163 6.34 3.55 14.74
2/18/2021 10:45:00 AM -0.08 31.856 0.162 6.34 3.44 14.77
2/18/2021 11:00:00 AM -0.08 31.856 0.162 6.35 3.49 14.81
2/18/2021 11:15:00 AM -0.07 31.874 0.162 6.36 3.46 14.85
2/18/2021 11:30:00 AM -0.07 31.874 0.162 6.35 3.65 14.88
2/18/2021 11:45:00 AM -0.07 31.874 0.161 6.36 3.5 14.91
2/18/2021 12:00:00 PM -0.07 31.874 0.161 6.36 3.51 14.93
2/18/2021 12:15:00 PM -0.06 31.892 0.161 6.36 3.41 14.95
2/18/2021 12:30:00 PM -0.06 31.892 0.161 6.37 3.58 14.98
2/18/2021 12:45:00 PM -0.05 31.91 0.161 6.36 3.45 14.99
2/18/2021 1:00:00 PM -0.06 31.892 0.161 6.38 3.53 15.01
2/18/2021 1:15:00 PM -0.05 31.91 0.16 6.37 3.53 15.02
2/18/2021 1:30:00 PM -0.04 31.928 0.16 6.39 3.45 15.05
2/18/2021 1:45:00 PM -0.03 31.946 0.16 6.39 3.53 15.07
2/18/2021 2:00:00 PM -0.04 31.928 0.159 6.38 3.51 15.07
2/18/2021 2:15:00 PM -0.04 31.928 0.159 6.38 3.51 15.09
2/18/2021 2:30:00 PM -0.04 31.928 0.159 6.4 3.51 15.09
2/18/2021 2:45:00 PM -0.03 31.946 0.158 6.39 3.51 15.11
2/18/2021 3:00:00 PM -0.03 31.946 0.158 6.39 3.51 15.11
2/18/2021 3:15:00 PM -0.04 31.928 0.157 6.4 3.44 15.11
2/18/2021 3:30:00 PM -0.05 31.91 0.157 6.4 3.48 15.1
2/18/2021 3:45:00 PM -0.05 31.91 0.157 6.4 3.42 15.1
2/18/2021 4:00:00 PM -0.06 31.892 0.157 6.39 3.42 15.08
2/18/2021 4:15:00 PM -0.07 31.874 0.156 6.4 3.37 15.06
2/18/2021 4:30:00 PM -0.08 31.856 0.156 6.4 3.43 15.05
2/18/2021 4:45:00 PM -0.08 31.856 0.156 6.39 3.45 15.01
2/18/2021 5:00:00 PM -0.08 31.856 0.156 6.38 3.36 14.97
2/18/2021 5:15:00 PM -0.09 31.838 0.156 6.38 3.41 14.94
2/18/2021 5:30:00 PM -0.09 31.838 0.156 6.38 3.48 14.9
2/18/2021 5:45:00 PM -0.09 31.838 0.156 6.37 3.38 14.85
2/18/2021 6:00:00 PM -0.09 31.838 0.156 6.37 3.35 14.8
2/18/2021 6:15:00 PM -0.1 31.82 0.156 6.36 3.36 14.75
2/18/2021 6:30:00 PM -0.1 31.82 0.156 6.35 3.39 14.71
2/18/2021 6:45:00 PM -0.1 31.82 0.156 6.34 3.43 14.66
2/18/2021 7:00:00 PM -0.11 31.802 0.156 6.35 3.41 14.63
2/18/2021 7:15:00 PM -0.1 31.82 0.156 6.34 3.43 14.58
2/18/2021 7:30:00 PM -0.1 31.82 0.156 6.34 3.41 14.55
2/18/2021 7:45:00 PM -0.1 31.82 0.156 6.34 3.4 14.51
2/18/2021 8:00:00 PM -0.1 31.82 0.156 6.33 3.37 14.48
2/18/2021 8:15:00 PM -0.1 31.82 0.156 6.32 3.4 14.45
2/18/2021 8:30:00 PM -0.1 31.82 0.157 6.31 3.39 14.43
2/18/2021 8:45:00 PM -0.1 31.82 0.156 6.32 3.33 14.41
2/18/2021 9:00:00 PM -0.1 31.82 0.157 6.31 3.4 14.38
2/18/2021 9:15:00 PM -0.1 31.82 0.156 6.31 3.39 14.37
2/18/2021 9:30:00 PM -0.1 31.82 0.157 6.31 3.43 14.35
2/18/2021 9:45:00 PM -0.1 31.82 0.157 6.31 3.42 14.34
2/18/2021 10:00:00 PM -0.1 31.82 0.156 6.3 3.45 14.33
2/18/2021 10:15:00 PM -0.1 31.82 0.156 6.3 3.4 14.31
2/18/2021 10:30:00 PM -0.1 31.82 0.156 6.31 3.33 14.3
2/18/2021 10:45:00 PM -0.1 31.82 0.156 6.29 3.38 14.29
2/18/2021 11:00:00 PM -0.1 31.82 0.156 6.3 3.33 14.28
2/18/2021 11:15:00 PM -0.1 31.82 0.156 6.29 3.18 14.28
2/18/2021 11:30:00 PM -0.1 31.82 0.155 6.3 3.25 14.27
2/18/2021 11:45:00 PM -0.1 31.82 0.155 6.29 3.3 14.26
2/19/2021 12:00:00 AM -0.1 31.82 0.155 6.29 3.33 14.25
2/19/2021 12:15:00 AM -0.1 31.82 0.154 6.3 3.34 14.25
2/19/2021 12:30:00 AM -0.1 31.82 0.154 6.29 3.25 14.24
2/19/2021 12:45:00 AM -0.1 31.82 0.154 6.29 3.34 14.24
2/19/2021 1:00:00 AM -0.09 31.838 0.154 6.29 3.22 14.23
2/19/2021 1:15:00 AM -0.09 31.838 0.153 6.29 3.23 14.22
2/19/2021 1:30:00 AM -0.09 31.838 0.153 6.29 3.23 14.22
2/19/2021 1:45:00 AM -0.1 31.82 0.153 6.29 3.33 14.22
2/19/2021 2:00:00 AM -0.1 31.82 0.152 6.29 3.34 14.21
2/19/2021 2:15:00 AM -0.1 31.82 0.152 6.29 3.34 14.21
2/19/2021 2:30:00 AM -0.09 31.838 0.152 6.28 3.3 14.21
2/19/2021 2:45:00 AM -0.09 31.838 0.151 6.28 3.28 14.2
2/19/2021 3:00:00 AM -0.09 31.838 0.151 6.29 3.25 14.2
2/19/2021 3:15:00 AM -0.1 31.82 0.151 6.28 3.25 14.2
2/19/2021 3:30:00 AM -0.09 31.838 0.151 6.28 3.28 14.2
2/19/2021 3:45:00 AM -0.09 31.838 0.15 6.28 3.29 14.19
2/19/2021 4:00:00 AM -0.09 31.838 0.15 6.28 3.25 14.19
2/19/2021 4:15:00 AM -0.09 31.838 0.15 6.28 3.26 14.19
2/19/2021 4:30:00 AM -0.09 31.838 0.15 6.28 3.28 14.19
2/19/2021 4:45:00 AM -0.09 31.838 0.149 6.28 3.25 14.18
2/19/2021 5:00:00 AM -0.09 31.838 0.149 6.27 3.25 14.18
2/19/2021 5:15:00 AM -0.09 31.838 0.149 6.27 3.29 14.18
2/19/2021 5:30:00 AM -0.09 31.838 0.149 6.28 3.18 14.17
2/19/2021 5:45:00 AM -0.09 31.838 0.149 6.28 3.28 14.17
2/19/2021 6:00:00 AM -0.09 31.838 0.149 6.27 3.21 14.17
2/19/2021 6:15:00 AM -0.09 31.838 0.149 6.28 3.2 14.17
2/19/2021 6:30:00 AM -0.09 31.838 0.148 6.29 3.26 14.17
2/19/2021 6:45:00 AM -0.09 31.838 0.148 6.28 3.25 14.16
2/19/2021 7:00:00 AM -0.09 31.838 0.148 6.28 3.23 14.16
2/19/2021 7:15:00 AM -0.09 31.838 0.148 6.28 3.46 14.17
2/19/2021 7:30:00 AM -0.09 31.838 0.148 6.28 3.28 14.18
2/19/2021 7:45:00 AM -0.09 31.838 0.148 6.29 3.27 14.2
2/19/2021 8:00:00 AM -0.09 31.838 0.148 6.29 3.36 14.22
2/19/2021 8:15:00 AM -0.09 31.838 0.148 6.31 3.21 14.26
2/19/2021 8:30:00 AM -0.08 31.856 0.147 6.31 3.19 14.3
2/19/2021 8:45:00 AM -0.08 31.856 0.147 6.31 3.15 14.34
2/19/2021 9:00:00 AM -0.07 31.874 0.147 6.32 3.12 14.38
2/19/2021 9:15:00 AM -0.07 31.874 0.147 6.32 3.14 14.44
2/19/2021 9:30:00 AM -0.07 31.874 0.148 6.32 3.16 14.48
2/19/2021 9:45:00 AM -0.06 31.892 0.148 6.33 3.19 14.53
2/19/2021 10:00:00 AM -0.04 31.928 0.147 6.33 3.02 14.58
2/19/2021 10:15:00 AM -0.02 31.964 0.147 6.33 3.16 14.63
2/19/2021 10:30:00 AM -0.02 31.964 0.147 6.34 3.22 14.67
2/19/2021 10:45:00 AM -0.01 31.982 0.147 6.33 3.15 14.71
2/19/2021 11:00:00 AM 0 32 0.147 6.35 3.18 14.75
2/19/2021 11:15:00 AM 0.03 32.054 0.147 6.35 3.15 14.77
2/19/2021 11:30:00 AM 0.05 32.09 0.146 6.37 3.15 14.8
2/19/2021 11:45:00 AM 0.07 32.126 0.146 6.37 3.14 14.84
2/19/2021 12:00:00 PM 0.05 32.09 0.146 6.37 3.19 14.87
2/19/2021 12:15:00 PM 0.04 32.072 0.146 6.37 3.2 14.88
2/19/2021 12:30:00 PM 0.03 32.054 0.146 6.38 3.23 14.89
2/19/2021 12:45:00 PM 0.03 32.054 0.145 6.39 3.18 14.91
2/19/2021 1:00:00 PM 0.04 32.072 0.145 6.4 3.18 14.92
2/19/2021 1:15:00 PM 0.07 32.126 0.145 6.4 3.09 14.93
2/19/2021 1:30:00 PM 0.06 32.108 0.145 6.4 3.21 14.93
2/19/2021 1:45:00 PM 0.04 32.072 0.145 6.4 3.19 14.95
2/19/2021 2:00:00 PM 0.04 32.072 0.144 6.42 3.13 14.97
2/19/2021 2:15:00 PM 0.04 32.072 0.145 6.41 3.24 14.96
2/19/2021 2:30:00 PM 0.03 32.054 0.145 6.42 3.11 14.96
2/19/2021 2:45:00 PM 0.02 32.036 0.144 6.41 3.08 14.97
2/19/2021 3:00:00 PM 0.02 32.036 0.145 6.41 3.14 14.97
2/19/2021 3:15:00 PM 0.01 32.018 0.145 6.42 3.16 14.96
2/19/2021 3:30:00 PM 0.01 32.018 0.144 6.43 3.08 14.96
2/19/2021 3:45:00 PM 0 32 0.145 6.41 3.19 14.97
2/19/2021 4:00:00 PM -0.01 31.982 0.145 6.41 3.08 14.93
2/19/2021 4:15:00 PM -0.02 31.964 0.145 6.4 3.17 14.93
2/19/2021 4:30:00 PM -0.03 31.946 0.145 6.4 3.2 14.9
2/19/2021 4:45:00 PM -0.04 31.928 0.145 6.41 3.16 14.87
2/19/2021 5:00:00 PM -0.03 31.946 0.145 6.4 3.16 14.84
2/19/2021 5:15:00 PM -0.04 31.928 0.146 6.4 3.06 14.79
2/19/2021 5:30:00 PM -0.05 31.91 0.146 6.39 3.17 14.76
2/19/2021 5:45:00 PM -0.05 31.91 0.147 6.37 3.11 14.71
2/19/2021 6:00:00 PM -0.05 31.91 0.147 6.39 3.15 14.66
2/19/2021 6:15:00 PM -0.06 31.892 0.147 6.38 3.14 14.61
2/19/2021 6:30:00 PM -0.06 31.892 0.147 6.37 3.12 14.56
2/19/2021 6:45:00 PM -0.06 31.892 0.147 6.36 3.13 14.53
2/19/2021 7:00:00 PM -0.06 31.892 0.148 6.34 3.09 14.48
2/19/2021 7:15:00 PM -0.06 31.892 0.147 6.34 3.11 14.45
2/19/2021 7:30:00 PM -0.06 31.892 0.147 6.33 3.11 14.41
2/19/2021 7:45:00 PM -0.07 31.874 0.147 6.33 3.21 14.38
2/19/2021 8:00:00 PM -0.07 31.874 0.147 6.32 3.13 14.35
2/19/2021 8:15:00 PM -0.07 31.874 0.147 6.31 3.21 14.33
2/19/2021 8:30:00 PM -0.07 31.874 0.147 6.31 3.21 14.31
2/19/2021 8:45:00 PM -0.07 31.874 0.147 6.3 3.13 14.29
2/19/2021 9:00:00 PM -0.07 31.874 0.147 6.31 3.11 14.28
2/19/2021 9:15:00 PM -0.07 31.874 0.147 6.32 3.17 14.27
2/19/2021 9:30:00 PM -0.08 31.856 0.147 6.31 3.1 14.27
2/19/2021 9:45:00 PM -0.08 31.856 0.147 6.31 3.16 14.26
2/19/2021 10:00:00 PM -0.08 31.856 0.147 6.31 3.1 14.25
2/19/2021 10:15:00 PM -0.08 31.856 0.147 6.32 3.19 14.24
2/19/2021 10:30:00 PM -0.08 31.856 0.147 6.32 3.12 14.24
2/19/2021 10:45:00 PM -0.08 31.856 0.147 6.29 3.09 14.23
2/19/2021 11:00:00 PM -0.09 31.838 0.147 6.31 3.11 14.23
2/19/2021 11:15:00 PM -0.08 31.856 0.147 6.3 3.12 14.22
2/19/2021 11:30:00 PM -0.09 31.838 0.146 6.31 3.05 14.22
2/19/2021 11:45:00 PM -0.09 31.838 0.146 6.3 3.06 14.23
2/20/2021 12:00:00 AM -0.1 31.82 0.146 6.3 2.97 14.22
2/20/2021 12:15:00 AM -0.1 31.82 0.146 6.3 3.12 14.23
2/20/2021 12:30:00 AM -0.1 31.82 0.146 6.3 3.08 14.22
2/20/2021 12:45:00 AM -0.1 31.82 0.146 6.3 3.12 14.22
2/20/2021 1:00:00 AM -0.1 31.82 0.146 6.29 3.15 14.22
2/20/2021 1:15:00 AM -0.1 31.82 0.146 6.29 3.09 14.23
2/20/2021 1:30:00 AM -0.11 31.802 0.146 6.3 3.03 14.23
2/20/2021 1:45:00 AM -0.11 31.802 0.145 6.29 2.97 14.23
2/20/2021 2:00:00 AM -0.11 31.802 0.145 6.29 3.07 14.24
2/20/2021 2:15:00 AM -0.11 31.802 0.145 6.29 3.1 14.24
2/20/2021 2:30:00 AM -0.11 31.802 0.145 6.28 3.06 14.24
2/20/2021 2:45:00 AM -0.11 31.802 0.145 6.3 3.01 14.24
2/20/2021 3:00:00 AM -0.11 31.802 0.145 6.29 3.06 14.24
2/20/2021 3:15:00 AM -0.11 31.802 0.145 6.29 2.97 14.24
2/20/2021 3:30:00 AM -0.12 31.784 0.145 6.29 2.98 14.24
2/20/2021 3:45:00 AM -0.12 31.784 0.145 6.29 2.99 14.25
2/20/2021 4:00:00 AM -0.11 31.802 0.145 6.3 3.03 14.25
2/20/2021 4:15:00 AM -0.11 31.802 0.145 6.29 3.05 14.24
2/20/2021 4:30:00 AM -0.11 31.802 0.145 6.29 2.94 14.24
2/20/2021 4:45:00 AM -0.11 31.802 0.145 6.29 2.99 14.24
2/20/2021 5:00:00 AM -0.11 31.802 0.145 6.3 2.98 14.24
2/20/2021 5:15:00 AM -0.11 31.802 0.144 6.3 3.07 14.24
2/20/2021 5:30:00 AM -0.11 31.802 0.143 6.29 3.02 14.24
2/20/2021 5:45:00 AM -0.11 31.802 0.143 6.29 3.06 14.24
2/20/2021 6:00:00 AM -0.12 31.784 0.143 6.27 3.06 14.23
2/20/2021 6:15:00 AM -0.12 31.784 0.143 6.3 3.03 14.23
2/20/2021 6:30:00 AM -0.11 31.802 0.144 6.29 3.03 14.23
2/20/2021 6:45:00 AM -0.11 31.802 0.144 6.29 3.05 14.23
2/20/2021 7:00:00 AM -0.11 31.802 0.144 6.31 3.03 14.24
2/20/2021 7:15:00 AM -0.11 31.802 0.144 6.3 2.95 14.25
2/20/2021 7:30:00 AM -0.1 31.82 0.144 6.3 2.96 14.28
2/20/2021 7:45:00 AM -0.1 31.82 0.144 6.31 2.96 14.33
2/20/2021 8:00:00 AM -0.09 31.838 0.144 6.31 3.05 14.38
2/20/2021 8:15:00 AM -0.08 31.856 0.144 6.31 2.99 14.44
2/20/2021 8:30:00 AM -0.08 31.856 0.145 6.32 3.04 14.51
2/20/2021 8:45:00 AM -0.07 31.874 0.145 6.33 2.99 14.56
2/20/2021 9:00:00 AM -0.05 31.91 0.145 6.34 3 14.63
2/20/2021 9:15:00 AM -0.05 31.91 0.145 6.35 2.99 14.68
2/20/2021 9:30:00 AM -0.03 31.946 0.145 6.35 2.95 14.75
2/20/2021 9:45:00 AM -0.01 31.982 0.146 6.35 3.02 14.8
2/20/2021 10:00:00 AM 0.04 32.072 0.146 6.37 3.02 14.85
2/20/2021 10:15:00 AM 0.07 32.126 0.146 6.37 2.94 14.89
2/20/2021 10:30:00 AM 0.11 32.198 0.147 6.37 2.99 14.93
2/20/2021 10:45:00 AM 0.16 32.288 0.146 6.38 3.07 14.95
2/20/2021 11:00:00 AM 0.21 32.378 0.146 6.39 2.98 14.98
2/20/2021 11:15:00 AM 0.25 32.45 0.145 6.39 3.07 15.02
2/20/2021 11:30:00 AM 0.26 32.468 0.145 6.39 3.01 15.03
2/20/2021 11:45:00 AM 0.24 32.432 0.144 6.4 2.99 15.04
2/20/2021 12:00:00 PM 0.16 32.288 0.144 6.4 2.98 15.06
2/20/2021 12:15:00 PM 0.1 32.18 0.144 6.4 3 15.06
2/20/2021 12:30:00 PM 0.08 32.144 0.144 6.41 3.07 15.08
2/20/2021 12:45:00 PM 0.07 32.126 0.144 6.41 2.95 15.08
2/20/2021 1:00:00 PM 0.05 32.09 0.143 6.41 3.06 15.1
2/20/2021 1:15:00 PM 0.05 32.09 0.143 6.41 3.05 15.11
2/20/2021 1:30:00 PM 0.1 32.18 0.143 6.43 3.05 15.14
2/20/2021 1:45:00 PM 0.13 32.234 0.143 6.42 3.04 15.14
2/20/2021 2:00:00 PM 0.13 32.234 0.142 6.43 3.09 15.16
2/20/2021 2:15:00 PM 0.16 32.288 0.141 6.44 3 15.18
2/20/2021 2:30:00 PM 0.13 32.234 0.141 6.44 3.12 15.18
2/20/2021 2:45:00 PM 0.08 32.144 0.141 6.45 3.04 15.2
2/20/2021 3:00:00 PM 0.06 32.108 0.141 6.44 3.04 15.21
2/20/2021 3:15:00 PM 0.07 32.126 0.14 6.45 3 15.22
2/20/2021 3:30:00 PM 0.06 32.108 0.14 6.45 3.05 15.21
2/20/2021 3:45:00 PM 0.08 32.144 0.14 6.46 3.04 15.23
2/20/2021 4:00:00 PM 0.07 32.126 0.14 6.45 3.04 15.23
2/20/2021 4:15:00 PM 0.04 32.072 0.14 6.45 3.05 15.23
2/20/2021 4:30:00 PM 0.01 32.018 0.139 6.46 3.01 15.23
2/20/2021 4:45:00 PM -0.01 31.982 0.139 6.45 3.02 15.22
2/20/2021 5:00:00 PM -0.04 31.928 0.139 6.46 3.03 15.21
2/20/2021 5:15:00 PM -0.06 31.892 0.139 6.45 3 15.18
2/20/2021 5:30:00 PM -0.08 31.856 0.139 6.44 3.05 15.13
2/20/2021 5:45:00 PM -0.1 31.82 0.139 6.43 3.07 15.08
2/20/2021 6:00:00 PM -0.11 31.802 0.139 6.42 3.04 15.03
2/20/2021 6:15:00 PM -0.11 31.802 0.14 6.41 3.03 14.97
2/20/2021 6:30:00 PM -0.12 31.784 0.139 6.41 3.01 14.92
2/20/2021 6:45:00 PM -0.12 31.784 0.14 6.39 3.02 14.87
2/20/2021 7:00:00 PM -0.12 31.784 0.14 6.38 2.99 14.82
2/20/2021 7:15:00 PM -0.12 31.784 0.14 6.39 3 14.77
2/20/2021 7:30:00 PM -0.12 31.784 0.14 6.38 3.01 14.73
2/20/2021 7:45:00 PM -0.12 31.784 0.141 6.38 3.04 14.68
2/20/2021 8:00:00 PM -0.12 31.784 0.141 6.37 3.01 14.64
2/20/2021 8:15:00 PM -0.11 31.802 0.141 6.35 3 14.6
2/20/2021 8:30:00 PM -0.12 31.784 0.142 6.35 3.02 14.57
2/20/2021 8:45:00 PM -0.11 31.802 0.142 6.35 3.01 14.55
2/20/2021 9:00:00 PM -0.11 31.802 0.142 6.34 3.04 14.52
2/20/2021 9:15:00 PM -0.11 31.802 0.143 6.34 3.05 14.5
2/20/2021 9:30:00 PM -0.11 31.802 0.143 6.34 2.93 14.48
2/20/2021 9:45:00 PM -0.11 31.802 0.143 6.33 2.91 14.47
2/20/2021 10:00:00 PM -0.11 31.802 0.144 6.34 3 14.46
2/20/2021 10:15:00 PM -0.11 31.802 0.144 6.33 3.05 14.44
2/20/2021 10:30:00 PM -0.12 31.784 0.144 6.33 3.02 14.44
2/20/2021 10:45:00 PM -0.12 31.784 0.144 6.33 2.95 14.42
2/20/2021 11:00:00 PM -0.12 31.784 0.144 6.32 2.91 14.42
2/20/2021 11:15:00 PM -0.12 31.784 0.144 6.32 3.06 14.41
2/20/2021 11:30:00 PM -0.12 31.784 0.144 6.33 2.95 14.41
2/20/2021 11:45:00 PM -0.12 31.784 0.144 6.31 2.93 14.4
2/21/2021 12:00:00 AM -0.12 31.784 0.143 6.32 2.92 14.39
2/21/2021 12:15:00 AM -0.12 31.784 0.143 6.33 2.91 14.39
2/21/2021 12:30:00 AM -0.12 31.784 0.143 6.33 2.94 14.39
2/21/2021 12:45:00 AM -0.12 31.784 0.143 6.33 2.95 14.39
2/21/2021 1:00:00 AM -0.11 31.802 0.143 6.33 2.92 14.38
2/21/2021 1:15:00 AM -0.12 31.784 0.143 6.33 2.89 14.38
2/21/2021 1:30:00 AM -0.12 31.784 0.143 6.32 2.95 14.38
2/21/2021 1:45:00 AM -0.12 31.784 0.144 6.32 2.89 14.38
2/21/2021 2:00:00 AM -0.12 31.784 0.144 6.33 2.93 14.37
2/21/2021 2:15:00 AM -0.12 31.784 0.144 6.33 2.92 14.37
2/21/2021 2:30:00 AM -0.12 31.784 0.144 6.33 2.88 14.38
2/21/2021 2:45:00 AM -0.12 31.784 0.144 6.32 2.82 14.36
2/21/2021 3:00:00 AM -0.12 31.784 0.144 6.33 2.88 14.38
2/21/2021 3:15:00 AM -0.11 31.802 0.144 6.32 2.9 14.35
2/21/2021 3:30:00 AM -0.12 31.784 0.144 6.32 2.95 14.36
2/21/2021 3:45:00 AM -0.11 31.802 0.145 6.32 2.97 14.34
2/21/2021 4:00:00 AM -0.11 31.802 0.145 6.32 2.9 14.33
2/21/2021 4:15:00 AM -0.12 31.784 0.145 6.32 2.91 14.34
2/21/2021 4:30:00 AM -0.12 31.784 0.145 6.32 2.86 14.34
2/21/2021 4:45:00 AM -0.12 31.784 0.145 6.32 2.8 14.34
2/21/2021 5:00:00 AM -0.12 31.784 0.145 6.31 2.88 14.34
2/21/2021 5:15:00 AM -0.12 31.784 0.145 6.32 2.89 14.34
2/21/2021 5:30:00 AM -0.11 31.802 0.145 6.31 2.88 14.33
2/21/2021 5:45:00 AM -0.12 31.784 0.146 6.31 2.85 14.35
2/21/2021 6:00:00 AM -0.12 31.784 0.146 6.3 2.82 14.34
2/21/2021 6:15:00 AM -0.12 31.784 0.146 6.31 2.83 14.35
2/21/2021 6:30:00 AM -0.12 31.784 0.146 6.31 2.82 14.36
2/21/2021 6:45:00 AM -0.12 31.784 0.146 6.3 2.84 14.35
2/21/2021 7:00:00 AM -0.12 31.784 0.146 6.3 2.88 14.36
2/21/2021 7:15:00 AM -0.12 31.784 0.147 6.3 2.92 14.38
2/21/2021 7:30:00 AM -0.11 31.802 0.147 6.3 2.9 14.42
2/21/2021 7:45:00 AM -0.1 31.82 0.147 6.3 2.92 14.46
2/21/2021 8:00:00 AM -0.1 31.82 0.147 6.3 2.96 14.52
2/21/2021 8:15:00 AM -0.08 31.856 0.148 6.3 2.89 14.59
2/21/2021 8:30:00 AM -0.06 31.892 0.148 6.3 3.01 14.65
2/21/2021 8:45:00 AM -0.05 31.91 0.148 6.31 2.9 14.71
2/21/2021 9:00:00 AM -0.03 31.946 0.148 6.3 2.89 14.76
2/21/2021 9:15:00 AM -0.01 31.982 0.149 6.28 2.9 14.81
2/21/2021 9:30:00 AM 0 32 0.149 6.27 2.92 14.85
2/21/2021 9:45:00 AM 0.03 32.054 0.149 6.28 2.95 14.89
2/21/2021 10:00:00 AM 0.07 32.126 0.15 6.29 2.97 14.93
2/21/2021 10:15:00 AM 0.1 32.18 0.15 6.31 3.07 14.96
2/21/2021 10:30:00 AM 0.13 32.234 0.151 6.32 3.1 15
2/21/2021 10:45:00 AM 0.16 32.288 0.151 6.35 2.98 15.06
2/21/2021 11:00:00 AM 0.13 32.234 0.15 6.36 2.92 15.1
2/21/2021 11:15:00 AM 0.12 32.216 0.15 6.39 2.98 15.18
2/21/2021 11:30:00 AM 0.13 32.234 0.15 6.4 3.04 15.2
2/21/2021 11:45:00 AM 0.15 32.27 0.15 6.4 2.99 15.22
2/21/2021 12:00:00 PM 0.18 32.324 0.151 6.4 3.04 15.24
2/21/2021 12:15:00 PM 0.21 32.378 0.151 6.41 3.03 15.27
2/21/2021 12:30:00 PM 0.25 32.45 0.151 6.41 3.04 15.27
2/21/2021 12:45:00 PM 0.28 32.504 0.151 6.42 3.02 15.29
2/21/2021 1:00:00 PM 0.29 32.522 0.15 6.43 2.96 15.3
2/21/2021 1:15:00 PM 0.31 32.558 0.149 6.44 3.01 15.3
2/21/2021 1:30:00 PM 0.33 32.594 0.149 6.44 2.93 15.3
2/21/2021 1:45:00 PM 0.33 32.594 0.148 6.45 2.98 15.31
2/21/2021 2:00:00 PM 0.34 32.612 0.147 6.46 3.11 15.3
2/21/2021 2:15:00 PM 0.33 32.594 0.147 6.45 3.07 15.32
2/21/2021 2:30:00 PM 0.32 32.576 0.146 6.46 2.96 15.32
2/21/2021 2:45:00 PM 0.3 32.54 0.145 6.46 2.99 15.33
2/21/2021 3:00:00 PM 0.28 32.504 0.145 6.46 2.95 15.31
2/21/2021 3:15:00 PM 0.24 32.432 0.144 6.47 3.05 15.3
2/21/2021 3:30:00 PM 0.21 32.378 0.143 6.47 2.97 15.32
2/21/2021 3:45:00 PM 0.17 32.306 0.143 6.47 3.06 15.32
2/21/2021 4:00:00 PM 0.14 32.252 0.142 6.47 3.05 15.31
2/21/2021 4:15:00 PM 0.09 32.162 0.142 6.48 3.02 15.31
2/21/2021 4:30:00 PM 0.05 32.09 0.141 6.48 2.97 15.31
2/21/2021 4:45:00 PM 0.01 32.018 0.141 6.47 3.12 15.32
2/21/2021 5:00:00 PM -0.02 31.964 0.14 6.48 3.14 15.29
2/21/2021 5:15:00 PM -0.05 31.91 0.139 6.47 3.21 15.25
2/21/2021 5:30:00 PM -0.07 31.874 0.138 6.47 3.19 15.23
2/21/2021 5:45:00 PM -0.09 31.838 0.138 6.46 3.24 15.2
2/21/2021 6:00:00 PM -0.1 31.82 0.138 6.46 3.26 15.15
2/21/2021 6:15:00 PM -0.1 31.82 0.138 6.44 3.27 15.09
2/21/2021 6:30:00 PM -0.11 31.802 0.139 6.44 3.26 15.04
2/21/2021 6:45:00 PM -0.12 31.784 0.139 6.42 3.28 15
2/21/2021 7:00:00 PM -0.12 31.784 0.14 6.41 3.18 14.94
2/21/2021 7:15:00 PM -0.11 31.802 0.14 6.39 3.24 14.88
2/21/2021 7:30:00 PM -0.12 31.784 0.14 6.39 3.21 14.83
2/21/2021 7:45:00 PM -0.11 31.802 0.139 6.38 3.21 14.79
2/21/2021 8:00:00 PM -0.11 31.802 0.139 6.38 3.28 14.75
2/21/2021 8:15:00 PM -0.11 31.802 0.138 6.37 3.11 14.71
2/21/2021 8:30:00 PM -0.11 31.802 0.138 6.36 3.22 14.68
2/21/2021 8:45:00 PM -0.11 31.802 0.138 6.35 3.32 14.64
2/21/2021 9:00:00 PM -0.11 31.802 0.138 6.35 3.36 14.61
2/21/2021 9:15:00 PM -0.11 31.802 0.139 6.34 3.17 14.59
2/21/2021 9:30:00 PM -0.11 31.802 0.139 6.34 3.13 14.57
2/21/2021 9:45:00 PM -0.11 31.802 0.139 6.34 3.34 14.54
2/21/2021 10:00:00 PM -0.11 31.802 0.139 6.33 3.23 14.52
2/21/2021 10:15:00 PM -0.11 31.802 0.14 6.33 3.16 14.49
2/21/2021 10:30:00 PM -0.1 31.82 0.14 6.32 3.27 14.47
2/21/2021 10:45:00 PM -0.11 31.802 0.141 6.33 3.17 14.45
2/21/2021 11:00:00 PM -0.11 31.802 0.14 6.31 3.16 14.44
2/21/2021 11:15:00 PM -0.1 31.82 0.141 6.31 3.17 14.41
2/21/2021 11:30:00 PM -0.1 31.82 0.141 6.32 3.22 14.4
2/21/2021 11:45:00 PM -0.1 31.82 0.14 6.32 3.07 14.38
2/22/2021 12:00:00 AM -0.1 31.82 0.141 6.32 3.24 14.36
2/22/2021 12:15:00 AM -0.1 31.82 0.141 6.32 3.18 14.35
2/22/2021 12:30:00 AM -0.09 31.838 0.141 6.32 3.18 14.33
2/22/2021 12:45:00 AM -0.09 31.838 0.141 6.31 3.18 14.33
2/22/2021 1:00:00 AM -0.09 31.838 0.141 6.32 3.19 14.31
2/22/2021 1:15:00 AM -0.09 31.838 0.141 6.31 3.21 14.3
2/22/2021 1:30:00 AM -0.09 31.838 0.141 6.31 3.14 14.29
2/22/2021 1:45:00 AM -0.09 31.838 0.141 6.31 3.2 14.28
2/22/2021 2:00:00 AM -0.09 31.838 0.142 6.32 3.18 14.27
2/22/2021 2:15:00 AM -0.09 31.838 0.142 6.31 3.21 14.27
2/22/2021 2:30:00 AM -0.09 31.838 0.142 6.32 3.1 14.26
2/22/2021 2:45:00 AM -0.09 31.838 0.142 6.3 3.11 14.25
2/22/2021 3:00:00 AM -0.1 31.82 0.143 6.3 3.16 14.24
2/22/2021 3:15:00 AM -0.09 31.838 0.142 6.32 3.03 14.24
2/22/2021 3:30:00 AM -0.09 31.838 0.143 6.32 3.13 14.23
2/22/2021 3:45:00 AM -0.09 31.838 0.143 6.32 3.09 14.22
2/22/2021 4:00:00 AM -0.09 31.838 0.143 6.31 3.05 14.21
2/22/2021 4:15:00 AM -0.09 31.838 0.143 6.31 3.09 14.21
2/22/2021 4:30:00 AM -0.09 31.838 0.143 6.32 3.12 14.2
2/22/2021 4:45:00 AM -0.09 31.838 0.143 6.31 3.09 14.2
2/22/2021 5:00:00 AM -0.08 31.856 0.142 6.31 3.01 14.2
2/22/2021 5:15:00 AM -0.08 31.856 0.142 6.31 3.05 14.19
2/22/2021 5:30:00 AM -0.08 31.856 0.142 6.31 3.06 14.18
2/22/2021 5:45:00 AM -0.08 31.856 0.142 6.3 3.1 14.18
2/22/2021 6:00:00 AM -0.08 31.856 0.142 6.31 3.06 14.17
2/22/2021 6:15:00 AM -0.08 31.856 0.142 6.31 3.08 14.16
2/22/2021 6:30:00 AM -0.08 31.856 0.141 6.32 3.07 14.16
2/22/2021 6:45:00 AM -0.08 31.856 0.141 6.32 3.04 14.15
2/22/2021 7:00:00 AM -0.09 31.838 0.14 6.31 3.12 14.15
2/22/2021 7:15:00 AM -0.1 31.82 0.14 6.3 3.05 14.15
2/22/2021 7:30:00 AM -0.11 31.802 0.139 6.31 3.06 14.16
2/22/2021 7:45:00 AM -0.11 31.802 0.139 6.32 3.06 14.17
2/22/2021 8:00:00 AM -0.11 31.802 0.138 6.33 3.12 14.18
2/22/2021 8:15:00 AM -0.11 31.802 0.138 6.32 3.04 14.19
2/22/2021 8:30:00 AM -0.11 31.802 0.138 6.33 2.98 14.2
2/22/2021 8:45:00 AM -0.11 31.802 0.137 6.33 2.96 14.23
2/22/2021 9:00:00 AM -0.11 31.802 0.137 6.33 2.93 14.25
2/22/2021 9:15:00 AM -0.11 31.802 0.136 6.33 3.02 14.28
2/22/2021 9:30:00 AM -0.1 31.82 0.136 6.34 2.88 14.32
2/22/2021 9:45:00 AM -0.1 31.82 0.136 6.34 2.96 14.34
2/22/2021 10:00:00 AM -0.1 31.82 0.135 6.34 2.97 14.37
2/22/2021 10:15:00 AM -0.1 31.82 0.135 6.35 2.95 14.39
2/22/2021 10:30:00 AM -0.09 31.838 0.135 6.35 3.04 14.42
2/22/2021 10:45:00 AM -0.09 31.838 0.135 6.35 2.93 14.46
2/22/2021 11:00:00 AM -0.08 31.856 0.135 6.35 3.02 14.49
2/22/2021 11:15:00 AM -0.08 31.856 0.135 6.36 2.96 14.51
2/22/2021 11:30:00 AM -0.07 31.874 0.135 6.36 3 14.53
2/22/2021 11:45:00 AM -0.07 31.874 0.136 6.38 3.01 14.56
2/22/2021 12:00:00 PM -0.06 31.892 0.136 6.37 3.03 14.58
2/22/2021 12:15:00 PM -0.05 31.91 0.136 6.37 2.94 14.61
2/22/2021 12:30:00 PM -0.06 31.892 0.136 6.37 3.04 14.61
2/22/2021 12:45:00 PM -0.06 31.892 0.136 6.37 2.99 14.62
2/22/2021 1:00:00 PM -0.05 31.91 0.137 6.37 2.94 14.64
2/22/2021 1:15:00 PM -0.07 31.874 0.137 6.39 2.94 14.65
2/22/2021 1:30:00 PM -0.05 31.91 0.137 6.39 2.97 14.65
2/22/2021 1:45:00 PM -0.04 31.928 0.137 6.38 3.2 14.66
2/22/2021 2:00:00 PM -0.04 31.928 0.137 6.38 2.99 14.66
2/22/2021 2:15:00 PM -0.04 31.928 0.138 6.39 2.97 14.66
2/22/2021 2:30:00 PM -0.03 31.946 0.138 6.39 3.04 14.68
2/22/2021 2:45:00 PM -0.04 31.928 0.138 6.39 3.02 14.68
2/22/2021 3:00:00 PM -0.04 31.928 0.138 6.39 2.95 14.67
2/22/2021 3:15:00 PM -0.04 31.928 0.138 6.39 2.97 14.67
2/22/2021 3:30:00 PM -0.04 31.928 0.138 6.39 3.05 14.66
2/22/2021 3:45:00 PM -0.02 31.964 0.139 6.38 2.99 14.67
2/22/2021 4:00:00 PM -0.02 31.964 0.138 6.39 2.95 14.66
2/22/2021 4:15:00 PM -0.02 31.964 0.138 6.4 3.04 14.67
2/22/2021 4:30:00 PM -0.03 31.946 0.139 6.38 2.99 14.63
2/22/2021 4:45:00 PM -0.05 31.91 0.139 6.39 2.97 14.59
2/22/2021 5:00:00 PM -0.06 31.892 0.138 6.38 2.96 14.56
2/22/2021 5:15:00 PM -0.05 31.91 0.138 6.38 2.98 14.54
2/22/2021 5:30:00 PM -0.06 31.892 0.138 6.37 2.97 14.5
2/22/2021 5:45:00 PM -0.06 31.892 0.138 6.38 3.02 14.46
2/22/2021 6:00:00 PM -0.06 31.892 0.138 6.36 2.96 14.41
2/22/2021 6:15:00 PM -0.06 31.892 0.138 6.37 2.97 14.37
2/22/2021 6:30:00 PM -0.06 31.892 0.138 6.37 2.99 14.33
2/22/2021 6:45:00 PM -0.05 31.91 0.138 6.36 3.01 14.29
2/22/2021 7:00:00 PM -0.06 31.892 0.138 6.35 2.97 14.27
2/22/2021 7:15:00 PM -0.06 31.892 0.138 6.35 2.97 14.23
2/22/2021 7:30:00 PM -0.06 31.892 0.138 6.35 2.89 14.2
2/22/2021 7:45:00 PM -0.05 31.91 0.138 6.35 2.91 14.17
2/22/2021 8:00:00 PM -0.05 31.91 0.138 6.35 2.95 14.15
2/22/2021 8:15:00 PM -0.06 31.892 0.137 6.35 2.95 14.14
2/22/2021 8:30:00 PM -0.06 31.892 0.137 6.32 2.92 14.11
2/22/2021 8:45:00 PM -0.06 31.892 0.137 6.34 2.96 14.1
2/22/2021 9:00:00 PM -0.06 31.892 0.137 6.34 2.95 14.1
2/22/2021 9:15:00 PM -0.06 31.892 0.137 6.34 2.91 14.08
2/22/2021 9:30:00 PM -0.06 31.892 0.137 6.33 2.99 14.08
2/22/2021 9:45:00 PM -0.06 31.892 0.136 6.33 2.93 14.08
2/22/2021 10:00:00 PM -0.06 31.892 0.136 6.33 2.92 14.07
2/22/2021 10:15:00 PM -0.06 31.892 0.136 6.33 2.9 14.06
2/22/2021 10:30:00 PM -0.07 31.874 0.136 6.33 2.9 14.06
2/22/2021 10:45:00 PM -0.07 31.874 0.135 6.32 2.95 14.05
2/22/2021 11:00:00 PM -0.07 31.874 0.136 6.32 2.9 14.05
2/22/2021 11:15:00 PM -0.07 31.874 0.136 6.32 2.9 14.04
2/22/2021 11:30:00 PM -0.07 31.874 0.136 6.32 2.93 14.04
2/22/2021 11:45:00 PM -0.07 31.874 0.137 6.33 2.9 14.03
2/23/2021 12:00:00 AM -0.07 31.874 0.137 6.33 2.84 14.03
2/23/2021 12:15:00 AM -0.07 31.874 0.138 6.32 2.95 14.02
2/23/2021 12:30:00 AM -0.07 31.874 0.138 6.33 2.84 14.02
2/23/2021 12:45:00 AM -0.07 31.874 0.138 6.32 2.84 14.02
2/23/2021 1:00:00 AM -0.07 31.874 0.139 6.32 2.86 14.02
2/23/2021 1:15:00 AM -0.07 31.874 0.138 6.33 2.85 14.01
2/23/2021 1:30:00 AM -0.07 31.874 0.138 6.32 2.86 14.01
2/23/2021 1:45:00 AM -0.07 31.874 0.139 6.32 2.84 14.01
2/23/2021 2:00:00 AM -0.07 31.874 0.139 6.32 2.9 14.01
2/23/2021 2:15:00 AM -0.07 31.874 0.139 6.32 2.85 14
2/23/2021 2:30:00 AM -0.08 31.856 0.139 6.31 2.88 14
2/23/2021 2:45:00 AM -0.08 31.856 0.139 6.31 2.85 14
2/23/2021 3:00:00 AM -0.09 31.838 0.14 6.31 2.85 14
2/23/2021 3:15:00 AM -0.09 31.838 0.14 6.31 2.88 14
2/23/2021 3:30:00 AM -0.1 31.82 0.14 6.32 2.86 14
2/23/2021 3:45:00 AM -0.11 31.802 0.14 6.32 2.83 14
2/23/2021 4:00:00 AM -0.11 31.802 0.14 6.31 2.85 14
2/23/2021 4:15:00 AM -0.11 31.802 0.141 6.32 2.84 14
2/23/2021 4:30:00 AM -0.11 31.802 0.141 6.31 2.88 14
2/23/2021 4:45:00 AM -0.12 31.784 0.141 6.31 2.9 14.01
2/23/2021 5:00:00 AM -0.12 31.784 0.141 6.31 2.91 14.01
2/23/2021 5:15:00 AM -0.12 31.784 0.141 6.31 2.88 14.01
2/23/2021 5:30:00 AM -0.12 31.784 0.141 6.31 2.88 14.01
2/23/2021 5:45:00 AM -0.12 31.784 0.141 6.3 2.84 14.01
2/23/2021 6:00:00 AM -0.12 31.784 0.141 6.3 2.78 14.01
2/23/2021 6:15:00 AM -0.12 31.784 0.141 6.3 2.83 14.01
2/23/2021 6:30:00 AM -0.12 31.784 0.14 6.3 2.82 14.02
2/23/2021 6:45:00 AM -0.11 31.802 0.14 6.31 2.85 14.01
2/23/2021 7:00:00 AM -0.11 31.802 0.14 6.31 2.82 14.02
2/23/2021 7:15:00 AM -0.11 31.802 0.14 6.31 2.83 14.03
2/23/2021 7:30:00 AM -0.1 31.82 0.139 6.32 2.79 14.07
2/23/2021 7:45:00 AM -0.09 31.838 0.139 6.3 2.82 14.1
2/23/2021 8:00:00 AM -0.09 31.838 0.138 6.31 2.86 14.12
2/23/2021 8:15:00 AM -0.08 31.856 0.138 6.32 2.87 14.16
2/23/2021 8:30:00 AM -0.07 31.874 0.138 6.34 2.86 14.21
2/23/2021 8:45:00 AM -0.07 31.874 0.138 6.34 2.82 14.26
2/23/2021 9:00:00 AM -0.07 31.874 0.137 6.34 2.82 14.3
2/23/2021 9:15:00 AM -0.07 31.874 0.137 6.34 2.83 14.32
2/23/2021 9:30:00 AM -0.07 31.874 0.137 6.34 2.82 14.35
2/23/2021 9:45:00 AM -0.07 31.874 0.136 6.34 2.84 14.38
2/23/2021 10:00:00 AM -0.07 31.874 0.136 6.35 2.79 14.43
2/23/2021 10:15:00 AM -0.05 31.91 0.136 6.36 2.86 14.47
2/23/2021 10:30:00 AM -0.06 31.892 0.135 6.36 2.83 14.5
2/23/2021 10:45:00 AM -0.06 31.892 0.135 6.36 2.86 14.51
2/23/2021 11:00:00 AM -0.04 31.928 0.135 6.37 2.81 14.54
2/23/2021 11:15:00 AM -0.02 31.964 0.135 6.37 2.87 14.59
2/23/2021 11:30:00 AM 0 32 0.134 6.38 2.82 14.62
2/23/2021 11:45:00 AM 0.04 32.072 0.134 6.38 2.82 14.63
2/23/2021 12:00:00 PM 0.05 32.09 0.134 6.39 2.81 14.67
2/23/2021 12:15:00 PM 0.04 32.072 0.134 6.4 2.85 14.68
2/23/2021 12:30:00 PM 0.05 32.09 0.134 6.39 2.86 14.69
2/23/2021 12:45:00 PM 0.05 32.09 0.134 6.4 2.85 14.72
2/23/2021 1:00:00 PM 0.05 32.09 0.134 6.41 2.85 14.72
2/23/2021 1:15:00 PM 0.04 32.072 0.133 6.42 2.86 14.74
2/23/2021 1:30:00 PM 0.05 32.09 0.133 6.42 2.94 14.76
2/23/2021 1:45:00 PM 0.05 32.09 0.133 6.42 2.83 14.78
2/23/2021 2:00:00 PM 0.06 32.108 0.133 6.43 4.46 14.78
2/23/2021 2:15:00 PM 0.09 32.162 0.132 6.43 2.84 14.8
2/23/2021 2:30:00 PM 0.08 32.144 0.132 6.43 2.79 14.82
2/23/2021 2:45:00 PM 0.11 32.198 0.132 6.44 2.8 14.83
2/23/2021 3:00:00 PM 0.2 32.36 0.131 6.44 2.82 14.84
2/23/2021 3:15:00 PM 0.25 32.45 0.131 6.45 2.8 14.84
2/23/2021 3:30:00 PM 0.21 32.378 0.131 6.46 2.82 14.85
2/23/2021 3:45:00 PM 0.18 32.324 0.13 6.46 2.87 14.86
2/23/2021 4:00:00 PM 0.18 32.324 0.13 6.46 2.87 14.87
2/23/2021 4:15:00 PM 0.16 32.288 0.13 6.45 2.89 14.88
2/23/2021 4:30:00 PM 0.12 32.216 0.13 6.46 2.93 14.87
2/23/2021 4:45:00 PM 0.09 32.162 0.13 6.46 2.98 14.87
2/23/2021 5:00:00 PM 0.07 32.126 0.13 6.44 3.04 14.85
2/23/2021 5:15:00 PM 0.05 32.09 0.132 6.45 3.22 14.83
2/23/2021 5:30:00 PM 0.03 32.054 0.134 6.45 3.57 14.8
2/23/2021 5:45:00 PM 0.02 32.036 0.135 6.45 3.63 14.75
2/23/2021 6:00:00 PM 0 32 0.135 6.43 3.49 14.68
2/23/2021 6:15:00 PM 0 32 0.135 6.43 3.48 14.65
2/23/2021 6:30:00 PM -0.01 31.982 0.135 6.43 3.38 14.58
2/23/2021 6:45:00 PM -0.02 31.964 0.135 6.41 3.32 14.53
2/23/2021 7:00:00 PM -0.02 31.964 0.135 6.4 3.35 14.48
2/23/2021 7:15:00 PM -0.03 31.946 0.136 6.4 3.32 14.44
2/23/2021 7:30:00 PM -0.04 31.928 0.136 6.39 3.19 14.39
2/23/2021 7:45:00 PM -0.04 31.928 0.136 6.38 3.22 14.34
2/23/2021 8:00:00 PM -0.04 31.928 0.137 6.38 3.17 14.3
2/23/2021 8:15:00 PM -0.05 31.91 0.137 6.38 3.23 14.27
2/23/2021 8:30:00 PM -0.05 31.91 0.137 6.36 3.22 14.24
2/23/2021 8:45:00 PM -0.05 31.91 0.138 6.36 3.22 14.21
2/23/2021 9:00:00 PM -0.05 31.91 0.139 6.36 3.26 14.19
2/23/2021 9:15:00 PM -0.05 31.91 0.139 6.35 3.18 14.17
2/23/2021 9:30:00 PM -0.05 31.91 0.14 6.35 3.24 14.16
2/23/2021 9:45:00 PM -0.04 31.928 0.141 6.35 3.18 14.15
2/23/2021 10:00:00 PM -0.04 31.928 0.14 6.35 3.13 14.15
2/23/2021 10:15:00 PM -0.04 31.928 0.141 6.34 3.22 14.14
2/23/2021 10:30:00 PM -0.04 31.928 0.14 6.35 3.17 14.13
2/23/2021 10:45:00 PM -0.03 31.946 0.141 6.34 3.18 14.11
2/23/2021 11:00:00 PM -0.03 31.946 0.141 6.34 3.23 14.11
2/23/2021 11:15:00 PM -0.03 31.946 0.141 6.34 3.26 14.11
2/23/2021 11:30:00 PM -0.03 31.946 0.141 6.34 3.35 14.1
2/23/2021 11:45:00 PM -0.04 31.928 0.141 6.34 3.4 14.1
2/24/2021 12:00:00 AM -0.04 31.928 0.14 6.34 3.52 14.09
2/24/2021 12:15:00 AM -0.04 31.928 0.141 6.33 3.5 14.08
2/24/2021 12:30:00 AM -0.05 31.91 0.14 6.33 3.48 14.09
2/24/2021 12:45:00 AM -0.05 31.91 0.14 6.33 3.51 14.09
2/24/2021 1:00:00 AM -0.06 31.892 0.14 6.33 3.34 14.1
2/24/2021 1:15:00 AM -0.06 31.892 0.139 6.33 3.41 14.09
2/24/2021 1:30:00 AM -0.06 31.892 0.14 6.33 3.35 14.09
2/24/2021 1:45:00 AM -0.07 31.874 0.14 6.33 3.37 14.09
2/24/2021 2:00:00 AM -0.08 31.856 0.14 6.32 3.37 14.1
2/24/2021 2:15:00 AM -0.08 31.856 0.14 6.32 3.38 14.1
2/24/2021 2:30:00 AM -0.08 31.856 0.14 6.32 3.35 14.11
2/24/2021 2:45:00 AM -0.08 31.856 0.14 6.32 3.33 14.11
2/24/2021 3:00:00 AM -0.09 31.838 0.14 6.32 3.38 14.11
2/24/2021 3:15:00 AM -0.1 31.82 0.14 6.32 3.34 14.12
2/24/2021 3:30:00 AM -0.1 31.82 0.14 6.32 3.33 14.11
2/24/2021 3:45:00 AM -0.1 31.82 0.141 6.32 3.39 14.12
2/24/2021 4:00:00 AM -0.1 31.82 0.141 6.32 3.29 14.13
2/24/2021 4:15:00 AM -0.1 31.82 0.141 6.31 3.38 14.12
2/24/2021 4:30:00 AM -0.11 31.802 0.14 6.32 3.41 14.13
2/24/2021 4:45:00 AM -0.11 31.802 0.14 6.31 3.33 14.14
2/24/2021 5:00:00 AM -0.11 31.802 0.141 6.31 3.26 14.14
2/24/2021 5:15:00 AM -0.11 31.802 0.141 6.31 3.31 14.14
2/24/2021 5:30:00 AM -0.11 31.802 0.14 6.31 3.23 14.15
2/24/2021 5:45:00 AM -0.11 31.802 0.14 6.31 3.23 14.14
2/24/2021 6:00:00 AM -0.11 31.802 0.14 6.32 3.27 14.15
2/24/2021 6:15:00 AM -0.1 31.82 0.141 6.3 3.2 14.14
2/24/2021 6:30:00 AM -0.11 31.802 0.14 6.31 3.19 14.15
2/24/2021 6:45:00 AM -0.1 31.82 0.141 6.3 3.18 14.15
2/24/2021 7:00:00 AM -0.1 31.82 0.141 6.3 3.17 14.15
2/24/2021 7:15:00 AM -0.1 31.82 0.14 6.31 3.12 14.19
2/24/2021 7:30:00 AM -0.09 31.838 0.14 6.3 3.06 14.24
2/24/2021 7:45:00 AM -0.08 31.856 0.14 6.32 3.08 14.31
2/24/2021 8:00:00 AM -0.07 31.874 0.14 6.32 3.15 14.38
2/24/2021 8:15:00 AM -0.04 31.928 0.14 6.33 3.09 14.45
2/24/2021 8:30:00 AM -0.04 31.928 0.14 6.34 3.07 14.52
2/24/2021 8:45:00 AM -0.04 31.928 0.14 6.34 3.13 14.58
2/24/2021 9:00:00 AM -0.04 31.928 0.139 6.35 3.13 14.65
2/24/2021 9:15:00 AM -0.02 31.964 0.14 6.36 3.12 14.7
2/24/2021 9:30:00 AM 0 32 0.139 6.36 3.09 14.76
2/24/2021 9:45:00 AM 0.05 32.09 0.139 6.38 3.12 14.82
2/24/2021 10:00:00 AM 0.1 32.18 0.139 6.38 3.1 14.87
2/24/2021 10:15:00 AM 0.18 32.324 0.139 6.39 3.11 14.92
2/24/2021 10:30:00 AM 0.26 32.468 0.139 6.4 3.04 14.94
2/24/2021 10:45:00 AM 0.3 32.54 0.138 6.41 3.08 14.97
2/24/2021 11:00:00 AM 0.35 32.63 0.138 6.41 3.14 14.98
2/24/2021 11:15:00 AM 0.39 32.702 0.138 6.42 3.16 14.99
2/24/2021 11:30:00 AM 0.42 32.756 0.137 6.42 3.19 14.99
2/24/2021 11:45:00 AM 0.45 32.81 0.137 6.43 3.13 14.99
2/24/2021 12:00:00 PM 0.48 32.864 0.137 6.44 3.08 14.99
2/24/2021 12:15:00 PM 0.5 32.9 0.136 6.43 3.11 14.98
2/24/2021 12:30:00 PM 0.54 32.972 0.136 6.45 3.27 14.97
2/24/2021 12:45:00 PM 0.57 33.026 0.136 6.44 3.29 14.95
2/24/2021 1:00:00 PM 0.59 33.062 0.136 6.45 3.41 14.93
2/24/2021 1:15:00 PM 0.62 33.116 0.136 6.45 3.54 14.9
2/24/2021 1:30:00 PM 0.59 33.062 0.137 6.45 4.26 14.89
2/24/2021 1:45:00 PM 0.61 33.098 0.137 6.45 4.73 14.88
2/24/2021 2:00:00 PM 0.62 33.116 0.138 6.45 4.47 14.84
2/24/2021 2:15:00 PM 0.6 33.08 0.14 6.46 4.77 14.84
2/24/2021 2:30:00 PM 0.56 33.008 0.141 6.45 8.29 14.82
2/24/2021 2:45:00 PM 0.55 32.99 0.142 6.46 8.5 14.8
2/24/2021 3:00:00 PM 0.57 33.026 0.149 6.45 12.51 14.78
2/24/2021 3:15:00 PM 0.53 32.954 0.152 6.46 7.97 14.77
2/24/2021 3:30:00 PM 0.48 32.864 0.158 6.45 7.32 14.74
2/24/2021 3:45:00 PM 0.44 32.792 0.159 6.46 6.59 14.75
2/24/2021 4:00:00 PM 0.44 32.792 0.165 6.46 6.67 14.72
2/24/2021 4:15:00 PM 0.38 32.684 0.165 6.46 6.29 14.73
2/24/2021 4:30:00 PM 0.36 32.648 0.165 6.47 7.2 14.71
2/24/2021 4:45:00 PM 0.3 32.54 0.165 6.45 7.18 14.67
2/24/2021 5:00:00 PM 0.26 32.468 0.163 6.45 7.29 14.62
2/24/2021 5:15:00 PM 0.23 32.414 0.166 6.45 7.59 14.56
2/24/2021 5:30:00 PM 0.19 32.342 0.162 6.44 7.2 14.52
2/24/2021 5:45:00 PM 0.19 32.342 0.165 6.43 7.12 14.46
2/24/2021 6:00:00 PM 0.17 32.306 0.167 6.4 7.36 14.38
2/24/2021 6:15:00 PM 0.18 32.324 0.166 6.4 7.24 14.31
2/24/2021 6:30:00 PM 0.18 32.324 0.169 6.39 7.73 14.26
2/24/2021 6:45:00 PM 0.13 32.234 0.166 6.4 7.19 14.22
2/24/2021 7:00:00 PM 0.13 32.234 0.167 6.38 7.12 14.18
2/24/2021 7:15:00 PM 0.16 32.288 0.172 6.37 8.61 14.12
2/24/2021 7:30:00 PM 0.14 32.252 0.17 6.37 8.19 14.1
2/24/2021 7:45:00 PM 0.15 32.27 0.169 6.36 7.98 14.05
2/24/2021 8:00:00 PM 0.17 32.306 0.17 6.36 7.95 14.02
2/24/2021 8:15:00 PM 0.19 32.342 0.173 6.36 9.87 13.98
2/24/2021 8:30:00 PM 0.17 32.306 0.173 6.34 10.47 13.94
2/24/2021 8:45:00 PM 0.17 32.306 0.174 6.33 11.98 13.92
2/24/2021 9:00:00 PM 0.14 32.252 0.172 6.33 12.12 13.89
2/24/2021 9:15:00 PM 0.13 32.234 0.171 6.33 14.63 13.87
2/24/2021 9:30:00 PM 0.11 32.198 0.169 6.33 14.27 13.87
2/24/2021 9:45:00 PM 0.09 32.162 0.168 6.33 14.85 13.87
2/24/2021 10:00:00 PM 0.1 32.18 0.166 6.33 12.7 13.86
2/24/2021 10:15:00 PM 0.11 32.198 0.165 6.33 13.54 13.85
2/24/2021 10:30:00 PM 0.12 32.216 0.166 6.31 13.34 13.85
2/24/2021 10:45:00 PM 0.09 32.162 0.164 6.32 12.24 13.86
2/24/2021 11:00:00 PM 0.08 32.144 0.163 6.33 12.65 13.88
2/24/2021 11:15:00 PM 0.07 32.126 0.163 6.33 12.36 13.88
2/24/2021 11:30:00 PM 0.1 32.18 0.164 6.33 11.2 13.86
2/24/2021 11:45:00 PM 0.08 32.144 0.162 6.33 12.57 13.87
2/25/2021 12:00:00 AM 0.09 32.162 0.162 6.32 13.29 13.87
2/25/2021 12:15:00 AM 0.09 32.162 0.162 6.32 12.91 13.87
2/25/2021 12:30:00 AM 0.07 32.126 0.16 6.31 12.66 13.9
2/25/2021 12:45:00 AM 0.08 32.144 0.161 6.31 13.95 13.91
2/25/2021 1:00:00 AM 0.05 32.09 0.159 6.32 13.08 13.92
2/25/2021 1:15:00 AM 0.07 32.126 0.159 6.32 12.69 13.91
2/25/2021 1:30:00 AM 0.05 32.09 0.159 6.32 13.97 13.92
2/25/2021 1:45:00 AM 0.07 32.126 0.159 6.33 12.34 13.92
2/25/2021 2:00:00 AM 0.05 32.09 0.158 6.32 13.14 13.94
2/25/2021 2:15:00 AM 0.07 32.126 0.158 6.31 12.51 13.94
2/25/2021 2:30:00 AM 0.06 32.108 0.158 6.16 12.82 13.91
2/25/2021 2:45:00 AM 0.06 32.108 0.157 6.17 12.48 13.92
2/25/2021 3:00:00 AM 0.04 32.072 0.157 6.23 12.34 13.92
2/25/2021 3:15:00 AM 0.07 32.126 0.156 6.21 12.26 13.91
2/25/2021 3:30:00 AM 0.08 32.144 0.156 6.19 12.63 13.93
2/25/2021 3:45:00 AM 0.06 32.108 0.155 6.21 12.23 13.95
2/25/2021 4:00:00 AM 0.03 32.054 0.154 6.22 11.87 13.97
2/25/2021 4:15:00 AM 0.02 32.036 0.153 6.24 11.74 13.99
2/25/2021 4:30:00 AM 0.02 32.036 0.153 6.21 11.76 13.99
2/25/2021 4:45:00 AM 0.03 32.054 0.154 6.19 12.67 13.99
2/25/2021 5:00:00 AM 0.01 32.018 0.153 6.2 11.89 14.01
2/25/2021 5:15:00 AM 0 32 0.152 6.21 11.97 14.03
2/25/2021 5:30:00 AM -0.01 31.982 0.151 6.2 11.71 14.04
2/25/2021 5:45:00 AM -0.02 31.964 0.151 6.21 11.4 14.05
2/25/2021 6:00:00 AM -0.02 31.964 0.15 6.2 11.52 14.06
2/25/2021 6:15:00 AM -0.02 31.964 0.15 6.2 11.76 14.07
2/25/2021 6:30:00 AM -0.03 31.946 0.15 6.2 11.31 14.07
2/25/2021 6:45:00 AM -0.03 31.946 0.15 6.21 11.36 14.09
2/25/2021 7:00:00 AM -0.03 31.946 0.15 6.2 11.37 14.1
2/25/2021 7:15:00 AM -0.04 31.928 0.15 6.2 11.18 14.13
2/25/2021 7:30:00 AM -0.04 31.928 0.151 6.21 11.43 14.15
2/25/2021 7:45:00 AM -0.04 31.928 0.151 6.22 10.85 14.2
2/25/2021 8:00:00 AM -0.01 31.982 0.152 6.21 10.58 14.23
2/25/2021 8:15:00 AM 0.01 32.018 0.152 6.22 10.71 14.28
2/25/2021 8:30:00 AM 0.04 32.072 0.153 6.23 10.75 14.32
2/25/2021 8:45:00 AM 0.06 32.108 0.154 6.24 10.22 14.37
2/25/2021 9:00:00 AM 0.09 32.162 0.154 6.25 10.16 14.42
2/25/2021 9:15:00 AM 0.09 32.162 0.153 6.26 9.96 14.48
2/25/2021 9:30:00 AM 0.14 32.252 0.154 6.25 9.92 14.51
2/25/2021 9:45:00 AM 0.17 32.306 0.155 6.26 10.01 14.55
2/25/2021 10:00:00 AM 0.22 32.396 0.155 6.28 10.33 14.57
2/25/2021 10:15:00 AM 0.25 32.45 0.155 6.27 10.22 14.6
2/25/2021 10:30:00 AM 0.32 32.576 0.155 6.31 11.14 14.62
2/25/2021 10:45:00 AM 0.35 32.63 0.155 6.29 10.58 14.63
2/25/2021 11:00:00 AM 0.41 32.738 0.156 6.3 10.71 14.65
2/25/2021 11:15:00 AM 0.44 32.792 0.156 6.31 11.13 14.67
2/25/2021 11:30:00 AM 0.51 32.918 0.156 6.33 12.21 14.65
2/25/2021 11:45:00 AM 0.59 33.062 0.156 6.39 11.69 14.63
2/25/2021 12:00:00 PM 0.66 33.188 0.156 6.42 11.94 14.63
2/25/2021 12:15:00 PM 0.71 33.278 0.155 6.41 11.99 14.61
2/25/2021 12:30:00 PM 0.69 33.242 0.155 6.4 12.36 14.61
2/25/2021 12:45:00 PM 0.72 33.296 0.155 6.39 12.11 14.6
2/25/2021 1:00:00 PM 0.81 33.458 0.156 6.39 12.56 14.55
2/25/2021 1:15:00 PM 0.81 33.458 0.155 6.37 13.82 14.55
2/25/2021 1:30:00 PM 0.85 33.53 0.155 6.38 13.71 14.51
2/25/2021 1:45:00 PM 0.88 33.584 0.155 6.38 14.09 14.5
2/25/2021 2:00:00 PM 0.91 33.638 0.155 6.38 13.06 14.47
2/25/2021 2:15:00 PM 0.97 33.746 0.155 6.39 14.2 14.41
2/25/2021 2:30:00 PM 0.89 33.602 0.154 6.36 15.63 14.43
2/25/2021 2:45:00 PM 0.88 33.584 0.153 6.35 14.98 14.4
2/25/2021 3:00:00 PM 0.85 33.53 0.153 6.36 17.74 14.39
2/25/2021 3:15:00 PM 0.8 33.44 0.153 6.37 17.95 14.39
2/25/2021 3:30:00 PM 0.77 33.386 0.153 6.36 16.41 14.38
2/25/2021 3:45:00 PM 0.62 33.116 0.154 6.28 17.58 14.39
2/25/2021 4:00:00 PM 0.59 33.062 0.153 6.27 16.29 14.39
2/25/2021 4:15:00 PM 0.56 33.008 0.153 6.28 18.34 14.37
2/25/2021 4:30:00 PM 0.53 32.954 0.153 6.31 17.13 14.38
2/25/2021 4:45:00 PM 0.53 32.954 0.152 6.32 15.88 14.32
2/25/2021 5:00:00 PM 0.49 32.882 0.152 6.32 16.44 14.3
2/25/2021 5:15:00 PM 0.46 32.828 0.151 6.31 17.36 14.28
2/25/2021 5:30:00 PM 0.42 32.756 0.15 6.31 16.83 14.26
2/25/2021 5:45:00 PM 0.36 32.648 0.15 6.31 17.98 14.24
2/25/2021 6:00:00 PM 0.32 32.576 0.15 6.3 17.01 14.2
2/25/2021 6:15:00 PM 0.28 32.504 0.15 6.27 15.7 14.17
2/25/2021 6:30:00 PM 0.24 32.432 0.149 6.27 16.14 14.14
2/25/2021 6:45:00 PM 0.18 32.324 0.148 6.25 15.65 14.13
2/25/2021 7:00:00 PM 0.16 32.288 0.147 6.25 15.84 14.12
2/25/2021 7:15:00 PM 0.15 32.27 0.147 6.25 16.85 14.07
2/25/2021 7:30:00 PM 0.12 32.216 0.147 6.25 17.5 14.07
2/25/2021 7:45:00 PM 0.11 32.198 0.147 6.24 13.38 14.05
2/25/2021 8:00:00 PM 0.1 32.18 0.147 6.23 16.56 14.04
2/25/2021 8:15:00 PM 0.08 32.144 0.146 6.24 15.74 14.02
2/25/2021 8:30:00 PM 0.06 32.108 0.146 6.23 15.69 14.01
2/25/2021 8:45:00 PM 0.04 32.072 0.145 6.23 17.76 14
2/25/2021 9:00:00 PM 0.04 32.072 0.145 6.24 17.25 13.99
2/25/2021 9:15:00 PM 0.04 32.072 0.145 6.23 15.35 13.97
2/25/2021 9:30:00 PM 0.02 32.036 0.144 6.24 14.86 13.96
2/25/2021 9:45:00 PM 0.01 32.018 0.143 6.23 15.61 13.96
2/25/2021 10:00:00 PM -0.01 31.982 0.143 6.24 15.15 13.95
2/25/2021 10:15:00 PM -0.01 31.982 0.143 6.24 14.03 13.94
2/25/2021 10:30:00 PM -0.01 31.982 0.142 6.22 15.39 13.93
2/25/2021 10:45:00 PM -0.01 31.982 0.142 6.24 14.28 13.92
2/25/2021 11:00:00 PM -0.01 31.982 0.142 6.24 13.52 13.92
2/25/2021 11:15:00 PM -0.01 31.982 0.142 6.23 14.14 13.92
2/25/2021 11:30:00 PM 0 32 0.142 6.22 13.93 13.92
2/25/2021 11:45:00 PM 0 32 0.141 6.23 13.75 13.91
2/26/2021 12:00:00 AM 0.01 32.018 0.141 6.23 13.84 13.9
2/26/2021 12:15:00 AM 0.01 32.018 0.141 6.23 13.72 13.89
2/26/2021 12:30:00 AM 0.03 32.054 0.141 6.24 13.98 13.9
2/26/2021 12:45:00 AM 0.05 32.09 0.141 6.26 13.1 13.89
2/26/2021 1:00:00 AM 0.07 32.126 0.141 6.25 12.98 13.88
2/26/2021 1:15:00 AM 0.09 32.162 0.141 6.26 13.55 13.88
2/26/2021 1:30:00 AM 0.12 32.216 0.141 6.27 12.87 13.87
2/26/2021 1:45:00 AM 0.15 32.27 0.141 6.26 13.12 13.86
2/26/2021 2:00:00 AM 0.19 32.342 0.141 6.29 12.03 13.85
2/26/2021 2:15:00 AM 0.24 32.432 0.141 6.28 11.89 13.85
2/26/2021 2:30:00 AM 0.27 32.486 0.141 6.29 12.61 13.85
2/26/2021 2:45:00 AM 0.29 32.522 0.141 6.29 11.82 13.84
2/26/2021 3:00:00 AM 0.32 32.576 0.141 6.29 13.13 13.84
2/26/2021 3:15:00 AM 0.36 32.648 0.141 6.29 11.51 13.84
2/26/2021 3:30:00 AM 0.37 32.666 0.141 6.29 13.33 13.84
2/26/2021 3:45:00 AM 0.38 32.684 0.141 6.28 12.73 13.84
2/26/2021 4:00:00 AM 0.42 32.756 0.141 6.3 11.71 13.84
2/26/2021 4:15:00 AM 0.44 32.792 0.141 6.29 12.57 13.83
2/26/2021 4:30:00 AM 0.46 32.828 0.14 6.29 11.79 13.85
2/26/2021 4:45:00 AM 0.5 32.9 0.14 6.31 10.66 13.85
2/26/2021 5:00:00 AM 0.53 32.954 0.14 6.3 10.61 13.86
2/26/2021 5:15:00 AM 0.56 33.008 0.141 6.3 11.44 13.86
2/26/2021 5:30:00 AM 0.58 33.044 0.141 6.3 10.5 13.86
2/26/2021 5:45:00 AM 0.58 33.044 0.141 6.3 10 13.87
2/26/2021 6:00:00 AM 0.59 33.062 0.141 6.29 10.58 13.88
2/26/2021 6:15:00 AM 0.58 33.044 0.141 6.29 10.28 13.89
2/26/2021 6:30:00 AM 0.58 33.044 0.14 6.31 9.99 13.9
2/26/2021 6:45:00 AM 0.57 33.026 0.14 6.29 9.75 13.91
2/26/2021 7:00:00 AM 0.56 33.008 0.14 6.29 10.44 13.93
2/26/2021 7:15:00 AM 0.55 32.99 0.14 6.29 9.41 13.96
2/26/2021 7:30:00 AM 0.55 32.99 0.139 6.29 9.35 13.99
2/26/2021 7:45:00 AM 0.55 32.99 0.139 6.3 9.35 14.04
2/26/2021 8:00:00 AM 0.57 33.026 0.139 6.31 9.35 14.09
2/26/2021 8:15:00 AM 0.6 33.08 0.139 6.32 9.6 14.14
2/26/2021 8:30:00 AM 0.64 33.152 0.139 6.33 9.95 14.21
2/26/2021 8:45:00 AM 0.69 33.242 0.139 6.3 9.05 14.26
2/26/2021 9:00:00 AM 0.75 33.35 0.138 6.33 8.61 14.33
2/26/2021 9:15:00 AM 0.83 33.494 0.138 6.33 9.08 14.37
2/26/2021 9:30:00 AM 0.93 33.674 0.137 6.35 8.63 14.41
2/26/2021 9:45:00 AM 1.02 33.836 0.137 6.37 8.9 14.43
2/26/2021 10:00:00 AM 1.15 34.07 0.137 6.36 8.96 14.44
2/26/2021 10:15:00 AM 1.28 34.304 0.136 6.38 8.84 14.46
2/26/2021 10:30:00 AM 1.41 34.538 0.136 6.4 8.71 14.45
2/26/2021 10:45:00 AM 1.56 34.808 0.136 6.39 8.2 14.44
2/26/2021 11:00:00 AM 1.69 35.042 0.135 6.39 8.14 14.42
2/26/2021 11:15:00 AM 1.79 35.222 0.135 6.4 8.67 14.41
2/26/2021 11:30:00 AM 1.9 35.42 0.134 6.39 7.97 14.39
2/26/2021 11:45:00 AM 2.01 35.618 0.134 6.4 7.89 14.37
2/26/2021 12:00:00 PM 2.14 35.852 0.133 6.4 8.3 14.35
2/26/2021 12:15:00 PM 2.25 36.05 0.133 6.41 8.35 14.33
2/26/2021 12:30:00 PM 2.29 36.122 0.132 6.4 7.96 14.3
2/26/2021 12:45:00 PM 2.4 36.32 0.132 6.4 7.92 14.27
2/26/2021 1:00:00 PM 2.54 36.572 0.131 6.4 8.5 14.25
2/26/2021 1:15:00 PM 2.63 36.734 0.131 6.41 7.63 14.23
2/26/2021 1:30:00 PM 2.76 36.968 0.13 6.41 7.67 14.18
2/26/2021 1:45:00 PM 2.84 37.112 0.13 6.4 7.97 14.15
2/26/2021 2:00:00 PM 2.92 37.256 0.13 6.4 7.8 14.11
2/26/2021 2:15:00 PM 3.01 37.418 0.129 6.42 8.4 14.08
2/26/2021 2:30:00 PM 3.1 37.58 0.129 6.41 8.33 14.05
2/26/2021 2:45:00 PM 3.14 37.652 0.128 6.4 7.76 14.02
2/26/2021 3:00:00 PM 3.19 37.742 0.128 6.4 7.75 14
2/26/2021 3:15:00 PM 3.26 37.868 0.127 6.41 7.94 13.95
2/26/2021 3:30:00 PM 3.32 37.976 0.127 6.4 7.86 13.91
2/26/2021 3:45:00 PM 3.36 38.048 0.127 6.4 7.9 13.86
2/26/2021 4:00:00 PM 3.39 38.102 0.126 6.39 8.32 13.83
2/26/2021 4:15:00 PM 3.39 38.102 0.126 6.39 8.08 13.79
2/26/2021 4:30:00 PM 3.38 38.084 0.126 6.37 8.32 13.75
2/26/2021 4:45:00 PM 3.37 38.066 0.126 6.37 8.61 13.71
2/26/2021 5:00:00 PM 3.35 38.03 0.126 6.37 8.38 13.66
2/26/2021 5:15:00 PM 3.34 38.012 0.125 6.37 8.42 13.61
2/26/2021 5:30:00 PM 3.32 37.976 0.125 6.36 7.99 13.55
2/26/2021 5:45:00 PM 3.29 37.922 0.125 6.36 8.46 13.49
2/26/2021 6:00:00 PM 3.27 37.886 0.125 6.34 8.41 13.43
2/26/2021 6:15:00 PM 3.26 37.868 0.125 6.32 8.1 13.37
2/26/2021 6:30:00 PM 3.23 37.814 0.124 6.33 8.26 13.31
2/26/2021 6:45:00 PM 3.19 37.742 0.125 6.32 8.32 13.26
2/26/2021 7:00:00 PM 3.17 37.706 0.124 6.32 8.17 13.22
2/26/2021 7:15:00 PM 3.16 37.688 0.124 6.3 7.88 13.18
2/26/2021 7:30:00 PM 3.13 37.634 0.124 6.31 8.22 13.16
2/26/2021 7:45:00 PM 3.11 37.598 0.124 6.31 7.92 13.13
2/26/2021 8:00:00 PM 3.09 37.562 0.124 6.28 8.09 13.12
2/26/2021 8:15:00 PM 3.08 37.544 0.123 6.3 7.84 13.11
2/26/2021 8:30:00 PM 3.05 37.49 0.123 6.3 7.75 13.1
2/26/2021 8:45:00 PM 3.04 37.472 0.123 6.3 8.08 13.09
2/26/2021 9:00:00 PM 3.03 37.454 0.123 6.29 7.7 13.09
2/26/2021 9:15:00 PM 3.01 37.418 0.123 6.3 7.74 13.08
2/26/2021 9:30:00 PM 3 37.4 0.123 6.29 7.58 13.08
2/26/2021 9:45:00 PM 3 37.4 0.123 6.3 7.84 13.08
2/26/2021 10:00:00 PM 2.99 37.382 0.123 6.3 7.75 13.08
2/26/2021 10:15:00 PM 3 37.4 0.122 6.29 7.89 13.08
2/26/2021 10:30:00 PM 3.01 37.418 0.122 6.29 7.67 13.07
2/26/2021 10:45:00 PM 3.01 37.418 0.122 6.29 7.35 13.07
2/26/2021 11:00:00 PM 3.01 37.418 0.122 6.29 7.67 13.07
2/26/2021 11:15:00 PM 3.01 37.418 0.122 6.3 7.43 13.07
2/26/2021 11:30:00 PM 3.01 37.418 0.122 6.28 7.09 13.07
2/26/2021 11:45:00 PM 3.01 37.418 0.122 6.29 7.37 13.07
2/27/2021 12:00:00 AM 3.01 37.418 0.122 6.28 7.72 13.08
2/27/2021 12:15:00 AM 3.01 37.418 0.122 6.3 7.68 13.08
2/27/2021 12:30:00 AM 3.01 37.418 0.122 6.3 7.26 13.08
2/27/2021 12:45:00 AM 3.02 37.436 0.122 6.3 6.99 13.08
2/27/2021 1:00:00 AM 3.02 37.436 0.122 6.29 6.73 13.08
2/27/2021 1:15:00 AM 3.01 37.418 0.122 6.29 7.03 13.07
2/27/2021 1:30:00 AM 3.02 37.436 0.122 6.3 7.36 13.07
2/27/2021 1:45:00 AM 3.03 37.454 0.122 6.3 6.73 13.07
2/27/2021 2:00:00 AM 3.02 37.436 0.122 6.3 7.06 13.06
2/27/2021 2:15:00 AM 3.03 37.454 0.122 6.29 6.81 13.06
2/27/2021 2:30:00 AM 3.02 37.436 0.122 6.3 7.02 13.05
2/27/2021 2:45:00 AM 3.03 37.454 0.122 6.3 6.83 13.06
2/27/2021 3:00:00 AM 3.02 37.436 0.122 6.29 7.28 13.05
2/27/2021 3:15:00 AM 3.02 37.436 0.122 6.3 7.15 13.06
2/27/2021 3:30:00 AM 3.01 37.418 0.122 6.29 7.08 13.05
2/27/2021 3:45:00 AM 3.01 37.418 0.122 6.3 7.06 13.05
2/27/2021 4:00:00 AM 2.99 37.382 0.122 6.29 6.59 13.05
2/27/2021 4:15:00 AM 2.99 37.382 0.122 6.28 7.29 13.05
2/27/2021 4:30:00 AM 2.97 37.346 0.122 6.28 6.76 13.05
2/27/2021 4:45:00 AM 2.97 37.346 0.122 6.3 7.17 13.05
2/27/2021 5:00:00 AM 2.96 37.328 0.122 6.28 6.7 13.05
2/27/2021 5:15:00 AM 2.96 37.328 0.122 6.29 6.84 13.06
2/27/2021 5:30:00 AM 2.96 37.328 0.122 6.28 7.18 13.05
2/27/2021 5:45:00 AM 2.96 37.328 0.122 6.29 6.96 13.05
2/27/2021 6:00:00 AM 2.95 37.31 0.122 6.3 7.11 13.05
2/27/2021 6:15:00 AM 2.96 37.328 0.122 6.3 6.92 13.04
2/27/2021 6:30:00 AM 2.96 37.328 0.122 6.29 6.85 13.04
2/27/2021 6:45:00 AM 2.96 37.328 0.123 6.29 7.36 13.04
2/27/2021 7:00:00 AM 2.97 37.346 0.122 6.29 6.55 13.04
2/27/2021 7:15:00 AM 2.96 37.328 0.123 6.3 7.05 13.04
2/27/2021 7:30:00 AM 2.97 37.346 0.123 6.29 6.6 13.05
2/27/2021 7:45:00 AM 2.97 37.346 0.123 6.29 6.82 13.06
2/27/2021 8:00:00 AM 2.98 37.364 0.122 6.29 6.54 13.07
2/27/2021 8:15:00 AM 2.98 37.364 0.123 6.3 6.6 13.08
2/27/2021 8:30:00 AM 3 37.4 0.122 6.3 6.56 13.1
2/27/2021 8:45:00 AM 3 37.4 0.123 6.3 6.34 13.13
2/27/2021 9:00:00 AM 3.02 37.436 0.122 6.3 6.63 13.17
2/27/2021 9:15:00 AM 3.04 37.472 0.122 6.31 6.44 13.2
2/27/2021 9:30:00 AM 3.06 37.508 0.122 6.31 6.53 13.25
2/27/2021 9:45:00 AM 3.08 37.544 0.122 6.32 6.53 13.29
2/27/2021 10:00:00 AM 3.1 37.58 0.122 6.32 6.52 13.34
2/27/2021 10:15:00 AM 3.13 37.634 0.122 6.33 6.12 13.38
2/27/2021 10:30:00 AM 3.15 37.67 0.122 6.34 6.27 13.42
2/27/2021 10:45:00 AM 3.18 37.724 0.121 6.33 6.29 13.46
2/27/2021 11:00:00 AM 3.23 37.814 0.121 6.34 6.16 13.5
2/27/2021 11:15:00 AM 3.27 37.886 0.121 6.34 6.23 13.54
2/27/2021 11:30:00 AM 3.3 37.94 0.121 6.36 6.22 13.56
2/27/2021 11:45:00 AM 3.35 38.03 0.121 6.35 6.28 13.58
2/27/2021 12:00:00 PM 3.43 38.174 0.121 6.35 5.97 13.6
2/27/2021 12:15:00 PM 3.5 38.3 0.121 6.36 6.28 13.61
2/27/2021 12:30:00 PM 3.58 38.444 0.12 6.36 5.85 13.64
2/27/2021 12:45:00 PM 3.68 38.624 0.121 6.36 6.05 13.64
2/27/2021 1:00:00 PM 3.77 38.786 0.12 6.36 6 13.64
2/27/2021 1:15:00 PM 3.91 39.038 0.12 6.36 6.31 13.65
2/27/2021 1:30:00 PM 4.01 39.218 0.12 6.37 6.46 13.63
2/27/2021 1:45:00 PM 4.08 39.344 0.12 6.37 6.68 13.6
2/27/2021 2:00:00 PM 4.16 39.488 0.119 6.36 6.84 13.58
2/27/2021 2:15:00 PM 4.21 39.578 0.119 6.36 6.77 13.56
2/27/2021 2:30:00 PM 4.23 39.614 0.119 6.35 6.85 13.55
2/27/2021 2:45:00 PM 4.25 39.65 0.119 6.35 7.13 13.53
2/27/2021 3:00:00 PM 4.27 39.686 0.119 6.35 7.2 13.52
2/27/2021 3:15:00 PM 4.3 39.74 0.119 6.35 7.22 13.5
2/27/2021 3:30:00 PM 4.36 39.848 0.119 6.35 8.31 13.48
2/27/2021 3:45:00 PM 4.4 39.92 0.119 6.34 7.96 13.45
2/27/2021 4:00:00 PM 4.45 40.01 0.119 6.34 7.58 13.43
2/27/2021 4:15:00 PM 4.45 40.01 0.12 6.33 8.35 13.4
2/27/2021 4:30:00 PM 4.44 39.992 0.12 6.31 8.73 13.37
2/27/2021 4:45:00 PM 4.43 39.974 0.12 6.31 8.61 13.32
2/27/2021 5:00:00 PM 4.4 39.92 0.12 6.3 8.38 13.28
2/27/2021 5:15:00 PM 4.31 39.758 0.12 6.29 9.74 13.23
2/27/2021 5:30:00 PM 4.3 39.74 0.12 6.28 8.38 13.17
2/27/2021 5:45:00 PM 4.23 39.614 0.12 6.27 8.81 13.12
2/27/2021 6:00:00 PM 4.15 39.47 0.12 6.26 9.02 13.06
2/27/2021 6:15:00 PM 4.12 39.416 0.12 6.25 9.18 13.01
2/27/2021 6:30:00 PM 4.08 39.344 0.12 6.24 9.02 12.94
2/27/2021 6:45:00 PM 4.03 39.254 0.12 6.23 8.96 12.89
2/27/2021 7:00:00 PM 3.98 39.164 0.12 6.22 9.01 12.85
2/27/2021 7:15:00 PM 3.94 39.092 0.12 6.21 9.03 12.83
2/27/2021 7:30:00 PM 3.91 39.038 0.12 6.21 8.6 12.81
2/27/2021 7:45:00 PM 3.87 38.966 0.12 6.21 8.53 12.8
2/27/2021 8:00:00 PM 3.83 38.894 0.12 6.2 8.34 12.8
2/27/2021 8:15:00 PM 3.78 38.804 0.12 6.19 8.58 12.79
2/27/2021 8:30:00 PM 3.73 38.714 0.12 6.2 8.34 12.79
2/27/2021 8:45:00 PM 3.71 38.678 0.12 6.21 8.64 12.79
2/27/2021 9:00:00 PM 3.68 38.624 0.12 6.21 8.3 12.78
2/27/2021 9:15:00 PM 3.64 38.552 0.12 6.19 9.08 12.8
2/27/2021 9:30:00 PM 3.62 38.516 0.12 6.19 8.38 12.81
2/27/2021 9:45:00 PM 3.56 38.408 0.12 6.19 8.29 12.83
2/27/2021 10:00:00 PM 3.54 38.372 0.12 6.2 8.39 12.84
2/27/2021 10:15:00 PM 3.5 38.3 0.12 6.2 8.13 12.85
2/27/2021 10:30:00 PM 3.47 38.246 0.12 6.2 8.23 12.87
2/27/2021 10:45:00 PM 3.43 38.174 0.121 6.19 8.13 12.88
2/27/2021 11:00:00 PM 3.42 38.156 0.121 6.2 8.06 12.89
2/27/2021 11:15:00 PM 3.38 38.084 0.121 6.2 8.25 12.9
2/27/2021 11:30:00 PM 3.35 38.03 0.121 6.21 8.22 12.91
2/27/2021 11:45:00 PM 3.34 38.012 0.121 6.2 8.01 12.91
2/28/2021 12:00:00 AM 3.33 37.994 0.121 6.2 8.09 12.91
2/28/2021 12:15:00 AM 3.29 37.922 0.122 6.2 8.07 12.93
2/28/2021 12:30:00 AM 3.27 37.886 0.122 6.19 7.96 12.95
2/28/2021 12:45:00 AM 3.24 37.832 0.122 6.2 7.92 12.96
2/28/2021 1:00:00 AM 3.23 37.814 0.122 6.2 7.7 12.97
2/28/2021 1:15:00 AM 3.2 37.76 0.122 6.22 7.89 12.97
2/28/2021 1:30:00 AM 3.19 37.742 0.122 6.21 7.7 12.98
2/28/2021 1:45:00 AM 3.16 37.688 0.123 6.21 7.64 12.99
2/28/2021 2:00:00 AM 3.15 37.67 0.123 6.21 7.33 13
2/28/2021 2:15:00 AM 3.13 37.634 0.123 6.21 7.36 13
2/28/2021 2:30:00 AM 3.12 37.616 0.123 6.21 7.48 13.01
2/28/2021 2:45:00 AM 3.09 37.562 0.123 6.22 7.69 13.02
2/28/2021 3:00:00 AM 3.08 37.544 0.123 6.21 7.26 13.03
2/28/2021 3:15:00 AM 3.07 37.526 0.123 6.21 7.17 13.03
2/28/2021 3:30:00 AM 3.05 37.49 0.123 6.22 6.94 13.04
2/28/2021 3:45:00 AM 3.03 37.454 0.124 6.22 7.07 13.04
2/28/2021 4:00:00 AM 3.02 37.436 0.124 6.21 6.98 13.05
2/28/2021 4:15:00 AM 3 37.4 0.124 6.22 6.95 13.05
2/28/2021 4:30:00 AM 2.99 37.382 0.124 6.22 7 13.05
2/28/2021 4:45:00 AM 2.98 37.364 0.124 6.21 7.11 13.06
2/28/2021 5:00:00 AM 2.97 37.346 0.124 6.22 6.92 13.07
2/28/2021 5:15:00 AM 2.95 37.31 0.125 6.22 6.99 13.07
2/28/2021 5:30:00 AM 2.95 37.31 0.125 6.21 6.9 13.07
2/28/2021 5:45:00 AM 2.94 37.292 0.125 6.22 6.97 13.08
2/28/2021 6:00:00 AM 2.93 37.274 0.125 6.23 6.85 13.08
2/28/2021 6:15:00 AM 2.93 37.274 0.125 6.22 6.46 13.09
2/28/2021 6:30:00 AM 2.93 37.274 0.126 6.23 6.61 13.09
2/28/2021 6:45:00 AM 2.93 37.274 0.126 6.23 6.68 13.09
2/28/2021 7:00:00 AM 2.93 37.274 0.126 6.23 6.55 13.1
2/28/2021 7:15:00 AM 2.93 37.274 0.125 6.23 6.39 13.1
2/28/2021 7:30:00 AM 2.93 37.274 0.125 6.24 6.41 13.11
2/28/2021 7:45:00 AM 2.94 37.292 0.125 6.23 6.33 13.14
2/28/2021 8:00:00 AM 2.95 37.31 0.125 6.24 6.08 13.16
2/28/2021 8:15:00 AM 2.96 37.328 0.125 6.24 6.24 13.2
2/28/2021 8:30:00 AM 2.97 37.346 0.125 6.24 6.29 13.23
2/28/2021 8:45:00 AM 2.98 37.364 0.125 6.23 6.25 13.26
2/28/2021 9:00:00 AM 2.99 37.382 0.125 6.24 5.96 13.29
2/28/2021 9:15:00 AM 3 37.4 0.125 6.25 6.07 13.32
2/28/2021 9:30:00 AM 3.01 37.418 0.125 6.25 6.21 13.35
2/28/2021 9:45:00 AM 3.03 37.454 0.125 6.25 6.06 13.38
2/28/2021 10:00:00 AM 3.05 37.49 0.125